Darstellungsparameter: Aktuell verwendete Einstellungen:
Skalierung der Graphiken ... ?
xyx+y,   Skalierungsfaktor:      Skalierung: Modus: x, Faktor: 1
Darstellungszeitraum ... ?
Vom - - bis: - -   Zeitraum: 30.03.2020 - 29.09.2020
Min/Max/Avg-Anzeige ... ?
Zeige MMA aktuell
Zeige MMA Monat
Zeige MMA alles
Zeige --A aktuell
Zeige --A Monat
Zeige --A alles
Keine MMA-Anzeige
MMA:
Average (ber die Originaldaten)
MMA-Basis: 30.03.2020 - 29.09.2020
Quicknavigation für Darstellung... ?
Tage:      1T, 2T, 3T, 5T -1T -2T -3T -5T +1T +2T +3T +5T
Wochen: 1W, 2W, 3W -1W -2W -3W +1W +2W +3W
Monate: 1M, 3M, 6M -1M -3M -6M +1M +3M +6M
Jahre:    1J, 3J, 5J, 10J -1J -3J -5J -10J +1J +3J +5J +10J
Nutze für die Darstellung ... ?
Originaldaten oder Mittelwerte auf ...
Stundenbasis Tagesbasis Wochenbasis
Monatsbasis Jahresbasis      Datenbasis: Original-Daten
Darstellen als:
Statistik (Auto) Statistik J:M      Darstellung:
Zur Graphik,    zurück zur Übersicht aller Sensoren.
 
Tabellarische Datenbersicht: ?
 
Sensor: Nr:Datum:Temp:Abs-Feuchte:Windchill:Wind:
Aussen-T/F 1 30-03-2020 00:00:00 3.6 C 4.15 g/m*3 0.7 C 11.3 km/h
2 30-03-2020 00:05:00 3.4 C 4.09 g/m*3 0.46 C 11.3 km/h
3 30-03-2020 00:10:00 3.3 C 4.06 g/m*3 1.11 C 8.1 km/h
4 30-03-2020 00:15:00 3.3 C 4 g/m*3 0.7 C 9.7 km/h
5 30-03-2020 00:20:00 3.3 C 4 g/m*3 0.7 C 9.7 km/h
6 30-03-2020 00:25:00 3.3 C 4.06 g/m*3 1.11 C 8.1 km/h
7 30-03-2020 00:30:00 3.1 C 4.07 g/m*3 3.1 C 4.8 km/h
8 30-03-2020 00:35:00 2.9 C 4.07 g/m*3 2.9 C 3.2 km/h
9 30-03-2020 00:40:00 2.7 C 4.08 g/m*3 0.94 C 6.4 km/h
10 30-03-2020 00:45:00 2.4 C 4 g/m*3 2.4 C 4.8 km/h
11 30-03-2020 00:50:00 2.2 C 4.06 g/m*3 2.2 C 3.2 km/h
12 30-03-2020 00:55:00 1.9 C 4.03 g/m*3 1.9 C 3.2 km/h
13 30-03-2020 01:00:00 1.7 C 4.03 g/m*3 1.7 C 3.2 km/h
14 30-03-2020 01:05:00 1.5 C 3.97 g/m*3 1.5 C 3.2 km/h
15 30-03-2020 01:10:00 1.4 C 3.95 g/m*3 1.4 C 4.8 km/h
16 30-03-2020 01:15:00 1.4 C 3.95 g/m*3 1.4 C 4.8 km/h
17 30-03-2020 01:20:00 1.4 C 3.89 g/m*3 1.4 C 3.2 km/h
18 30-03-2020 01:25:00 1.4 C 3.89 g/m*3 -0.56 C 6.4 km/h
19 30-03-2020 01:30:00 1.5 C 3.81 g/m*3 1.5 C 3.2 km/h
20 30-03-2020 01:35:00 1.4 C 3.89 g/m*3 1.4 C 4.8 km/h
21 30-03-2020 01:40:00 1.3 C 3.92 g/m*3 1.3 C 1.6 km/h
22 30-03-2020 01:45:00 1.1 C 3.92 g/m*3 1.1 C 1.6 km/h
23 30-03-2020 01:50:00 0.8 C 3.84 g/m*3 0.8 C 1.6 km/h
24 30-03-2020 01:55:00 0.6 C 3.84 g/m*3 0.6 C 3.2 km/h
25 30-03-2020 02:00:00 0.4 C 3.84 g/m*3 0.4 C 1.6 km/h
Sensor: Nr:Datum:Temp:Abs-Feuchte:Windchill:Wind:
Aussen-T/F 26 30-03-2020 02:05:00 0.3 C 3.76 g/m*3 -1.84 C 6.4 km/h
27 30-03-2020 02:10:00 0.3 C 3.81 g/m*3 0.3 C 0 km/h
28 30-03-2020 02:15:00 0.2 C 3.78 g/m*3 0.2 C 0 km/h
29 30-03-2020 02:20:00 -0.1 C 3.75 g/m*3 -0.1 C 1.6 km/h
30 30-03-2020 02:25:00 -0.3 C 3.7 g/m*3 -0.3 C 0 km/h
31 30-03-2020 02:30:00 -0.5 C 3.7 g/m*3 -0.5 C 0 km/h
32 30-03-2020 02:35:00 -0.7 C 3.69 g/m*3 -0.7 C 1.6 km/h
33 30-03-2020 02:40:00 -0.7 C 3.69 g/m*3 -0.7 C 1.6 km/h
34 30-03-2020 02:45:00 -0.8 C 3.71 g/m*3 -0.8 C 1.6 km/h
35 30-03-2020 02:50:00 -0.8 C 3.71 g/m*3 -0.8 C 0 km/h
36 30-03-2020 02:55:00 -0.9 C 3.69 g/m*3 -0.9 C 1.6 km/h
37 30-03-2020 03:00:00 -0.9 C 3.69 g/m*3 -0.9 C 3.2 km/h
38 30-03-2020 03:05:00 -1 C 3.62 g/m*3 -1 C 4.8 km/h
39 30-03-2020 03:10:00 -1 C 3.62 g/m*3 -1 C 3.2 km/h
40 30-03-2020 03:15:00 -1 C 3.66 g/m*3 -1 C 3.2 km/h
41 30-03-2020 03:20:00 -1.1 C 3.64 g/m*3 -1.1 C 3.2 km/h
42 30-03-2020 03:25:00 -1.1 C 3.64 g/m*3 -1.1 C 0 km/h
43 30-03-2020 03:30:00 -1.2 C 3.66 g/m*3 -1.2 C 1.6 km/h
44 30-03-2020 03:35:00 -1.3 C 3.63 g/m*3 -1.3 C 0 km/h
45 30-03-2020 03:40:00 -1.4 C 3.6 g/m*3 -1.4 C 3.2 km/h
46 30-03-2020 03:45:00 -1.4 C 3.6 g/m*3 -1.4 C 3.2 km/h
47 30-03-2020 03:50:00 -1.5 C 3.62 g/m*3 -1.5 C 3.2 km/h
48 30-03-2020 03:55:00 -1.6 C 3.6 g/m*3 -1.6 C 0 km/h
49 30-03-2020 04:00:00 -1.6 C 3.6 g/m*3 -1.6 C 3.2 km/h
50 30-03-2020 04:05:00 -1.6 C 3.6 g/m*3 -1.6 C 4.8 km/h
Sensor: Nr:Datum:Temp:Abs-Feuchte:Windchill:Wind:
Aussen-T/F 51 30-03-2020 04:10:00 -1.6 C 3.6 g/m*3 -1.6 C 0 km/h
52 30-03-2020 04:15:00 -1.6 C 3.64 g/m*3 -1.6 C 0 km/h
53 30-03-2020 04:20:00 -1.6 C 3.6 g/m*3 -1.6 C 1.6 km/h
54 30-03-2020 04:25:00 -1.7 C 3.57 g/m*3 -1.7 C 4.8 km/h
55 30-03-2020 04:30:00 -1.7 C 3.57 g/m*3 -1.7 C 0 km/h
56 30-03-2020 04:35:00 -1.8 C 3.55 g/m*3 -1.8 C 0 km/h
57 30-03-2020 04:40:00 -1.8 C 3.55 g/m*3 -1.8 C 0 km/h
58 30-03-2020 04:45:00 -1.9 C 3.52 g/m*3 -1.9 C 0 km/h
59 30-03-2020 04:50:00 -2 C 3.5 g/m*3 -2 C 3.2 km/h
60 30-03-2020 04:55:00 -2 C 3.5 g/m*3 -2 C 0 km/h
61 30-03-2020 05:00:00 -1.9 C 3.52 g/m*3 -1.9 C 3.2 km/h
62 30-03-2020 05:05:00 -1.8 C 3.51 g/m*3 -1.8 C 3.2 km/h
63 30-03-2020 05:10:00 -1.8 C 3.51 g/m*3 -1.8 C 1.6 km/h
64 30-03-2020 05:15:00 -1.8 C 3.46 g/m*3 -1.8 C 0 km/h
65 30-03-2020 05:20:00 -1.9 C 3.44 g/m*3 -1.9 C 1.6 km/h
66 30-03-2020 05:25:00 -1.9 C 3.44 g/m*3 -1.9 C 3.2 km/h
67 30-03-2020 05:30:00 -2 C 3.41 g/m*3 -2 C 0 km/h
68 30-03-2020 05:35:00 -2.1 C 3.39 g/m*3 -2.1 C 3.2 km/h
69 30-03-2020 05:40:00 -2.2 C 3.37 g/m*3 -2.2 C 0 km/h
70 30-03-2020 05:45:00 -2.3 C 3.38 g/m*3 -2.3 C 0 km/h
71 30-03-2020 05:50:00 -2.4 C 3.36 g/m*3 -2.4 C 0 km/h
72 30-03-2020 05:55:00 -2.5 C 3.34 g/m*3 -2.5 C 0 km/h
73 30-03-2020 06:00:00 -2.6 C 3.31 g/m*3 -2.6 C 0 km/h
74 30-03-2020 06:05:00 -2.7 C 3.29 g/m*3 -2.7 C 0 km/h
75 30-03-2020 06:10:00 -2.7 C 3.29 g/m*3 -2.7 C 0 km/h
Sensor: Nr:Datum:Temp:Abs-Feuchte:Windchill:Wind:
Aussen-T/F 76 30-03-2020 06:15:00 -2.8 C 3.31 g/m*3 -2.8 C 0 km/h
77 30-03-2020 06:20:00 -2.9 C 3.28 g/m*3 -2.9 C 0 km/h
78 30-03-2020 06:25:00 -3 C 3.3 g/m*3 -3 C 0 km/h
79 30-03-2020 06:30:00 -3 C 3.3 g/m*3 -3 C 0 km/h
80 30-03-2020 06:35:00 -3.1 C 3.28 g/m*3 -3.1 C 0 km/h
81 30-03-2020 06:40:00 -3.1 C 3.28 g/m*3 -5.76 C 6.4 km/h
82 30-03-2020 06:45:00 -3.1 C 3.28 g/m*3 -3.1 C 3.2 km/h
83 30-03-2020 06:50:00 -2.9 C 3.36 g/m*3 -2.9 C 1.6 km/h
84 30-03-2020 06:55:00 -2.9 C 3.36 g/m*3 -2.9 C 0 km/h
85 30-03-2020 07:00:00 -2.8 C 3.35 g/m*3 -2.8 C 0 km/h
86 30-03-2020 07:05:00 -2.9 C 3.32 g/m*3 -2.9 C 1.6 km/h
87 30-03-2020 07:10:00 -2.9 C 3.32 g/m*3 -2.9 C 1.6 km/h
88 30-03-2020 07:15:00 -2.9 C 3.32 g/m*3 -2.9 C 3.2 km/h
89 30-03-2020 07:20:00 -2.9 C 3.32 g/m*3 -2.9 C 1.6 km/h
90 30-03-2020 07:25:00 -2.9 C 3.28 g/m*3 -2.9 C 0 km/h
91 30-03-2020 07:30:00 -3 C 3.26 g/m*3 -3 C 0 km/h
92 30-03-2020 07:35:00 -3.1 C 3.24 g/m*3 -3.1 C 0 km/h
93 30-03-2020 07:40:00 -3.2 C 3.25 g/m*3 -3.2 C 0 km/h
94 30-03-2020 07:45:00 -3.3 C 3.23 g/m*3 -3.3 C 1.6 km/h
95 30-03-2020 07:50:00 -3.3 C 3.23 g/m*3 -3.3 C 0 km/h
96 30-03-2020 07:55:00 -3.4 C 3.21 g/m*3 -3.4 C 0 km/h
97 30-03-2020 08:00:00 -3.4 C 3.21 g/m*3 -3.4 C 0 km/h
98 30-03-2020 08:05:00 -3.4 C 3.25 g/m*3 -3.4 C 0 km/h
99 30-03-2020 08:10:00 -3.4 C 3.25 g/m*3 -3.4 C 0 km/h
100 30-03-2020 08:15:00 -3.3 C 3.27 g/m*3 -3.3 C 0 km/h
Sensor: Nr:Datum:Temp:Abs-Feuchte:Windchill:Wind:
Aussen-T/F 101 30-03-2020 08:20:00 -3.3 C 3.27 g/m*3 -3.3 C 0 km/h
102 30-03-2020 08:25:00 -3.3 C 3.27 g/m*3 -3.3 C 0 km/h
103 30-03-2020 08:30:00 -3.3 C 3.27 g/m*3 -3.3 C 1.6 km/h
104 30-03-2020 08:35:00 -3.2 C 3.29 g/m*3 -3.2 C 3.2 km/h
105 30-03-2020 08:40:00 -3.1 C 3.32 g/m*3 -3.1 C 0 km/h
106 30-03-2020 08:45:00 -3.1 C 3.32 g/m*3 -3.1 C 0 km/h
107 30-03-2020 08:50:00 -3 C 3.34 g/m*3 -3 C 0 km/h
108 30-03-2020 08:55:00 -2.9 C 3.32 g/m*3 -2.9 C 0 km/h
109 30-03-2020 09:00:00 -2.8 C 3.35 g/m*3 -2.8 C 0 km/h
110 30-03-2020 09:05:00 -2.7 C 3.33 g/m*3 -2.7 C 0 km/h
111 30-03-2020 09:10:00 -2.6 C 3.35 g/m*3 -2.6 C 1.6 km/h
112 30-03-2020 09:15:00 -2.5 C 3.34 g/m*3 -2.5 C 0 km/h
113 30-03-2020 09:20:00 -2.4 C 3.32 g/m*3 -2.4 C 3.2 km/h
114 30-03-2020 09:25:00 -2.3 C 3.34 g/m*3 -2.3 C 1.6 km/h
115 30-03-2020 09:30:00 -2.2 C 3.33 g/m*3 -2.2 C 1.6 km/h
116 30-03-2020 09:35:00 -2.1 C 3.35 g/m*3 -2.1 C 1.6 km/h
117 30-03-2020 09:40:00 -1.9 C 3.35 g/m*3 -1.9 C 3.2 km/h
118 30-03-2020 09:45:00 -1.8 C 3.38 g/m*3 -1.8 C 0 km/h
119 30-03-2020 09:50:00 -1.7 C 3.44 g/m*3 -1.7 C 0 km/h
120 30-03-2020 09:55:00 -1.7 C 3.44 g/m*3 -1.7 C 3.2 km/h
121 30-03-2020 10:00:00 -1.6 C 3.47 g/m*3 -1.6 C 3.2 km/h
122 30-03-2020 10:05:00 -1.5 C 3.45 g/m*3 -1.5 C 0 km/h
123 30-03-2020 10:10:00 -1.4 C 3.52 g/m*3 -1.4 C 0 km/h
124 30-03-2020 10:15:00 -1.3 C 3.54 g/m*3 -1.3 C 1.6 km/h
125 30-03-2020 10:20:00 -1.2 C 3.57 g/m*3 -1.2 C 1.6 km/h
Sensor: Nr:Datum:Temp:Abs-Feuchte:Windchill:Wind:
Aussen-T/F 126 30-03-2020 10:25:00 -1.1 C 3.5 g/m*3 -1.1 C 1.6 km/h
127 30-03-2020 10:30:00 -0.9 C 3.51 g/m*3 -0.9 C 1.6 km/h
128 30-03-2020 10:35:00 -0.7 C 3.46 g/m*3 -2.99 C 6.4 km/h
129 30-03-2020 10:40:00 -0.3 C 3.37 g/m*3 -4.69 C 14.5 km/h
130 30-03-2020 10:45:00 0.2 C 3.44 g/m*3 -1.95 C 6.4 km/h
131 30-03-2020 10:50:00 0.8 C 3.12 g/m*3 -2.67 C 11.3 km/h
132 30-03-2020 10:55:00 1.3 C 3.5 g/m*3 1.3 C 1.6 km/h
133 30-03-2020 11:00:00 1.4 C 3.2 g/m*3 -2.6 C 14.5 km/h
134 30-03-2020 11:05:00 1.9 C 3.04 g/m*3 -0.54 C 8.1 km/h
135 30-03-2020 11:10:00 2.2 C 3.04 g/m*3 2.2 C 3.2 km/h
136 30-03-2020 11:15:00 2.3 C 3.12 g/m*3 2.3 C 1.6 km/h
137 30-03-2020 11:20:00 2.4 C 2.97 g/m*3 -0.74 C 11.3 km/h
138 30-03-2020 11:25:00 2.7 C 2.91 g/m*3 2.7 C 4.8 km/h
139 30-03-2020 11:30:00 2.8 C 2.93 g/m*3 1.05 C 6.4 km/h
140 30-03-2020 11:35:00 3.1 C 2.93 g/m*3 0.87 C 8.1 km/h
141 30-03-2020 11:40:00 3.3 C 2.85 g/m*3 0.7 C 9.7 km/h
142 30-03-2020 11:45:00 3.3 C 2.79 g/m*3 1.63 C 6.4 km/h
143 30-03-2020 11:50:00 3.4 C 2.87 g/m*3 3.4 C 4.8 km/h
144 30-03-2020 11:55:00 3.6 C 2.72 g/m*3 1.46 C 8.1 km/h
145 30-03-2020 12:00:00 3.7 C 2.8 g/m*3 0.82 C 11.3 km/h
146 30-03-2020 12:05:00 3.8 C 2.7 g/m*3 3.8 C 4.8 km/h
147 30-03-2020 12:10:00 4 C 2.67 g/m*3 1.53 C 9.7 km/h
148 30-03-2020 12:15:00 4.1 C 2.69 g/m*3 4.1 C 4.8 km/h
149 30-03-2020 12:20:00 4.2 C 2.58 g/m*3 4.2 C 4.8 km/h
150 30-03-2020 12:25:00 4.3 C 2.46 g/m*3 4.3 C 4.8 km/h
Sensor: Nr:Datum:Temp:Abs-Feuchte:Windchill:Wind:
Aussen-T/F 151 30-03-2020 12:30:00 4.4 C 2.48 g/m*3 2.4 C 8.1 km/h
152 30-03-2020 12:35:00 4.6 C 2.51 g/m*3 1.91 C 11.3 km/h
153 30-03-2020 12:40:00 4.8 C 2.48 g/m*3 2.87 C 8.1 km/h
154 30-03-2020 12:45:00 4.9 C 2.5 g/m*3 4.9 C 3.2 km/h
155 30-03-2020 12:50:00 5.1 C 2.6 g/m*3 2.51 C 11.3 km/h
156 30-03-2020 12:55:00 5.1 C 2.46 g/m*3 5.1 C 4.8 km/h
157 30-03-2020 13:00:00 5.3 C 2.5 g/m*3 5.3 C 4.8 km/h
158 30-03-2020 13:05:00 5.5 C 2.6 g/m*3 3.7 C 8.1 km/h
159 30-03-2020 13:10:00 5.7 C 2.7 g/m*3 4.4 C 6.4 km/h
160 30-03-2020 13:15:00 5.9 C 2.74 g/m*3 4.63 C 6.4 km/h
161 30-03-2020 13:20:00 5.9 C 2.67 g/m*3 3.48 C 11.3 km/h
162 30-03-2020 13:25:00 5.9 C 2.6 g/m*3 3.8 C 9.7 km/h
163 30-03-2020 13:30:00 6 C 2.76 g/m*3 3.92 C 9.7 km/h
164 30-03-2020 13:35:00 6.2 C 2.72 g/m*3 4.15 C 9.7 km/h
165 30-03-2020 13:40:00 6.3 C 2.66 g/m*3 3.96 C 11.3 km/h
166 30-03-2020 13:45:00 6.4 C 2.68 g/m*3 6.4 C 3.2 km/h
167 30-03-2020 13:50:00 6.3 C 2.66 g/m*3 3.2 C 16.1 km/h
168 30-03-2020 13:55:00 6.4 C 2.68 g/m*3 4.75 C 8.1 km/h
169 30-03-2020 14:00:00 6.6 C 2.64 g/m*3 6.6 C 4.8 km/h
170 30-03-2020 14:05:00 6.7 C 2.66 g/m*3 5.56 C 6.4 km/h
171 30-03-2020 14:10:00 6.8 C 2.52 g/m*3 5.22 C 8.1 km/h
172 30-03-2020 14:15:00 6.8 C 2.52 g/m*3 5.67 C 6.4 km/h
173 30-03-2020 14:20:00 7.1 C 2.57 g/m*3 4.41 C 14.5 km/h
174 30-03-2020 14:25:00 7.3 C 2.61 g/m*3 4.23 C 17.7 km/h
175 30-03-2020 14:30:00 7.3 C 2.77 g/m*3 4.66 C 14.5 km/h
Sensor: Nr:Datum:Temp:Abs-Feuchte:Windchill:Wind:
Aussen-T/F 176 30-03-2020 14:35:00 7.3 C 2.69 g/m*3 5.47 C 9.7 km/h
177 30-03-2020 14:40:00 7.4 C 2.62 g/m*3 5.02 C 12.9 km/h
178 30-03-2020 14:45:00 7.6 C 2.82 g/m*3 5.53 C 11.3 km/h
179 30-03-2020 14:50:00 7.7 C 2.84 g/m*3 5.94 C 9.7 km/h
180 30-03-2020 14:55:00 7.9 C 2.96 g/m*3 5.89 C 11.3 km/h
181 30-03-2020 15:00:00 8.1 C 2.91 g/m*3 6.75 C 8.1 km/h
182 30-03-2020 15:05:00 7.9 C 2.87 g/m*3 5.18 C 16.1 km/h
183 30-03-2020 15:10:00 7.8 C 2.94 g/m*3 5.77 C 11.3 km/h
184 30-03-2020 15:15:00 7.8 C 2.94 g/m*3 5.06 C 16.1 km/h
185 30-03-2020 15:20:00 8 C 2.98 g/m*3 5.75 C 12.9 km/h
186 30-03-2020 15:25:00 8 C 2.98 g/m*3 5.3 C 16.1 km/h
187 30-03-2020 15:30:00 8 C 3.14 g/m*3 6.64 C 8.1 km/h
188 30-03-2020 15:35:00 8.2 C 3.18 g/m*3 5.99 C 12.9 km/h
189 30-03-2020 15:40:00 8.2 C 3.1 g/m*3 5.99 C 12.9 km/h
190 30-03-2020 15:45:00 8.3 C 3.12 g/m*3 5.68 C 16.1 km/h
191 30-03-2020 15:50:00 8.3 C 3.2 g/m*3 6.37 C 11.3 km/h
192 30-03-2020 15:55:00 8.3 C 3.12 g/m*3 6.12 C 12.9 km/h
193 30-03-2020 16:00:00 8.4 C 3.14 g/m*3 6.01 C 14.5 km/h
194 30-03-2020 16:05:00 8.6 C 3.35 g/m*3 6.48 C 12.9 km/h
195 30-03-2020 16:10:00 8.8 C 3.31 g/m*3 6.5 C 14.5 km/h
196 30-03-2020 16:15:00 9.2 C 3.3 g/m*3 6.99 C 14.5 km/h
197 30-03-2020 16:20:00 9.2 C 3.39 g/m*3 6.99 C 14.5 km/h
198 30-03-2020 16:25:00 9.3 C 3.42 g/m*3 7.33 C 12.9 km/h
199 30-03-2020 16:30:00 9 C 3.35 g/m*3 7.21 C 11.3 km/h
200 30-03-2020 16:35:00 8.8 C 3.39 g/m*3 6.97 C 11.3 km/h
Sensor: Nr:Datum:Temp:Abs-Feuchte:Windchill:Wind:
Aussen-T/F 201 30-03-2020 16:40:00 9.1 C 3.55 g/m*3 7.33 C 11.3 km/h
202 30-03-2020 16:45:00 9.4 C 3.62 g/m*3 7.97 C 9.7 km/h
203 30-03-2020 16:50:00 9.5 C 3.55 g/m*3 7.58 C 12.9 km/h
204 30-03-2020 16:55:00 9.4 C 3.62 g/m*3 7.46 C 12.9 km/h
205 30-03-2020 17:00:00 9.1 C 3.55 g/m*3 6.87 C 14.5 km/h
206 30-03-2020 17:05:00 9.2 C 3.75 g/m*3 6.99 C 14.5 km/h
207 30-03-2020 17:10:00 9.8 C 3.71 g/m*3 7.54 C 16.1 km/h
208 30-03-2020 17:15:00 9.9 C 3.73 g/m*3 7.48 C 17.7 km/h
209 30-03-2020 17:20:00 9.8 C 3.62 g/m*3 7.54 C 16.1 km/h
210 30-03-2020 17:25:00 9.9 C 3.64 g/m*3 7.85 C 14.5 km/h
211 30-03-2020 17:30:00 9.6 C 3.66 g/m*3 7.29 C 16.1 km/h
212 30-03-2020 17:35:00 9.7 C 3.78 g/m*3 7.41 C 16.1 km/h
213 30-03-2020 17:40:00 9.7 C 3.87 g/m*3 7.23 C 17.7 km/h
214 30-03-2020 17:45:00 9.4 C 3.89 g/m*3 7.24 C 14.5 km/h
215 30-03-2020 17:50:00 9.2 C 3.93 g/m*3 6.61 C 17.7 km/h
216 30-03-2020 17:55:00 8.9 C 3.94 g/m*3 6.85 C 12.9 km/h
217 30-03-2020 18:00:00 8.8 C 4 g/m*3 5.34 C 25.7 km/h
218 30-03-2020 18:05:00 8.5 C 3.93 g/m*3 6.36 C 12.9 km/h
219 30-03-2020 18:10:00 8.2 C 3.94 g/m*3 6.25 C 11.3 km/h
220 30-03-2020 18:15:00 7.9 C 4.02 g/m*3 6.18 C 9.7 km/h
221 30-03-2020 18:20:00 8.1 C 4.16 g/m*3 6.13 C 11.3 km/h
222 30-03-2020 18:25:00 8.4 C 4.16 g/m*3 6.24 C 12.9 km/h
223 30-03-2020 18:30:00 8.7 C 4.15 g/m*3 6.85 C 11.3 km/h
224 30-03-2020 18:35:00 8.9 C 4.2 g/m*3 7.09 C 11.3 km/h
225 30-03-2020 18:40:00 8.8 C 4.09 g/m*3 6.3 C 16.1 km/h
Sensor: Nr:Datum:Temp:Abs-Feuchte:Windchill:Wind:
Aussen-T/F 226 30-03-2020 18:45:00 8.7 C 4.15 g/m*3 6.6 C 12.9 km/h
227 30-03-2020 18:50:00 8.7 C 4.24 g/m*3 7.46 C 8.1 km/h
228 30-03-2020 18:55:00 8.8 C 4.26 g/m*3 6.97 C 11.3 km/h
229 30-03-2020 19:00:00 8.6 C 4.21 g/m*3 6.73 C 11.3 km/h
230 30-03-2020 19:05:00 8.5 C 4.27 g/m*3 6.36 C 12.9 km/h
231 30-03-2020 19:10:00 8.3 C 4.21 g/m*3 5.89 C 14.5 km/h
232 30-03-2020 19:15:00 8.1 C 4.24 g/m*3 6.42 C 9.7 km/h
233 30-03-2020 19:20:00 7.8 C 4.24 g/m*3 7.8 C 4.8 km/h
234 30-03-2020 19:25:00 7.6 C 4.19 g/m*3 6.16 C 8.1 km/h
235 30-03-2020 19:30:00 7.4 C 4.21 g/m*3 5.58 C 9.7 km/h
236 30-03-2020 19:35:00 7.3 C 4.27 g/m*3 5.81 C 8.1 km/h
237 30-03-2020 19:40:00 7.2 C 4.24 g/m*3 7.2 C 4.8 km/h
238 30-03-2020 19:45:00 7 C 4.26 g/m*3 7 C 3.2 km/h
239 30-03-2020 19:50:00 6.8 C 4.28 g/m*3 6.8 C 1.6 km/h
240 30-03-2020 19:55:00 6.4 C 4.32 g/m*3 6.4 C 0 km/h
241 30-03-2020 20:00:00 5.9 C 4.25 g/m*3 5.9 C 0 km/h
242 30-03-2020 20:05:00 5.4 C 4.26 g/m*3 5.4 C 0 km/h
243 30-03-2020 20:10:00 4.9 C 4.19 g/m*3 4.9 C 0 km/h
244 30-03-2020 20:15:00 4.6 C 4.23 g/m*3 4.6 C 0 km/h
245 30-03-2020 20:20:00 4.3 C 4.22 g/m*3 4.3 C 1.6 km/h
246 30-03-2020 20:25:00 4.2 C 4.32 g/m*3 4.2 C 1.6 km/h
247 30-03-2020 20:30:00 4.1 C 4.35 g/m*3 4.1 C 3.2 km/h
248 30-03-2020 20:35:00 3.9 C 4.36 g/m*3 3.9 C 4.8 km/h
249 30-03-2020 20:40:00 3.8 C 4.33 g/m*3 3.8 C 4.8 km/h
250 30-03-2020 20:45:00 3.7 C 4.3 g/m*3 3.7 C 1.6 km/h
Sensor: Nr:Datum:Temp:Abs-Feuchte:Windchill:Wind:
Aussen-T/F 251 30-03-2020 20:50:00 3.6 C 4.33 g/m*3 3.6 C 4.8 km/h
252 30-03-2020 20:55:00 3.6 C 4.39 g/m*3 3.6 C 4.8 km/h
253 30-03-2020 21:00:00 3.5 C 4.43 g/m*3 1.86 C 6.4 km/h
254 30-03-2020 21:05:00 3.6 C 4.52 g/m*3 3.6 C 4.8 km/h
255 30-03-2020 21:10:00 3.6 C 4.52 g/m*3 3.6 C 4.8 km/h
256 30-03-2020 21:15:00 3.7 C 4.55 g/m*3 3.7 C 4.8 km/h
257 30-03-2020 21:20:00 3.7 C 4.61 g/m*3 3.7 C 4.8 km/h
258 30-03-2020 21:25:00 3.8 C 4.64 g/m*3 3.8 C 4.8 km/h
259 30-03-2020 21:30:00 3.8 C 4.64 g/m*3 3.8 C 3.2 km/h
260 30-03-2020 21:35:00 3.9 C 4.67 g/m*3 3.9 C 1.6 km/h
261 30-03-2020 21:40:00 4 C 4.7 g/m*3 4 C 0 km/h
262 30-03-2020 21:45:00 4 C 4.7 g/m*3 4 C 3.2 km/h
263 30-03-2020 21:50:00 4 C 4.7 g/m*3 4 C 3.2 km/h
264 30-03-2020 21:55:00 4.1 C 4.74 g/m*3 4.1 C 1.6 km/h
265 30-03-2020 22:00:00 4 C 4.7 g/m*3 4 C 0 km/h
266 30-03-2020 22:05:00 4 C 4.77 g/m*3 4 C 0 km/h
267 30-03-2020 22:10:00 3.9 C 4.74 g/m*3 3.9 C 0 km/h
268 30-03-2020 22:15:00 4 C 4.7 g/m*3 4 C 3.2 km/h
269 30-03-2020 22:20:00 4 C 4.7 g/m*3 4 C 0 km/h
270 30-03-2020 22:25:00 4.1 C 4.8 g/m*3 4.1 C 0 km/h
271 30-03-2020 22:30:00 4.1 C 4.67 g/m*3 4.1 C 3.2 km/h
272 30-03-2020 22:35:00 4.1 C 4.67 g/m*3 4.1 C 0 km/h
273 30-03-2020 22:40:00 4.2 C 4.7 g/m*3 4.2 C 0 km/h
274 30-03-2020 22:45:00 4.2 C 4.64 g/m*3 4.2 C 3.2 km/h
275 30-03-2020 22:50:00 4.3 C 4.67 g/m*3 4.3 C 1.6 km/h
Sensor: Nr:Datum:Temp:Abs-Feuchte:Windchill:Wind:
Aussen-T/F 276 30-03-2020 22:55:00 4.3 C 4.74 g/m*3 4.3 C 0 km/h
277 30-03-2020 23:00:00 4.3 C 4.67 g/m*3 4.3 C 4.8 km/h
278 30-03-2020 23:05:00 4.3 C 4.67 g/m*3 4.3 C 0 km/h
279 30-03-2020 23:10:00 4.3 C 4.67 g/m*3 4.3 C 3.2 km/h
280 30-03-2020 23:15:00 4.4 C 4.7 g/m*3 4.4 C 0 km/h
281 30-03-2020 23:20:00 4.4 C 4.77 g/m*3 4.4 C 0 km/h
282 30-03-2020 23:25:00 4.4 C 4.7 g/m*3 4.4 C 1.6 km/h
283 30-03-2020 23:30:00 4.4 C 4.7 g/m*3 4.4 C 0 km/h
284 30-03-2020 23:35:00 4.4 C 4.7 g/m*3 4.4 C 3.2 km/h
285 30-03-2020 23:40:00 4.4 C 4.77 g/m*3 4.4 C 1.6 km/h
286 30-03-2020 23:45:00 4.4 C 4.77 g/m*3 4.4 C 1.6 km/h
287 30-03-2020 23:50:00 4.4 C 4.77 g/m*3 4.4 C 0 km/h
288 30-03-2020 23:55:00 4.4 C 4.7 g/m*3 4.4 C 1.6 km/h
289 31-03-2020 00:00:00 4.4 C 4.7 g/m*3 4.4 C 1.6 km/h
290 31-03-2020 00:05:00 4.4 C 4.7 g/m*3 4.4 C 0 km/h
291 31-03-2020 00:10:00 4.4 C 4.7 g/m*3 4.4 C 0 km/h
292 31-03-2020 00:15:00 4.5 C 4.73 g/m*3 4.5 C 3.2 km/h
293 31-03-2020 00:20:00 4.5 C 4.73 g/m*3 4.5 C 3.2 km/h
294 31-03-2020 00:25:00 4.5 C 4.8 g/m*3 4.5 C 3.2 km/h
295 31-03-2020 00:30:00 4.5 C 4.8 g/m*3 4.5 C 1.6 km/h
296 31-03-2020 00:35:00 4.4 C 4.77 g/m*3 4.4 C 0 km/h
297 31-03-2020 00:40:00 4.5 C 4.8 g/m*3 4.5 C 0 km/h
298 31-03-2020 00:45:00 4.5 C 4.8 g/m*3 4.5 C 0 km/h
299 31-03-2020 00:50:00 4.6 C 4.83 g/m*3 4.6 C 0 km/h
300 31-03-2020 00:55:00 4.6 C 4.96 g/m*3 4.6 C 4.8 km/h
Sensor: Nr:Datum:Temp:Abs-Feuchte:Windchill:Wind:
Aussen-T/F 301 31-03-2020 01:00:00 4.7 C 5 g/m*3 4.7 C 0 km/h
302 31-03-2020 01:05:00 4.7 C 5.06 g/m*3 4.7 C 1.6 km/h
303 31-03-2020 01:10:00 4.7 C 5.06 g/m*3 4.7 C 1.6 km/h
304 31-03-2020 01:15:00 4.7 C 5.06 g/m*3 4.7 C 1.6 km/h
305 31-03-2020 01:20:00 4.7 C 5.13 g/m*3 4.7 C 1.6 km/h
306 31-03-2020 01:25:00 4.6 C 5.16 g/m*3 4.6 C 1.6 km/h
307 31-03-2020 01:30:00 4.5 C 5.19 g/m*3 4.5 C 3.2 km/h
308 31-03-2020 01:35:00 4.5 C 5.26 g/m*3 4.5 C 0 km/h
309 31-03-2020 01:40:00 4.5 C 5.26 g/m*3 3.02 C 6.4 km/h
310 31-03-2020 01:45:00 4.5 C 5.32 g/m*3 4.5 C 1.6 km/h
311 31-03-2020 01:50:00 4.6 C 5.36 g/m*3 4.6 C 1.6 km/h
312 31-03-2020 01:55:00 4.6 C 5.43 g/m*3 4.6 C 4.8 km/h
313 31-03-2020 02:00:00 4.6 C 5.43 g/m*3 4.6 C 3.2 km/h
314 31-03-2020 02:05:00 4.5 C 5.32 g/m*3 4.5 C 0 km/h
315 31-03-2020 02:10:00 4.4 C 5.35 g/m*3 4.4 C 4.8 km/h
316 31-03-2020 02:15:00 4.3 C 5.32 g/m*3 4.3 C 4.8 km/h
317 31-03-2020 02:20:00 4.2 C 5.35 g/m*3 4.2 C 3.2 km/h
318 31-03-2020 02:25:00 4.1 C 5.31 g/m*3 4.1 C 0 km/h
319 31-03-2020 02:30:00 4.1 C 5.38 g/m*3 4.1 C 0 km/h
320 31-03-2020 02:35:00 4.1 C 5.38 g/m*3 4.1 C 0 km/h
321 31-03-2020 02:40:00 4 C 5.34 g/m*3 4 C 0 km/h
322 31-03-2020 02:45:00 3.9 C 5.31 g/m*3 3.9 C 0 km/h
323 31-03-2020 02:50:00 3.8 C 5.27 g/m*3 3.8 C 0 km/h
324 31-03-2020 02:55:00 3.6 C 5.2 g/m*3 3.6 C 0 km/h
325 31-03-2020 03:00:00 3.4 C 5.19 g/m*3 3.4 C 1.6 km/h
Sensor: Nr:Datum:Temp:Abs-Feuchte:Windchill:Wind:
Aussen-T/F 326 31-03-2020 03:05:00 3.4 C 5.25 g/m*3 3.4 C 0 km/h
327 31-03-2020 03:10:00 3.3 C 5.22 g/m*3 3.3 C 0 km/h
328 31-03-2020 03:15:00 3.2 C 5.18 g/m*3 3.2 C 3.2 km/h
329 31-03-2020 03:20:00 3.2 C 5.24 g/m*3 3.2 C 3.2 km/h
330 31-03-2020 03:25:00 3.1 C 5.21 g/m*3 3.1 C 1.6 km/h
331 31-03-2020 03:30:00 3.1 C 5.27 g/m*3 3.1 C 1.6 km/h
332 31-03-2020 03:35:00 3.1 C 5.27 g/m*3 3.1 C 1.6 km/h
333 31-03-2020 03:40:00 3.1 C 5.27 g/m*3 3.1 C 0 km/h
334 31-03-2020 03:45:00 3 C 5.23 g/m*3 3 C 0 km/h
335 31-03-2020 03:50:00 2.9 C 5.2 g/m*3 2.9 C 0 km/h
336 31-03-2020 03:55:00 2.9 C 5.26 g/m*3 2.9 C 0 km/h
337 31-03-2020 04:00:00 3 C 5.29 g/m*3 3 C 0 km/h
338 31-03-2020 04:05:00 3.1 C 5.39 g/m*3 3.1 C 0 km/h
339 31-03-2020 04:10:00 3.2 C 5.42 g/m*3 3.2 C 0 km/h
340 31-03-2020 04:15:00 3.2 C 5.42 g/m*3 3.2 C 0 km/h
341 31-03-2020 04:20:00 3.3 C 5.46 g/m*3 3.3 C 1.6 km/h
342 31-03-2020 04:25:00 3.4 C 5.5 g/m*3 3.4 C 0 km/h
343 31-03-2020 04:30:00 3.4 C 5.5 g/m*3 3.4 C 0 km/h
344 31-03-2020 04:35:00 3.4 C 5.5 g/m*3 3.4 C 0 km/h
345 31-03-2020 04:40:00 3.5 C 5.53 g/m*3 3.5 C 0 km/h
346 31-03-2020 04:45:00 3.5 C 5.53 g/m*3 3.5 C 0 km/h
347 31-03-2020 04:50:00 3.6 C 5.57 g/m*3 3.6 C 1.6 km/h
348 31-03-2020 04:55:00 3.6 C 5.57 g/m*3 3.6 C 0 km/h
349 31-03-2020 05:00:00 3.7 C 5.61 g/m*3 3.7 C 0 km/h
350 31-03-2020 05:05:00 3.7 C 5.61 g/m*3 3.7 C 0 km/h
Sensor: Nr:Datum:Temp:Abs-Feuchte:Windchill:Wind:
Aussen-T/F 351 31-03-2020 05:10:00 3.7 C 5.55 g/m*3 3.7 C 0 km/h
352 31-03-2020 05:15:00 3.7 C 5.55 g/m*3 3.7 C 0 km/h
353 31-03-2020 05:20:00 3.6 C 5.51 g/m*3 3.6 C 0 km/h
354 31-03-2020 05:25:00 3.4 C 5.44 g/m*3 3.4 C 0 km/h
355 31-03-2020 05:30:00 3.3 C 5.4 g/m*3 3.3 C 0 km/h
356 31-03-2020 05:35:00 3.2 C 5.36 g/m*3 3.2 C 1.6 km/h
357 31-03-2020 05:40:00 3.1 C 5.27 g/m*3 3.1 C 1.6 km/h
358 31-03-2020 05:45:00 2.8 C 5.16 g/m*3 2.8 C 1.6 km/h
359 31-03-2020 05:50:00 2.7 C 5.13 g/m*3 2.7 C 0 km/h
360 31-03-2020 05:55:00 2.4 C 5.02 g/m*3 2.4 C 3.2 km/h
361 31-03-2020 06:00:00 2.3 C 4.99 g/m*3 2.3 C 3.2 km/h
362 31-03-2020 06:05:00 2.2 C 5.01 g/m*3 2.2 C 1.6 km/h
363 31-03-2020 06:10:00 2.1 C 4.98 g/m*3 2.1 C 1.6 km/h
364 31-03-2020 06:15:00 1.9 C 4.91 g/m*3 1.9 C 0 km/h
365 31-03-2020 06:20:00 1.9 C 4.97 g/m*3 1.9 C 0 km/h
366 31-03-2020 06:25:00 1.9 C 4.97 g/m*3 1.9 C 0 km/h
367 31-03-2020 06:30:00 2 C 5.06 g/m*3 2 C 0 km/h
368 31-03-2020 06:35:00 2.2 C 5.18 g/m*3 2.2 C 0 km/h
369 31-03-2020 06:40:00 2.3 C 5.22 g/m*3 2.3 C 0 km/h
370 31-03-2020 06:45:00 2.3 C 5.22 g/m*3 2.3 C 0 km/h
371 31-03-2020 06:50:00 2.4 C 5.25 g/m*3 2.4 C 0 km/h
372 31-03-2020 06:55:00 2.5 C 5.29 g/m*3 2.5 C 0 km/h
373 31-03-2020 07:00:00 2.6 C 5.32 g/m*3 2.6 C 0 km/h
374 31-03-2020 07:05:00 2.6 C 5.32 g/m*3 2.6 C 0 km/h
375 31-03-2020 07:10:00 2.7 C 5.36 g/m*3 2.7 C 0 km/h
Sensor: Nr:Datum:Temp:Abs-Feuchte:Windchill:Wind:
Aussen-T/F 376 31-03-2020 07:15:00 2.7 C 5.36 g/m*3 2.7 C 0 km/h
377 31-03-2020 07:20:00 2.7 C 5.36 g/m*3 2.7 C 0 km/h
378 31-03-2020 07:25:00 2.7 C 5.36 g/m*3 2.7 C 0 km/h
379 31-03-2020 07:30:00 2.7 C 5.36 g/m*3 2.7 C 0 km/h
380 31-03-2020 07:35:00 2.7 C 5.36 g/m*3 2.7 C 0 km/h
381 31-03-2020 07:40:00 2.7 C 5.36 g/m*3 2.7 C 0 km/h
382 31-03-2020 07:45:00 2.6 C 5.27 g/m*3 2.6 C 0 km/h
383 31-03-2020 07:50:00 2.6 C 5.32 g/m*3 2.6 C 0 km/h
384 31-03-2020 07:55:00 2.6 C 5.32 g/m*3 2.6 C 0 km/h
385 31-03-2020 08:00:00 2.7 C 5.36 g/m*3 2.7 C 0 km/h
386 31-03-2020 08:05:00 2.8 C 5.4 g/m*3 2.8 C 0 km/h
387 31-03-2020 08:10:00 2.9 C 5.43 g/m*3 2.9 C 0 km/h
388 31-03-2020 08:15:00 3.1 C 5.57 g/m*3 3.1 C 0 km/h
389 31-03-2020 08:20:00 3.3 C 5.58 g/m*3 3.3 C 0 km/h
390 31-03-2020 08:25:00 3.4 C 5.62 g/m*3 3.4 C 0 km/h
391 31-03-2020 08:30:00 3.6 C 5.63 g/m*3 3.6 C 0 km/h
392 31-03-2020 08:35:00 3.7 C 5.67 g/m*3 3.7 C 1.6 km/h
393 31-03-2020 08:40:00 3.8 C 5.58 g/m*3 2.21 C 6.4 km/h
394 31-03-2020 08:45:00 3.9 C 5.49 g/m*3 1.82 C 8.1 km/h
395 31-03-2020 08:50:00 4.1 C 5.44 g/m*3 2.05 C 8.1 km/h
396 31-03-2020 08:55:00 4.2 C 5.35 g/m*3 2.67 C 6.4 km/h
397 31-03-2020 09:00:00 4.3 C 5.25 g/m*3 1.55 C 11.3 km/h
398 31-03-2020 09:05:00 4.4 C 5.22 g/m*3 2.4 C 8.1 km/h
399 31-03-2020 09:10:00 4.4 C 5.09 g/m*3 4.4 C 4.8 km/h
400 31-03-2020 09:15:00 4.4 C 5.09 g/m*3 2.9 C 6.4 km/h
Sensor: Nr:Datum:Temp:Abs-Feuchte:Windchill:Wind:
Aussen-T/F 401 31-03-2020 09:20:00 4.4 C 5.03 g/m*3 2.01 C 9.7 km/h
402 31-03-2020 09:25:00 4.5 C 5.06 g/m*3 2.52 C 8.1 km/h
403 31-03-2020 09:30:00 4.5 C 5.06 g/m*3 4.5 C 4.8 km/h
404 31-03-2020 09:35:00 4.6 C 5.03 g/m*3 2.64 C 8.1 km/h
405 31-03-2020 09:40:00 4.6 C 4.96 g/m*3 3.13 C 6.4 km/h
406 31-03-2020 09:45:00 4.6 C 5.03 g/m*3 4.6 C 4.8 km/h
407 31-03-2020 09:50:00 4.7 C 4.86 g/m*3 1.73 C 12.9 km/h
408 31-03-2020 09:55:00 4.8 C 5.03 g/m*3 4.8 C 4.8 km/h
409 31-03-2020 10:00:00 4.9 C 5 g/m*3 3.48 C 6.4 km/h
410 31-03-2020 10:05:00 4.9 C 4.86 g/m*3 2.27 C 11.3 km/h
411 31-03-2020 10:10:00 4.9 C 4.93 g/m*3 2.27 C 11.3 km/h
412 31-03-2020 10:15:00 4.9 C 4.93 g/m*3 2.99 C 8.1 km/h
413 31-03-2020 10:20:00 4.9 C 4.93 g/m*3 2.27 C 11.3 km/h
414 31-03-2020 10:25:00 4.9 C 4.86 g/m*3 4.9 C 4.8 km/h
415 31-03-2020 10:30:00 4.8 C 4.83 g/m*3 4.8 C 4.8 km/h
416 31-03-2020 10:35:00 4.8 C 4.83 g/m*3 1.58 C 14.5 km/h
417 31-03-2020 10:40:00 4.8 C 4.76 g/m*3 2.49 C 9.7 km/h
418 31-03-2020 10:45:00 4.8 C 4.76 g/m*3 2.49 C 9.7 km/h
419 31-03-2020 10:50:00 4.8 C 4.69 g/m*3 2.87 C 8.1 km/h
420 31-03-2020 10:55:00 4.8 C 4.69 g/m*3 2.49 C 9.7 km/h
421 31-03-2020 11:00:00 4.8 C 4.69 g/m*3 2.49 C 9.7 km/h
422 31-03-2020 11:05:00 4.8 C 4.69 g/m*3 2.87 C 8.1 km/h
423 31-03-2020 11:10:00 4.8 C 4.63 g/m*3 1.11 C 17.7 km/h
424 31-03-2020 11:15:00 4.9 C 4.59 g/m*3 2.61 C 9.7 km/h
425 31-03-2020 11:20:00 5.1 C 4.65 g/m*3 2.84 C 9.7 km/h
Sensor: Nr:Datum:Temp:Abs-Feuchte:Windchill:Wind:
Aussen-T/F 426 31-03-2020 11:25:00 5.2 C 4.61 g/m*3 2.96 C 9.7 km/h
427 31-03-2020 11:30:00 5.4 C 4.6 g/m*3 4.06 C 6.4 km/h
428 31-03-2020 11:35:00 5.5 C 4.57 g/m*3 3.32 C 9.7 km/h
429 31-03-2020 11:40:00 5.6 C 4.52 g/m*3 2.83 C 12.9 km/h
430 31-03-2020 11:45:00 5.6 C 4.52 g/m*3 2.83 C 12.9 km/h
431 31-03-2020 11:50:00 5.6 C 4.52 g/m*3 2.33 C 16.1 km/h
432 31-03-2020 11:55:00 5.7 C 4.41 g/m*3 2.95 C 12.9 km/h
433 31-03-2020 12:00:00 5.8 C 4.44 g/m*3 4.52 C 6.4 km/h
434 31-03-2020 12:05:00 5.9 C 4.4 g/m*3 4.17 C 8.1 km/h
435 31-03-2020 12:10:00 6 C 4.43 g/m*3 6 C 3.2 km/h
436 31-03-2020 12:15:00 6.3 C 4.29 g/m*3 3.68 C 12.9 km/h
437 31-03-2020 12:20:00 6.6 C 4.23 g/m*3 4.32 C 11.3 km/h
438 31-03-2020 12:25:00 6.6 C 4.15 g/m*3 3.57 C 16.1 km/h
439 31-03-2020 12:30:00 6.8 C 4.21 g/m*3 4.29 C 12.9 km/h
440 31-03-2020 12:35:00 6.9 C 4.08 g/m*3 4.68 C 11.3 km/h
441 31-03-2020 12:40:00 7.2 C 4.24 g/m*3 4.31 C 16.1 km/h
442 31-03-2020 12:45:00 7.2 C 4.16 g/m*3 4.77 C 12.9 km/h
443 31-03-2020 12:50:00 7.2 C 4.16 g/m*3 5.04 C 11.3 km/h
444 31-03-2020 12:55:00 7.2 C 4.24 g/m*3 5.35 C 9.7 km/h
445 31-03-2020 13:00:00 7.2 C 4.08 g/m*3 4.53 C 14.5 km/h
446 31-03-2020 13:05:00 7.1 C 3.98 g/m*3 5.23 C 9.7 km/h
447 31-03-2020 13:10:00 6.9 C 3.93 g/m*3 5.34 C 8.1 km/h
448 31-03-2020 13:15:00 7 C 3.95 g/m*3 5.11 C 9.7 km/h
449 31-03-2020 13:20:00 7 C 3.8 g/m*3 4.8 C 11.3 km/h
450 31-03-2020 13:25:00 7.1 C 3.82 g/m*3 4.65 C 12.9 km/h
Sensor: Nr:Datum:Temp:Abs-Feuchte:Windchill:Wind:
Aussen-T/F 451 31-03-2020 13:30:00 7.2 C 3.77 g/m*3 5.69 C 8.1 km/h
452 31-03-2020 13:35:00 7.4 C 3.82 g/m*3 5.02 C 12.9 km/h
453 31-03-2020 13:40:00 7.7 C 3.73 g/m*3 4.73 C 17.7 km/h
454 31-03-2020 13:45:00 7.7 C 3.57 g/m*3 5.38 C 12.9 km/h
455 31-03-2020 13:50:00 7.8 C 3.59 g/m*3 5.51 C 12.9 km/h
456 31-03-2020 13:55:00 8 C 3.55 g/m*3 5.75 C 12.9 km/h
457 31-03-2020 14:00:00 8.2 C 3.6 g/m*3 5.55 C 16.1 km/h
458 31-03-2020 14:05:00 8.2 C 3.6 g/m*3 5.99 C 12.9 km/h
459 31-03-2020 14:10:00 8.2 C 3.68 g/m*3 5.76 C 14.5 km/h
460 31-03-2020 14:15:00 8.5 C 3.76 g/m*3 6.61 C 11.3 km/h
461 31-03-2020 14:20:00 8.8 C 3.92 g/m*3 6.97 C 11.3 km/h
462 31-03-2020 14:25:00 8.8 C 3.83 g/m*3 5.93 C 19.3 km/h
463 31-03-2020 14:30:00 8.7 C 3.81 g/m*3 6.17 C 16.1 km/h
464 31-03-2020 14:35:00 8.8 C 3.74 g/m*3 6.72 C 12.9 km/h
465 31-03-2020 14:40:00 8.7 C 3.63 g/m*3 6.17 C 16.1 km/h
466 31-03-2020 14:45:00 8.8 C 3.66 g/m*3 6.72 C 12.9 km/h
467 31-03-2020 14:50:00 8.8 C 3.66 g/m*3 6.5 C 14.5 km/h
468 31-03-2020 14:55:00 8.8 C 3.66 g/m*3 6.97 C 11.3 km/h
469 31-03-2020 15:00:00 8.9 C 3.68 g/m*3 6.85 C 12.9 km/h
470 31-03-2020 15:05:00 8.9 C 3.42 g/m*3 7.09 C 11.3 km/h
471 31-03-2020 15:10:00 8.8 C 3.66 g/m*3 6.3 C 16.1 km/h
472 31-03-2020 15:15:00 8.9 C 3.59 g/m*3 6.62 C 14.5 km/h
473 31-03-2020 15:20:00 8.9 C 3.59 g/m*3 6.62 C 14.5 km/h
474 31-03-2020 15:25:00 9 C 3.61 g/m*3 8.21 C 6.4 km/h
475 31-03-2020 15:30:00 9.1 C 3.64 g/m*3 7.33 C 11.3 km/h
Sensor: Nr:Datum:Temp:Abs-Feuchte:Windchill:Wind:
Aussen-T/F 476 31-03-2020 15:35:00 9.1 C 3.55 g/m*3 7.33 C 11.3 km/h
477 31-03-2020 15:40:00 9.1 C 3.55 g/m*3 6.31 C 19.3 km/h
478 31-03-2020 15:45:00 9.2 C 3.57 g/m*3 7.21 C 12.9 km/h
479 31-03-2020 15:50:00 9.3 C 3.5 g/m*3 7.12 C 14.5 km/h
480 31-03-2020 15:55:00 9.3 C 3.5 g/m*3 7.33 C 12.9 km/h
481 31-03-2020 16:00:00 9.5 C 3.64 g/m*3 7.58 C 12.9 km/h
482 31-03-2020 16:05:00 9.6 C 3.57 g/m*3 7.94 C 11.3 km/h
483 31-03-2020 16:10:00 9.6 C 3.48 g/m*3 6.94 C 19.3 km/h
484 31-03-2020 16:15:00 9.6 C 3.57 g/m*3 8.52 C 8.1 km/h
485 31-03-2020 16:20:00 9.7 C 3.6 g/m*3 7.41 C 16.1 km/h
486 31-03-2020 16:25:00 9.8 C 3.43 g/m*3 7.54 C 16.1 km/h
487 31-03-2020 16:30:00 9.9 C 3.45 g/m*3 7.66 C 16.1 km/h
488 31-03-2020 16:35:00 10 C 3.66 g/m*3 8.19 C 12.9 km/h
489 31-03-2020 16:40:00 10.1 C 3.5 g/m*3 7.42 C 20.9 km/h
490 31-03-2020 16:45:00 9.9 C 3.36 g/m*3 8.06 C 12.9 km/h
491 31-03-2020 16:50:00 10 C 3.57 g/m*3 7.61 C 17.7 km/h
492 31-03-2020 16:55:00 10.1 C 3.5 g/m*3 7.57 C 19.3 km/h
493 31-03-2020 17:00:00 10 C 3.38 g/m*3 8.42 C 11.3 km/h
494 31-03-2020 17:05:00 10.2 C 3.71 g/m*3 9.22 C 8.1 km/h
495 31-03-2020 17:10:00 10.6 C 3.51 g/m*3 9.69 C 8.1 km/h
496 31-03-2020 17:15:00 10.9 C 3.58 g/m*3 10.04 C 8.1 km/h
497 31-03-2020 17:20:00 11.2 C 3.65 g/m*3 11.2 C 9.7 km/h
498 31-03-2020 17:25:00 11.3 C 3.67 g/m*3 11.3 C 9.7 km/h
499 31-03-2020 17:30:00 11.3 C 3.47 g/m*3 11.3 C 6.4 km/h
500 31-03-2020 17:35:00 11.1 C 3.53 g/m*3 11.1 C 16.1 km/h
Sensor: Nr:Datum:Temp:Abs-Feuchte:Windchill:Wind:
Aussen-T/F 501 31-03-2020 17:40:00 11.1 C 3.53 g/m*3 11.1 C 6.4 km/h
502 31-03-2020 17:45:00 11 C 3.6 g/m*3 9.4 C 12.9 km/h
503 31-03-2020 17:50:00 10.9 C 3.38 g/m*3 8.9 C 16.1 km/h
504 31-03-2020 17:55:00 10.5 C 3.39 g/m*3 8.59 C 14.5 km/h
505 31-03-2020 18:00:00 10.5 C 3.39 g/m*3 8.8 C 12.9 km/h
506 31-03-2020 18:05:00 10.7 C 3.44 g/m*3 8.65 C 16.1 km/h
507 31-03-2020 18:10:00 10.8 C 3.56 g/m*3 10.8 C 4.8 km/h
508 31-03-2020 18:15:00 11.2 C 3.65 g/m*3 11.2 C 3.2 km/h
509 31-03-2020 18:20:00 11.3 C 3.57 g/m*3 11.3 C 16.1 km/h
510 31-03-2020 18:25:00 10.9 C 3.48 g/m*3 9.28 C 12.9 km/h
511 31-03-2020 18:30:00 10.7 C 3.63 g/m*3 9.52 C 9.7 km/h
512 31-03-2020 18:35:00 10.7 C 3.54 g/m*3 9.81 C 8.1 km/h
513 31-03-2020 18:40:00 10.6 C 3.51 g/m*3 9.14 C 11.3 km/h
514 31-03-2020 18:45:00 10.6 C 3.61 g/m*3 10.6 C 4.8 km/h
515 31-03-2020 18:50:00 10.7 C 3.44 g/m*3 10.18 C 6.4 km/h
516 31-03-2020 18:55:00 10.6 C 3.51 g/m*3 10.6 C 4.8 km/h
517 31-03-2020 19:00:00 10.6 C 3.51 g/m*3 9.69 C 8.1 km/h
518 31-03-2020 19:05:00 10.3 C 3.54 g/m*3 8.78 C 11.3 km/h
519 31-03-2020 19:10:00 10.1 C 3.4 g/m*3 8.8 C 9.7 km/h
520 31-03-2020 19:15:00 10.1 C 3.5 g/m*3 10.1 C 3.2 km/h
521 31-03-2020 19:20:00 10.1 C 3.5 g/m*3 9.1 C 8.1 km/h
522 31-03-2020 19:25:00 9.9 C 3.45 g/m*3 9.9 C 3.2 km/h
523 31-03-2020 19:30:00 9.8 C 3.53 g/m*3 9.8 C 4.8 km/h
524 31-03-2020 19:35:00 9.7 C 3.78 g/m*3 9.7 C 1.6 km/h
525 31-03-2020 19:40:00 9.4 C 3.71 g/m*3 9.4 C 1.6 km/h
Sensor: Nr:Datum:Temp:Abs-Feuchte:Windchill:Wind:
Aussen-T/F 526 31-03-2020 19:45:00 9.2 C 3.93 g/m*3 9.2 C 1.6 km/h
527 31-03-2020 19:50:00 8.7 C 4.06 g/m*3 8.7 C 3.2 km/h
528 31-03-2020 19:55:00 8.2 C 4.02 g/m*3 8.2 C 3.2 km/h
529 31-03-2020 20:00:00 7.6 C 4.11 g/m*3 7.6 C 4.8 km/h
530 31-03-2020 20:05:00 7 C 4.03 g/m*3 7 C 4.8 km/h
531 31-03-2020 20:10:00 6.5 C 4.05 g/m*3 6.5 C 3.2 km/h
532 31-03-2020 20:15:00 6.1 C 4.09 g/m*3 6.1 C 3.2 km/h
533 31-03-2020 20:20:00 5.7 C 3.99 g/m*3 5.7 C 4.8 km/h
534 31-03-2020 20:25:00 5.3 C 4.02 g/m*3 5.3 C 4.8 km/h
535 31-03-2020 20:30:00 5.1 C 4.04 g/m*3 5.1 C 4.8 km/h
536 31-03-2020 20:35:00 4.8 C 4.02 g/m*3 4.8 C 3.2 km/h
537 31-03-2020 20:40:00 4.6 C 4.04 g/m*3 4.6 C 3.2 km/h
538 31-03-2020 20:45:00 4.4 C 3.98 g/m*3 4.4 C 3.2 km/h
539 31-03-2020 20:50:00 4.2 C 3.99 g/m*3 4.2 C 4.8 km/h
540 31-03-2020 20:55:00 4.1 C 4.03 g/m*3 4.1 C 4.8 km/h
541 31-03-2020 21:00:00 3.9 C 3.98 g/m*3 3.9 C 4.8 km/h
542 31-03-2020 21:05:00 3.8 C 4.02 g/m*3 3.8 C 3.2 km/h
543 31-03-2020 21:10:00 3.7 C 3.99 g/m*3 3.7 C 1.6 km/h
544 31-03-2020 21:15:00 3.6 C 3.96 g/m*3 3.6 C 3.2 km/h
545 31-03-2020 21:20:00 3.5 C 3.94 g/m*3 3.5 C 4.8 km/h
546 31-03-2020 21:25:00 3.4 C 3.97 g/m*3 3.4 C 4.8 km/h
547 31-03-2020 21:30:00 3.3 C 3.88 g/m*3 3.3 C 3.2 km/h
548 31-03-2020 21:35:00 3.3 C 3.94 g/m*3 3.3 C 3.2 km/h
549 31-03-2020 21:40:00 3.2 C 3.98 g/m*3 3.2 C 3.2 km/h
550 31-03-2020 21:45:00 3.1 C 3.95 g/m*3 1.4 C 6.4 km/h
Sensor: Nr:Datum:Temp:Abs-Feuchte:Windchill:Wind:
Aussen-T/F 551 31-03-2020 21:50:00 3 C 3.92 g/m*3 3 C 4.8 km/h
552 31-03-2020 21:55:00 2.9 C 3.9 g/m*3 2.9 C 3.2 km/h
553 31-03-2020 22:00:00 2.8 C 3.87 g/m*3 2.8 C 4.8 km/h
554 31-03-2020 22:05:00 2.8 C 3.93 g/m*3 2.8 C 3.2 km/h
555 31-03-2020 22:10:00 2.7 C 3.9 g/m*3 2.7 C 4.8 km/h
556 31-03-2020 22:15:00 2.6 C 3.94 g/m*3 2.6 C 4.8 km/h
557 31-03-2020 22:20:00 2.5 C 3.91 g/m*3 2.5 C 4.8 km/h
558 31-03-2020 22:25:00 2.4 C 3.88 g/m*3 2.4 C 4.8 km/h
559 31-03-2020 22:30:00 2.3 C 3.86 g/m*3 2.3 C 4.8 km/h
560 31-03-2020 22:35:00 2.3 C 3.91 g/m*3 2.3 C 4.8 km/h
561 31-03-2020 22:40:00 2.2 C 3.89 g/m*3 2.2 C 4.8 km/h
562 31-03-2020 22:45:00 2.2 C 3.94 g/m*3 2.2 C 4.8 km/h
563 31-03-2020 22:50:00 2.1 C 3.86 g/m*3 2.1 C 4.8 km/h
564 31-03-2020 22:55:00 2 C 3.89 g/m*3 2 C 3.2 km/h
565 31-03-2020 23:00:00 1.9 C 3.86 g/m*3 1.9 C 4.8 km/h
566 31-03-2020 23:05:00 1.8 C 3.89 g/m*3 1.8 C 3.2 km/h
567 31-03-2020 23:10:00 1.7 C 3.87 g/m*3 1.7 C 4.8 km/h
568 31-03-2020 23:15:00 1.7 C 3.92 g/m*3 1.7 C 4.8 km/h
569 31-03-2020 23:20:00 1.6 C 3.89 g/m*3 1.6 C 3.2 km/h
570 31-03-2020 23:25:00 1.4 C 3.89 g/m*3 1.4 C 3.2 km/h
571 31-03-2020 23:30:00 1.3 C 3.87 g/m*3 1.3 C 4.8 km/h
572 31-03-2020 23:35:00 1.2 C 3.84 g/m*3 1.2 C 4.8 km/h
573 31-03-2020 23:40:00 1.2 C 3.89 g/m*3 1.2 C 4.8 km/h
574 31-03-2020 23:45:00 1.1 C 3.87 g/m*3 1.1 C 3.2 km/h
575 31-03-2020 23:50:00 1.1 C 3.87 g/m*3 1.1 C 3.2 km/h
Sensor: Nr:Datum:Temp:Abs-Feuchte:Windchill:Wind:
Aussen-T/F 576 31-03-2020 23:55:00 1.1 C 3.87 g/m*3 1.1 C 3.2 km/h
577 01-04-2020 00:00:00 1 C 3.84 g/m*3 1 C 3.2 km/h
578 01-04-2020 00:05:00 0.9 C 3.81 g/m*3 0.9 C 1.6 km/h
579 01-04-2020 00:10:00 0.8 C 3.84 g/m*3 0.8 C 1.6 km/h
580 01-04-2020 00:15:00 0.8 C 3.84 g/m*3 0.8 C 3.2 km/h
581 01-04-2020 00:20:00 0.7 C 3.81 g/m*3 0.7 C 3.2 km/h
582 01-04-2020 00:25:00 0.6 C 3.79 g/m*3 0.6 C 4.8 km/h
583 01-04-2020 00:30:00 0.6 C 3.79 g/m*3 0.6 C 4.8 km/h
584 01-04-2020 00:35:00 0.4 C 3.74 g/m*3 0.4 C 1.6 km/h
585 01-04-2020 00:40:00 0.4 C 3.74 g/m*3 0.4 C 3.2 km/h
586 01-04-2020 00:45:00 0.3 C 3.76 g/m*3 0.3 C 4.8 km/h
587 01-04-2020 00:50:00 0.3 C 3.71 g/m*3 0.3 C 0 km/h
588 01-04-2020 00:55:00 0.3 C 3.76 g/m*3 0.3 C 3.2 km/h
589 01-04-2020 01:00:00 0.2 C 3.73 g/m*3 0.2 C 3.2 km/h
590 01-04-2020 01:05:00 0.2 C 3.78 g/m*3 0.2 C 3.2 km/h
591 01-04-2020 01:10:00 0.1 C 3.76 g/m*3 0.1 C 3.2 km/h
592 01-04-2020 01:15:00 0.1 C 3.81 g/m*3 0.1 C 0 km/h
593 01-04-2020 01:20:00 0 C 3.78 g/m*3 0 C 0 km/h
594 01-04-2020 01:25:00 -0.1 C 3.75 g/m*3 -0.1 C 0 km/h
595 01-04-2020 01:30:00 -0.2 C 3.73 g/m*3 -0.2 C 0 km/h
596 01-04-2020 01:35:00 -0.2 C 3.73 g/m*3 -0.2 C 1.6 km/h
597 01-04-2020 01:40:00 -0.3 C 3.75 g/m*3 -0.3 C 0 km/h
598 01-04-2020 01:45:00 -0.4 C 3.72 g/m*3 -0.4 C 0 km/h
599 01-04-2020 01:50:00 -0.5 C 3.7 g/m*3 -0.5 C 0 km/h
600 01-04-2020 01:55:00 -0.6 C 3.67 g/m*3 -0.6 C 0 km/h
Sensor: Nr:Datum:Temp:Abs-Feuchte:Windchill:Wind:
Aussen-T/F 601 01-04-2020 02:00:00 -0.7 C 3.65 g/m*3 -0.7 C 0 km/h
602 01-04-2020 02:05:00 -0.8 C 3.62 g/m*3 -0.8 C 0 km/h
603 01-04-2020 02:10:00 -0.8 C 3.67 g/m*3 -0.8 C 0 km/h
604 01-04-2020 02:15:00 -0.9 C 3.64 g/m*3 -0.9 C 0 km/h
605 01-04-2020 02:20:00 -0.9 C 3.64 g/m*3 -0.9 C 0 km/h
606 01-04-2020 02:25:00 -1 C 3.62 g/m*3 -1 C 0 km/h
607 01-04-2020 02:30:00 -1.1 C 3.59 g/m*3 -1.1 C 0 km/h
608 01-04-2020 02:35:00 -1.1 C 3.59 g/m*3 -1.1 C 0 km/h
609 01-04-2020 02:40:00 -1.2 C 3.57 g/m*3 -1.2 C 0 km/h
610 01-04-2020 02:45:00 -1.2 C 3.61 g/m*3 -1.2 C 0 km/h
611 01-04-2020 02:50:00 -1.3 C 3.59 g/m*3 -1.3 C 0 km/h
612 01-04-2020 02:55:00 -1.3 C 3.59 g/m*3 -1.3 C 0 km/h
613 01-04-2020 03:00:00 -1.3 C 3.59 g/m*3 -1.3 C 0 km/h
614 01-04-2020 03:05:00 -1.4 C 3.52 g/m*3 -1.4 C 0 km/h
615 01-04-2020 03:10:00 -1.4 C 3.52 g/m*3 -1.4 C 0 km/h
616 01-04-2020 03:15:00 -1.5 C 3.49 g/m*3 -1.5 C 0 km/h
617 01-04-2020 03:20:00 -1.6 C 3.51 g/m*3 -1.6 C 0 km/h
618 01-04-2020 03:25:00 -1.7 C 3.49 g/m*3 -1.7 C 0 km/h
619 01-04-2020 03:30:00 -1.7 C 3.49 g/m*3 -1.7 C 0 km/h
620 01-04-2020 03:35:00 -1.7 C 3.49 g/m*3 -1.7 C 0 km/h
621 01-04-2020 03:40:00 -1.8 C 3.46 g/m*3 -1.8 C 0 km/h
622 01-04-2020 03:45:00 -1.8 C 3.42 g/m*3 -1.8 C 0 km/h
623 01-04-2020 03:50:00 -1.9 C 3.44 g/m*3 -1.9 C 0 km/h
624 01-04-2020 03:55:00 -1.9 C 3.44 g/m*3 -1.9 C 0 km/h
625 01-04-2020 04:00:00 -1.9 C 3.44 g/m*3 -1.9 C 0 km/h
Sensor: Nr:Datum:Temp:Abs-Feuchte:Windchill:Wind:
Aussen-T/F 626 01-04-2020 04:05:00 -1.9 C 3.44 g/m*3 -1.9 C 0 km/h
627 01-04-2020 04:10:00 -2 C 3.41 g/m*3 -2 C 0 km/h
628 01-04-2020 04:15:00 -2.1 C 3.39 g/m*3 -2.1 C 0 km/h
629 01-04-2020 04:20:00 -2.1 C 3.39 g/m*3 -2.1 C 0 km/h
630 01-04-2020 04:25:00 -2.2 C 3.33 g/m*3 -2.2 C 0 km/h
631 01-04-2020 04:30:00 -2.2 C 3.37 g/m*3 -2.2 C 0 km/h
632 01-04-2020 04:35:00 -2.3 C 3.34 g/m*3 -2.3 C 0 km/h
633 01-04-2020 04:40:00 -2.3 C 3.34 g/m*3 -2.3 C 0 km/h
634 01-04-2020 04:45:00 -2.3 C 3.34 g/m*3 -2.3 C 0 km/h
635 01-04-2020 04:50:00 -2.4 C 3.32 g/m*3 -2.4 C 0 km/h
636 01-04-2020 04:55:00 -2.4 C 3.32 g/m*3 -2.4 C 0 km/h
637 01-04-2020 05:00:00 -2.4 C 3.36 g/m*3 -2.4 C 0 km/h
638 01-04-2020 05:05:00 -2.5 C 3.34 g/m*3 -2.5 C 0 km/h
639 01-04-2020 05:10:00 -2.6 C 3.31 g/m*3 -2.6 C 0 km/h
640 01-04-2020 05:15:00 -2.6 C 3.31 g/m*3 -2.6 C 0 km/h
641 01-04-2020 05:20:00 -2.7 C 3.29 g/m*3 -2.7 C 0 km/h
642 01-04-2020 05:25:00 -2.7 C 3.33 g/m*3 -2.7 C 0 km/h
643 01-04-2020 05:30:00 -2.7 C 3.33 g/m*3 -2.7 C 0 km/h
644 01-04-2020 05:35:00 -2.7 C 3.33 g/m*3 -2.7 C 0 km/h
645 01-04-2020 05:40:00 -2.7 C 3.33 g/m*3 -2.7 C 0 km/h
646 01-04-2020 05:45:00 -2.8 C 3.31 g/m*3 -2.8 C 0 km/h
647 01-04-2020 05:50:00 -2.8 C 3.31 g/m*3 -2.8 C 0 km/h
648 01-04-2020 05:55:00 -2.8 C 3.31 g/m*3 -2.8 C 0 km/h
649 01-04-2020 06:00:00 -2.9 C 3.28 g/m*3 -2.9 C 0 km/h
650 01-04-2020 06:05:00 -2.9 C 3.28 g/m*3 -2.9 C 0 km/h
Sensor: Nr:Datum:Temp:Abs-Feuchte:Windchill:Wind:
Aussen-T/F 651 01-04-2020 06:10:00 -2.9 C 3.32 g/m*3 -2.9 C 0 km/h
652 01-04-2020 06:15:00 -3 C 3.3 g/m*3 -3 C 0 km/h
653 01-04-2020 06:20:00 -3 C 3.3 g/m*3 -3 C 0 km/h
654 01-04-2020 06:25:00 -3.1 C 3.28 g/m*3 -3.1 C 0 km/h
655 01-04-2020 06:30:00 -3.1 C 3.28 g/m*3 -3.1 C 0 km/h
656 01-04-2020 06:35:00 -3.1 C 3.32 g/m*3 -3.1 C 0 km/h
657 01-04-2020 06:40:00 -3.1 C 3.32 g/m*3 -3.1 C 0 km/h
658 01-04-2020 06:45:00 -3.1 C 3.32 g/m*3 -3.1 C 0 km/h
659 01-04-2020 06:50:00 -3.2 C 3.29 g/m*3 -3.2 C 0 km/h
660 01-04-2020 06:55:00 -3.2 C 3.29 g/m*3 -3.2 C 0 km/h
661 01-04-2020 07:00:00 -3.2 C 3.29 g/m*3 -3.2 C 0 km/h
662 01-04-2020 07:05:00 -3.3 C 3.27 g/m*3 -3.3 C 0 km/h
663 01-04-2020 07:10:00 -3.3 C 3.27 g/m*3 -3.3 C 0 km/h
664 01-04-2020 07:15:00 -3.4 C 3.25 g/m*3 -3.4 C 0 km/h
665 01-04-2020 07:20:00 -3.4 C 3.25 g/m*3 -3.4 C 0 km/h
666 01-04-2020 07:25:00 -3.4 C 3.25 g/m*3 -3.4 C 0 km/h
667 01-04-2020 07:30:00 -3.4 C 3.28 g/m*3 -3.4 C 0 km/h
668 01-04-2020 07:35:00 -3.3 C 3.31 g/m*3 -3.3 C 0 km/h
669 01-04-2020 07:40:00 -3.3 C 3.27 g/m*3 -3.3 C 0 km/h
670 01-04-2020 07:45:00 -3.3 C 3.27 g/m*3 -3.3 C 0 km/h
671 01-04-2020 07:50:00 -3.3 C 3.31 g/m*3 -3.3 C 0 km/h
672 01-04-2020 07:55:00 -3.3 C 3.31 g/m*3 -3.3 C 0 km/h
673 01-04-2020 08:00:00 -3.2 C 3.33 g/m*3 -3.2 C 0 km/h
674 01-04-2020 08:05:00 -3.2 C 3.33 g/m*3 -3.2 C 0 km/h
675 01-04-2020 08:10:00 -3.2 C 3.33 g/m*3 -3.2 C 0 km/h
Sensor: Nr:Datum:Temp:Abs-Feuchte:Windchill:Wind:
Aussen-T/F 676 01-04-2020 08:15:00 -3.1 C 3.39 g/m*3 -3.1 C 0 km/h
677 01-04-2020 08:20:00 -2.9 C 3.44 g/m*3 -2.9 C 0 km/h
678 01-04-2020 08:25:00 -2.9 C 3.44 g/m*3 -2.9 C 0 km/h
679 01-04-2020 08:30:00 -2.9 C 3.4 g/m*3 -2.9 C 0 km/h
680 01-04-2020 08:35:00 -2.8 C 3.43 g/m*3 -2.8 C 0 km/h
681 01-04-2020 08:40:00 -2.8 C 3.43 g/m*3 -2.8 C 0 km/h
682 01-04-2020 08:45:00 -2.8 C 3.43 g/m*3 -2.8 C 0 km/h
683 01-04-2020 08:50:00 -2.8 C 3.43 g/m*3 -2.8 C 0 km/h
684 01-04-2020 08:55:00 -2.7 C 3.45 g/m*3 -2.7 C 0 km/h
685 01-04-2020 09:00:00 -2.6 C 3.43 g/m*3 -2.6 C 0 km/h
686 01-04-2020 09:05:00 -2.6 C 3.43 g/m*3 -2.6 C 0 km/h
687 01-04-2020 09:10:00 -2.4 C 3.48 g/m*3 -2.4 C 0 km/h
688 01-04-2020 09:15:00 -2.3 C 3.51 g/m*3 -2.3 C 0 km/h
689 01-04-2020 09:20:00 -2.3 C 3.51 g/m*3 -2.3 C 0 km/h
690 01-04-2020 09:25:00 -2.2 C 3.53 g/m*3 -2.2 C 0 km/h
691 01-04-2020 09:30:00 -2.1 C 3.56 g/m*3 -2.1 C 0 km/h
692 01-04-2020 09:35:00 -1.9 C 3.57 g/m*3 -1.9 C 0 km/h
693 01-04-2020 09:40:00 -1.8 C 3.59 g/m*3 -1.8 C 0 km/h
694 01-04-2020 09:45:00 -1.7 C 3.62 g/m*3 -1.7 C 1.6 km/h
695 01-04-2020 09:50:00 -1.7 C 3.62 g/m*3 -1.7 C 1.6 km/h
696 01-04-2020 09:55:00 -1.6 C 3.64 g/m*3 -1.6 C 0 km/h
697 01-04-2020 10:00:00 -1.4 C 3.69 g/m*3 -1.4 C 1.6 km/h
698 01-04-2020 10:05:00 -1.3 C 3.72 g/m*3 -1.3 C 0 km/h
699 01-04-2020 10:10:00 -1.1 C 3.77 g/m*3 -1.1 C 0 km/h
700 01-04-2020 10:15:00 -0.9 C 3.82 g/m*3 -0.9 C 0 km/h
Sensor: Nr:Datum:Temp:Abs-Feuchte:Windchill:Wind:
Aussen-T/F 701 01-04-2020 10:20:00 -0.6 C 3.9 g/m*3 -0.6 C 0 km/h
702 01-04-2020 10:25:00 -0.3 C 3.94 g/m*3 -0.3 C 0 km/h
703 01-04-2020 10:30:00 -0.1 C 3.99 g/m*3 -0.1 C 0 km/h
704 01-04-2020 10:35:00 0.2 C 4.03 g/m*3 0.2 C 0 km/h
705 01-04-2020 10:40:00 0.6 C 4.14 g/m*3 0.6 C 0 km/h
706 01-04-2020 10:45:00 0.9 C 4.18 g/m*3 0.9 C 0 km/h
707 01-04-2020 10:50:00 1.3 C 4.19 g/m*3 1.3 C 0 km/h
708 01-04-2020 10:55:00 1.8 C 4.28 g/m*3 1.8 C 0 km/h
709 01-04-2020 11:00:00 2.3 C 4.31 g/m*3 2.3 C 0 km/h
710 01-04-2020 11:05:00 2.6 C 4.34 g/m*3 2.6 C 0 km/h
711 01-04-2020 11:10:00 2.8 C 4.34 g/m*3 2.8 C 0 km/h
712 01-04-2020 11:15:00 3.1 C 4.25 g/m*3 3.1 C 0 km/h
713 01-04-2020 11:20:00 3.3 C 4.19 g/m*3 3.3 C 0 km/h
714 01-04-2020 11:25:00 3.7 C 3.99 g/m*3 3.7 C 0 km/h
715 01-04-2020 11:30:00 3.9 C 3.92 g/m*3 3.9 C 3.2 km/h
716 01-04-2020 11:35:00 4.3 C 3.76 g/m*3 4.3 C 1.6 km/h
717 01-04-2020 11:40:00 4.7 C 3.93 g/m*3 4.7 C 3.2 km/h
718 01-04-2020 11:45:00 5.1 C 3.9 g/m*3 5.1 C 3.2 km/h
719 01-04-2020 11:50:00 5.4 C 3.77 g/m*3 5.4 C 0 km/h
720 01-04-2020 11:55:00 5.7 C 3.56 g/m*3 5.7 C 3.2 km/h
721 01-04-2020 12:00:00 6 C 3.63 g/m*3 6 C 1.6 km/h
722 01-04-2020 12:05:00 6.3 C 3.55 g/m*3 6.3 C 1.6 km/h
723 01-04-2020 12:10:00 6.7 C 3.65 g/m*3 5.56 C 6.4 km/h
724 01-04-2020 12:15:00 6.8 C 3.59 g/m*3 6.8 C 4.8 km/h
725 01-04-2020 12:20:00 7.1 C 3.59 g/m*3 5.23 C 9.7 km/h
Sensor: Nr:Datum:Temp:Abs-Feuchte:Windchill:Wind:
Aussen-T/F 726 01-04-2020 12:25:00 7.3 C 3.71 g/m*3 5.47 C 9.7 km/h
727 01-04-2020 12:30:00 7.6 C 3.63 g/m*3 6.6 C 6.4 km/h
728 01-04-2020 12:35:00 7.7 C 3.65 g/m*3 7.7 C 4.8 km/h
729 01-04-2020 12:40:00 7.8 C 3.59 g/m*3 6.83 C 6.4 km/h
730 01-04-2020 12:45:00 7.9 C 3.53 g/m*3 7.9 C 4.8 km/h
731 01-04-2020 12:50:00 8.1 C 3.66 g/m*3 7.17 C 6.4 km/h
732 01-04-2020 12:55:00 8.2 C 3.6 g/m*3 7.29 C 6.4 km/h
733 01-04-2020 13:00:00 8.3 C 3.71 g/m*3 7.41 C 6.4 km/h
734 01-04-2020 13:05:00 8.6 C 3.61 g/m*3 7.75 C 6.4 km/h
735 01-04-2020 13:10:00 8.6 C 3.61 g/m*3 8.6 C 4.8 km/h
736 01-04-2020 13:15:00 8.7 C 3.63 g/m*3 8.7 C 4.8 km/h
737 01-04-2020 13:20:00 8.8 C 3.57 g/m*3 6.72 C 12.9 km/h
738 01-04-2020 13:25:00 8.7 C 3.46 g/m*3 6.6 C 12.9 km/h
739 01-04-2020 13:30:00 8.7 C 3.55 g/m*3 7.46 C 8.1 km/h
740 01-04-2020 13:35:00 8.8 C 3.57 g/m*3 8.8 C 3.2 km/h
741 01-04-2020 13:40:00 8.9 C 3.59 g/m*3 8.9 C 3.2 km/h
742 01-04-2020 13:45:00 9.2 C 3.57 g/m*3 9.2 C 4.8 km/h
743 01-04-2020 13:50:00 9.2 C 3.57 g/m*3 8.45 C 6.4 km/h
744 01-04-2020 13:55:00 9.2 C 3.57 g/m*3 8.05 C 8.1 km/h
745 01-04-2020 14:00:00 9.2 C 3.57 g/m*3 7.73 C 9.7 km/h
746 01-04-2020 14:05:00 9.3 C 3.59 g/m*3 8.16 C 8.1 km/h
747 01-04-2020 14:10:00 9.4 C 3.62 g/m*3 8.68 C 6.4 km/h
748 01-04-2020 14:15:00 9.5 C 3.55 g/m*3 8.79 C 6.4 km/h
749 01-04-2020 14:20:00 9.8 C 3.71 g/m*3 8.45 C 9.7 km/h
750 01-04-2020 14:25:00 9.9 C 3.73 g/m*3 8.87 C 8.1 km/h
Sensor: Nr:Datum:Temp:Abs-Feuchte:Windchill:Wind:
Aussen-T/F 751 01-04-2020 14:30:00 10.1 C 3.59 g/m*3 10.1 C 4.8 km/h
752 01-04-2020 14:35:00 10.3 C 3.54 g/m*3 8.34 C 14.5 km/h
753 01-04-2020 14:40:00 10.3 C 3.45 g/m*3 9.34 C 8.1 km/h
754 01-04-2020 14:45:00 10.3 C 3.54 g/m*3 9.72 C 6.4 km/h
755 01-04-2020 14:50:00 10.3 C 3.26 g/m*3 9.04 C 9.7 km/h
756 01-04-2020 14:55:00 10.3 C 3.26 g/m*3 9.72 C 6.4 km/h
757 01-04-2020 15:00:00 10.3 C 3.26 g/m*3 9.34 C 8.1 km/h
758 01-04-2020 15:05:00 10.2 C 3.24 g/m*3 10.2 C 4.8 km/h
759 01-04-2020 15:10:00 10.3 C 3.35 g/m*3 9.72 C 6.4 km/h
760 01-04-2020 15:15:00 10.4 C 3.47 g/m*3 9.46 C 8.1 km/h
761 01-04-2020 15:20:00 10.7 C 3.34 g/m*3 10.18 C 6.4 km/h
762 01-04-2020 15:25:00 10.8 C 3.26 g/m*3 9.64 C 9.7 km/h
763 01-04-2020 15:30:00 10.7 C 3.24 g/m*3 10.18 C 6.4 km/h
764 01-04-2020 15:35:00 10.7 C 3.24 g/m*3 10.7 C 3.2 km/h
765 01-04-2020 15:40:00 10.8 C 3.26 g/m*3 9.93 C 8.1 km/h
766 01-04-2020 15:45:00 10.9 C 3.08 g/m*3 9.76 C 9.7 km/h
767 01-04-2020 15:50:00 11 C 3.1 g/m*3 10.52 C 6.4 km/h
768 01-04-2020 15:55:00 11.1 C 3.12 g/m*3 11.1 C 4.8 km/h
769 01-04-2020 16:00:00 11.1 C 3.32 g/m*3 11.1 C 6.4 km/h
770 01-04-2020 16:05:00 11.1 C 3.32 g/m*3 11.1 C 3.2 km/h
771 01-04-2020 16:10:00 11.2 C 3.45 g/m*3 11.2 C 4.8 km/h
772 01-04-2020 16:15:00 11.4 C 3.39 g/m*3 11.4 C 8.1 km/h
773 01-04-2020 16:20:00 11.5 C 3.31 g/m*3 11.5 C 8.1 km/h
774 01-04-2020 16:25:00 11.6 C 3.22 g/m*3 11.6 C 4.8 km/h
775 01-04-2020 16:30:00 11.6 C 3.22 g/m*3 11.6 C 6.4 km/h
Sensor: Nr:Datum:Temp:Abs-Feuchte:Windchill:Wind:
Aussen-T/F 776 01-04-2020 16:35:00 11.7 C 3.14 g/m*3 11.7 C 4.8 km/h
777 01-04-2020 16:40:00 11.8 C 3.47 g/m*3 11.8 C 3.2 km/h
778 01-04-2020 16:45:00 12.2 C 3.45 g/m*3 12.2 C 3.2 km/h
779 01-04-2020 16:50:00 12.6 C 3.54 g/m*3 12.6 C 9.7 km/h
780 01-04-2020 16:55:00 12.6 C 3.65 g/m*3 12.6 C 8.1 km/h
781 01-04-2020 17:00:00 12.6 C 3.54 g/m*3 12.6 C 8.1 km/h
782 01-04-2020 17:05:00 12.4 C 3.5 g/m*3 12.4 C 9.7 km/h
783 01-04-2020 17:10:00 12.9 C 4.06 g/m*3 12.9 C 3.2 km/h
784 01-04-2020 17:15:00 13.2 C 3.79 g/m*3 13.2 C 6.4 km/h
785 01-04-2020 17:20:00 13.2 C 3.67 g/m*3 13.2 C 6.4 km/h
786 01-04-2020 17:25:00 13.3 C 3.81 g/m*3 13.3 C 8.1 km/h
787 01-04-2020 17:30:00 13.2 C 3.56 g/m*3 13.2 C 6.4 km/h
788 01-04-2020 17:35:00 13.3 C 3.58 g/m*3 13.3 C 3.2 km/h
789 01-04-2020 17:40:00 13.3 C 3.58 g/m*3 13.3 C 8.1 km/h
790 01-04-2020 17:45:00 13.2 C 3.67 g/m*3 13.2 C 6.4 km/h
791 01-04-2020 17:50:00 13.2 C 3.67 g/m*3 13.2 C 4.8 km/h
792 01-04-2020 17:55:00 13.1 C 3.65 g/m*3 13.1 C 9.7 km/h
793 01-04-2020 18:00:00 12.9 C 3.61 g/m*3 12.9 C 8.1 km/h
794 01-04-2020 18:05:00 12.6 C 3.65 g/m*3 12.6 C 9.7 km/h
795 01-04-2020 18:10:00 12.5 C 3.63 g/m*3 12.5 C 8.1 km/h
796 01-04-2020 18:15:00 12.6 C 3.65 g/m*3 12.6 C 8.1 km/h
797 01-04-2020 18:20:00 12.7 C 3.67 g/m*3 12.7 C 6.4 km/h
798 01-04-2020 18:25:00 12.9 C 3.72 g/m*3 12.9 C 6.4 km/h
799 01-04-2020 18:30:00 12.9 C 3.61 g/m*3 12.9 C 4.8 km/h
800 01-04-2020 18:35:00 13 C 3.74 g/m*3 13 C 4.8 km/h
Sensor: Nr:Datum:Temp:Abs-Feuchte:Windchill:Wind:
Aussen-T/F 801 01-04-2020 18:40:00 13.1 C 3.77 g/m*3 13.1 C 4.8 km/h
802 01-04-2020 18:45:00 13.2 C 3.67 g/m*3 13.2 C 4.8 km/h
803 01-04-2020 18:50:00 13.2 C 3.67 g/m*3 13.2 C 4.8 km/h
804 01-04-2020 18:55:00 13.2 C 3.79 g/m*3 13.2 C 3.2 km/h
805 01-04-2020 19:00:00 13.3 C 3.7 g/m*3 13.3 C 6.4 km/h
806 01-04-2020 19:05:00 13 C 3.74 g/m*3 13 C 4.8 km/h
807 01-04-2020 19:10:00 12.8 C 3.7 g/m*3 12.8 C 6.4 km/h
808 01-04-2020 19:15:00 12.7 C 3.67 g/m*3 12.7 C 6.4 km/h
809 01-04-2020 19:20:00 12.4 C 3.71 g/m*3 12.4 C 6.4 km/h
810 01-04-2020 19:25:00 12.2 C 3.67 g/m*3 12.2 C 6.4 km/h
811 01-04-2020 19:30:00 11.8 C 3.58 g/m*3 11.8 C 9.7 km/h
812 01-04-2020 19:35:00 11.5 C 3.62 g/m*3 11.5 C 4.8 km/h
813 01-04-2020 19:40:00 11.2 C 3.55 g/m*3 11.2 C 4.8 km/h
814 01-04-2020 19:45:00 10.9 C 3.58 g/m*3 10.04 C 8.1 km/h
815 01-04-2020 19:50:00 10.7 C 3.54 g/m*3 10.7 C 4.8 km/h
816 01-04-2020 19:55:00 10.4 C 3.76 g/m*3 10.4 C 1.6 km/h
817 01-04-2020 20:00:00 10.1 C 3.59 g/m*3 9.48 C 6.4 km/h
818 01-04-2020 20:05:00 9.7 C 3.69 g/m*3 9.7 C 4.8 km/h
819 01-04-2020 20:10:00 9.4 C 3.8 g/m*3 9.4 C 1.6 km/h
820 01-04-2020 20:15:00 9.2 C 3.48 g/m*3 7.46 C 11.3 km/h
821 01-04-2020 20:20:00 9.1 C 3.46 g/m*3 8.33 C 6.4 km/h
822 01-04-2020 20:25:00 9.1 C 3.64 g/m*3 9.1 C 4.8 km/h
823 01-04-2020 20:30:00 8.8 C 3.83 g/m*3 8.8 C 1.6 km/h
824 01-04-2020 20:35:00 8.4 C 3.9 g/m*3 8.4 C 0 km/h
825 01-04-2020 20:40:00 7.8 C 4 g/m*3 6.83 C 6.4 km/h
Sensor: Nr:Datum:Temp:Abs-Feuchte:Windchill:Wind:
Aussen-T/F 826 01-04-2020 20:45:00 7.4 C 4.06 g/m*3 7.4 C 4.8 km/h
827 01-04-2020 20:50:00 6.9 C 4.16 g/m*3 5.79 C 6.4 km/h
828 01-04-2020 20:55:00 6.6 C 4.08 g/m*3 5.44 C 6.4 km/h
829 01-04-2020 21:00:00 6.3 C 4.07 g/m*3 5.1 C 6.4 km/h
830 01-04-2020 21:05:00 6 C 4.06 g/m*3 6 C 4.8 km/h
831 01-04-2020 21:10:00 5.7 C 4.06 g/m*3 4.4 C 6.4 km/h
832 01-04-2020 21:15:00 5.6 C 4.03 g/m*3 4.29 C 6.4 km/h
833 01-04-2020 21:20:00 5.4 C 4.12 g/m*3 5.4 C 4.8 km/h
834 01-04-2020 21:25:00 5.3 C 4.09 g/m*3 5.3 C 4.8 km/h
835 01-04-2020 21:30:00 5.2 C 4.06 g/m*3 5.2 C 4.8 km/h
836 01-04-2020 21:35:00 5.1 C 4.1 g/m*3 5.1 C 4.8 km/h
837 01-04-2020 21:40:00 5 C 4.08 g/m*3 3.59 C 6.4 km/h
838 01-04-2020 21:45:00 4.9 C 4.12 g/m*3 4.9 C 1.6 km/h
839 01-04-2020 21:50:00 4.7 C 4.13 g/m*3 4.7 C 3.2 km/h
840 01-04-2020 21:55:00 4.6 C 4.17 g/m*3 4.6 C 4.8 km/h
841 01-04-2020 22:00:00 4.4 C 4.05 g/m*3 4.4 C 4.8 km/h
842 01-04-2020 22:05:00 4.3 C 4.09 g/m*3 4.3 C 4.8 km/h
843 01-04-2020 22:10:00 4.2 C 4.12 g/m*3 4.2 C 4.8 km/h
844 01-04-2020 22:15:00 4 C 4.07 g/m*3 4 C 4.8 km/h
845 01-04-2020 22:20:00 3.9 C 4.11 g/m*3 3.9 C 3.2 km/h
846 01-04-2020 22:25:00 3.7 C 4.11 g/m*3 3.7 C 1.6 km/h
847 01-04-2020 22:30:00 3.6 C 4.09 g/m*3 3.6 C 3.2 km/h
848 01-04-2020 22:35:00 3.5 C 4.06 g/m*3 3.5 C 3.2 km/h
849 01-04-2020 22:40:00 3.5 C 4.06 g/m*3 3.5 C 0 km/h
850 01-04-2020 22:45:00 3.4 C 4.03 g/m*3 3.4 C 1.6 km/h
Sensor: Nr:Datum:Temp:Abs-Feuchte:Windchill:Wind:
Aussen-T/F 851 01-04-2020 22:50:00 3.3 C 4.06 g/m*3 3.3 C 0 km/h
852 01-04-2020 22:55:00 3.2 C 4.1 g/m*3 3.2 C 0 km/h
853 01-04-2020 23:00:00 3.1 C 4.13 g/m*3 3.1 C 1.6 km/h
854 01-04-2020 23:05:00 2.9 C 4.13 g/m*3 2.9 C 1.6 km/h
855 01-04-2020 23:10:00 2.7 C 4.08 g/m*3 2.7 C 1.6 km/h
856 01-04-2020 23:15:00 2.7 C 4.14 g/m*3 2.7 C 0 km/h
857 01-04-2020 23:20:00 2.7 C 4.14 g/m*3 2.7 C 0 km/h
858 01-04-2020 23:25:00 2.6 C 4.17 g/m*3 2.6 C 0 km/h
859 01-04-2020 23:30:00 2.4 C 4.05 g/m*3 2.4 C 0 km/h
860 01-04-2020 23:35:00 2.3 C 4.03 g/m*3 2.3 C 0 km/h
861 01-04-2020 23:40:00 2.2 C 4.06 g/m*3 2.2 C 0 km/h
862 01-04-2020 23:45:00 2 C 4.06 g/m*3 2 C 1.6 km/h
863 01-04-2020 23:50:00 1.9 C 4.03 g/m*3 1.9 C 1.6 km/h
864 01-04-2020 23:55:00 1.8 C 4 g/m*3 1.8 C 3.2 km/h
865 02-04-2020 00:00:00 1.8 C 4 g/m*3 1.8 C 1.6 km/h
866 02-04-2020 00:05:00 1.6 C 4 g/m*3 1.6 C 0 km/h
867 02-04-2020 00:10:00 1.4 C 3.95 g/m*3 1.4 C 0 km/h
868 02-04-2020 00:15:00 1.3 C 3.92 g/m*3 1.3 C 0 km/h
869 02-04-2020 00:20:00 1.3 C 3.92 g/m*3 1.3 C 0 km/h
870 02-04-2020 00:25:00 1.2 C 3.89 g/m*3 1.2 C 0 km/h
871 02-04-2020 00:30:00 1.1 C 3.92 g/m*3 1.1 C 3.2 km/h
872 02-04-2020 00:35:00 1 C 3.89 g/m*3 1 C 1.6 km/h
873 02-04-2020 00:40:00 1 C 3.94 g/m*3 1 C 3.2 km/h
874 02-04-2020 00:45:00 1 C 3.94 g/m*3 1 C 3.2 km/h
875 02-04-2020 00:50:00 1 C 3.94 g/m*3 1 C 0 km/h
Sensor: Nr:Datum:Temp:Abs-Feuchte:Windchill:Wind:
Aussen-T/F 876 02-04-2020 00:55:00 0.9 C 3.92 g/m*3 0.9 C 1.6 km/h
877 02-04-2020 01:00:00 0.8 C 3.94 g/m*3 0.8 C 0 km/h
878 02-04-2020 01:05:00 0.8 C 3.94 g/m*3 0.8 C 0 km/h
879 02-04-2020 01:10:00 0.7 C 3.92 g/m*3 0.7 C 0 km/h
880 02-04-2020 01:15:00 0.6 C 3.94 g/m*3 0.6 C 0 km/h
881 02-04-2020 01:20:00 0.5 C 3.91 g/m*3 0.5 C 0 km/h
882 02-04-2020 01:25:00 0.3 C 3.91 g/m*3 0.3 C 0 km/h
883 02-04-2020 01:30:00 0.3 C 3.91 g/m*3 0.3 C 0 km/h
884 02-04-2020 01:35:00 0.2 C 3.88 g/m*3 0.2 C 0 km/h
885 02-04-2020 01:40:00 0.2 C 3.88 g/m*3 0.2 C 0 km/h
886 02-04-2020 01:45:00 0.2 C 3.88 g/m*3 0.2 C 0 km/h
887 02-04-2020 01:50:00 0.1 C 3.9 g/m*3 0.1 C 0 km/h
888 02-04-2020 01:55:00 0.1 C 3.9 g/m*3 0.1 C 0 km/h
889 02-04-2020 02:00:00 0 C 3.88 g/m*3 0 C 0 km/h
890 02-04-2020 02:05:00 0 C 3.88 g/m*3 0 C 0 km/h
891 02-04-2020 02:10:00 0.1 C 3.9 g/m*3 0.1 C 0 km/h
892 02-04-2020 02:15:00 0 C 3.88 g/m*3 0 C 0 km/h
893 02-04-2020 02:20:00 -0.1 C 3.85 g/m*3 -0.1 C 0 km/h
894 02-04-2020 02:25:00 -0.1 C 3.85 g/m*3 -0.1 C 0 km/h
895 02-04-2020 02:30:00 -0.2 C 3.87 g/m*3 -0.2 C 0 km/h
896 02-04-2020 02:35:00 -0.3 C 3.84 g/m*3 -0.3 C 0 km/h
897 02-04-2020 02:40:00 -0.3 C 3.84 g/m*3 -0.3 C 0 km/h
898 02-04-2020 02:45:00 -0.4 C 3.82 g/m*3 -0.4 C 0 km/h
899 02-04-2020 02:50:00 -0.4 C 3.82 g/m*3 -0.4 C 0 km/h
900 02-04-2020 02:55:00 -0.5 C 3.84 g/m*3 -0.5 C 0 km/h
Sensor: Nr:Datum:Temp:Abs-Feuchte:Windchill:Wind:
Aussen-T/F 901 02-04-2020 03:00:00 -0.6 C 3.81 g/m*3 -0.6 C 0 km/h
902 02-04-2020 03:05:00 -0.6 C 3.81 g/m*3 -0.6 C 0 km/h
903 02-04-2020 03:10:00 -0.6 C 3.81 g/m*3 -0.6 C 0 km/h
904 02-04-2020 03:15:00 -0.5 C 3.84 g/m*3 -0.5 C 1.6 km/h
905 02-04-2020 03:20:00 -0.5 C 3.84 g/m*3 -0.5 C 0 km/h
906 02-04-2020 03:25:00 -0.5 C 3.84 g/m*3 -0.5 C 0 km/h
907 02-04-2020 03:30:00 -0.6 C 3.81 g/m*3 -0.6 C 0 km/h
908 02-04-2020 03:35:00 -0.6 C 3.81 g/m*3 -0.6 C 0 km/h
909 02-04-2020 03:40:00 -0.6 C 3.81 g/m*3 -0.6 C 0 km/h
910 02-04-2020 03:45:00 -0.6 C 3.81 g/m*3 -0.6 C 0 km/h
911 02-04-2020 03:50:00 -0.6 C 3.86 g/m*3 -0.6 C 0 km/h
912 02-04-2020 03:55:00 -0.7 C 3.83 g/m*3 -0.7 C 0 km/h
913 02-04-2020 04:00:00 -0.7 C 3.78 g/m*3 -0.7 C 0 km/h
914 02-04-2020 04:05:00 -0.8 C 3.8 g/m*3 -0.8 C 0 km/h
915 02-04-2020 04:10:00 -0.7 C 3.83 g/m*3 -0.7 C 1.6 km/h
916 02-04-2020 04:15:00 -0.7 C 3.83 g/m*3 -0.7 C 0 km/h
917 02-04-2020 04:20:00 -0.6 C 3.86 g/m*3 -0.6 C 0 km/h
918 02-04-2020 04:25:00 -0.6 C 3.86 g/m*3 -0.6 C 0 km/h
919 02-04-2020 04:30:00 -0.6 C 3.86 g/m*3 -0.6 C 0 km/h
920 02-04-2020 04:35:00 -0.7 C 3.78 g/m*3 -0.7 C 0 km/h
921 02-04-2020 04:40:00 -0.9 C 3.73 g/m*3 -0.9 C 0 km/h
922 02-04-2020 04:45:00 -1.1 C 3.73 g/m*3 -1.1 C 1.6 km/h
923 02-04-2020 04:50:00 -1.2 C 3.7 g/m*3 -1.2 C 0 km/h
924 02-04-2020 04:55:00 -1.3 C 3.67 g/m*3 -1.3 C 0 km/h
925 02-04-2020 05:00:00 -1.4 C 3.69 g/m*3 -1.4 C 0 km/h
Sensor: Nr:Datum:Temp:Abs-Feuchte:Windchill:Wind:
Aussen-T/F 926 02-04-2020 05:05:00 -1.4 C 3.69 g/m*3 -1.4 C 0 km/h
927 02-04-2020 05:10:00 -1.5 C 3.67 g/m*3 -1.5 C 0 km/h
928 02-04-2020 05:15:00 -1.6 C 3.68 g/m*3 -1.6 C 0 km/h
929 02-04-2020 05:20:00 -1.6 C 3.68 g/m*3 -1.6 C 0 km/h
930 02-04-2020 05:25:00 -1.6 C 3.68 g/m*3 -1.6 C 0 km/h
931 02-04-2020 05:30:00 -1.6 C 3.68 g/m*3 -1.6 C 0 km/h
932 02-04-2020 05:35:00 -1.6 C 3.68 g/m*3 -1.6 C 0 km/h
933 02-04-2020 05:40:00 -1.7 C 3.66 g/m*3 -1.7 C 0 km/h
934 02-04-2020 05:45:00 -1.7 C 3.7 g/m*3 -1.7 C 0 km/h
935 02-04-2020 05:50:00 -1.6 C 3.73 g/m*3 -1.6 C 0 km/h
936 02-04-2020 05:55:00 -1.5 C 3.75 g/m*3 -1.5 C 0 km/h
937 02-04-2020 06:00:00 -1.5 C 3.75 g/m*3 -1.5 C 0 km/h
938 02-04-2020 06:05:00 -1.6 C 3.73 g/m*3 -1.6 C 0 km/h
939 02-04-2020 06:10:00 -1.6 C 3.73 g/m*3 -1.6 C 0 km/h
940 02-04-2020 06:15:00 -1.7 C 3.66 g/m*3 -1.7 C 0 km/h
941 02-04-2020 06:20:00 -1.8 C 3.63 g/m*3 -1.8 C 0 km/h
942 02-04-2020 06:25:00 -1.8 C 3.68 g/m*3 -1.8 C 0 km/h
943 02-04-2020 06:30:00 -1.8 C 3.72 g/m*3 -1.8 C 0 km/h
944 02-04-2020 06:35:00 -1.7 C 3.75 g/m*3 -1.7 C 0 km/h
945 02-04-2020 06:40:00 -1.8 C 3.68 g/m*3 -1.8 C 0 km/h
946 02-04-2020 06:45:00 -1.8 C 3.68 g/m*3 -1.8 C 0 km/h
947 02-04-2020 06:50:00 -1.8 C 3.72 g/m*3 -1.8 C 0 km/h
948 02-04-2020 06:55:00 -1.8 C 3.72 g/m*3 -1.8 C 0 km/h
949 02-04-2020 07:00:00 -1.8 C 3.68 g/m*3 -1.8 C 0 km/h
950 02-04-2020 07:05:00 -1.9 C 3.65 g/m*3 -1.9 C 0 km/h
Sensor: Nr:Datum:Temp:Abs-Feuchte:Windchill:Wind:
Aussen-T/F 951 02-04-2020 07:10:00 -2 C 3.63 g/m*3 -2 C 0 km/h
952 02-04-2020 07:15:00 -2 C 3.67 g/m*3 -2 C 0 km/h
953 02-04-2020 07:20:00 -1.9 C 3.69 g/m*3 -1.9 C 0 km/h
954 02-04-2020 07:25:00 -1.9 C 3.69 g/m*3 -1.9 C 0 km/h
955 02-04-2020 07:30:00 -1.9 C 3.69 g/m*3 -1.9 C 0 km/h
956 02-04-2020 07:35:00 -1.9 C 3.74 g/m*3 -1.9 C 1.6 km/h
957 02-04-2020 07:40:00 -1.9 C 3.69 g/m*3 -1.9 C 1.6 km/h
958 02-04-2020 07:45:00 -1.9 C 3.69 g/m*3 -1.9 C 0 km/h
959 02-04-2020 07:50:00 -1.9 C 3.69 g/m*3 -1.9 C 1.6 km/h
960 02-04-2020 07:55:00 -1.8 C 3.76 g/m*3 -1.8 C 0 km/h
961 02-04-2020 08:00:00 -1.8 C 3.76 g/m*3 -1.8 C 0 km/h
962 02-04-2020 08:05:00 -1.7 C 3.79 g/m*3 -1.7 C 0 km/h
963 02-04-2020 08:10:00 -1.5 C 3.84 g/m*3 -1.5 C 1.6 km/h
964 02-04-2020 08:15:00 -1.3 C 3.9 g/m*3 -1.3 C 0 km/h
965 02-04-2020 08:20:00 -1.3 C 3.85 g/m*3 -1.3 C 0 km/h
966 02-04-2020 08:25:00 -1.3 C 3.85 g/m*3 -1.3 C 0 km/h
967 02-04-2020 08:30:00 -1.3 C 3.85 g/m*3 -1.3 C 0 km/h
968 02-04-2020 08:35:00 -1.3 C 3.85 g/m*3 -1.3 C 0 km/h
969 02-04-2020 08:40:00 -1.3 C 3.85 g/m*3 -1.3 C 0 km/h
970 02-04-2020 08:45:00 -1.2 C 3.88 g/m*3 -1.2 C 0 km/h
971 02-04-2020 08:50:00 -1.2 C 3.88 g/m*3 -1.2 C 0 km/h
972 02-04-2020 08:55:00 -1.1 C 3.91 g/m*3 -1.1 C 0 km/h
973 02-04-2020 09:00:00 -1.1 C 3.91 g/m*3 -1.1 C 0 km/h
974 02-04-2020 09:05:00 -1 C 3.93 g/m*3 -1 C 1.6 km/h
975 02-04-2020 09:10:00 -1 C 3.93 g/m*3 -1 C 0 km/h
Sensor: Nr:Datum:Temp:Abs-Feuchte:Windchill:Wind:
Aussen-T/F 976 02-04-2020 09:15:00 -0.9 C 3.96 g/m*3 -0.9 C 0 km/h
977 02-04-2020 09:20:00 -0.8 C 3.99 g/m*3 -0.8 C 0 km/h
978 02-04-2020 09:25:00 -0.7 C 4.02 g/m*3 -0.7 C 0 km/h
979 02-04-2020 09:30:00 -0.7 C 4.02 g/m*3 -0.7 C 0 km/h
980 02-04-2020 09:35:00 -0.6 C 4.04 g/m*3 -0.6 C 0 km/h
981 02-04-2020 09:40:00 -0.4 C 4.1 g/m*3 -0.4 C 0 km/h
982 02-04-2020 09:45:00 -0.3 C 4.13 g/m*3 -0.3 C 0 km/h
983 02-04-2020 09:50:00 -0.2 C 4.16 g/m*3 -0.2 C 0 km/h
984 02-04-2020 09:55:00 0 C 4.22 g/m*3 0 C 0 km/h
985 02-04-2020 10:00:00 0.2 C 4.27 g/m*3 0.2 C 0 km/h
986 02-04-2020 10:05:00 0.3 C 4.3 g/m*3 0.3 C 0 km/h
987 02-04-2020 10:10:00 0.5 C 4.36 g/m*3 0.5 C 0 km/h
988 02-04-2020 10:15:00 0.7 C 4.42 g/m*3 0.7 C 0 km/h
989 02-04-2020 10:20:00 0.8 C 4.45 g/m*3 0.8 C 0 km/h
990 02-04-2020 10:25:00 1.1 C 4.55 g/m*3 1.1 C 0 km/h
991 02-04-2020 10:30:00 1.3 C 4.56 g/m*3 1.3 C 0 km/h
992 02-04-2020 10:35:00 1.6 C 4.65 g/m*3 1.6 C 0 km/h
993 02-04-2020 10:40:00 1.9 C 4.69 g/m*3 1.9 C 0 km/h
994 02-04-2020 10:45:00 2.3 C 4.76 g/m*3 2.3 C 0 km/h
995 02-04-2020 10:50:00 2.8 C 4.81 g/m*3 2.8 C 0 km/h
996 02-04-2020 10:55:00 3.2 C 4.82 g/m*3 3.2 C 0 km/h
997 02-04-2020 11:00:00 3.7 C 4.92 g/m*3 3.7 C 0 km/h
998 02-04-2020 11:05:00 4 C 4.96 g/m*3 4 C 0 km/h
999 02-04-2020 11:10:00 4.3 C 4.93 g/m*3 4.3 C 0 km/h
1000 02-04-2020 11:15:00 4.6 C 4.9 g/m*3 4.6 C 0 km/h
Sensor: Nr:Datum:Temp:Abs-Feuchte:Windchill:Wind:
Aussen-T/F 1001 02-04-2020 11:20:00 4.9 C 4.86 g/m*3 4.9 C 0 km/h
1002 02-04-2020 11:25:00 5.3 C 4.92 g/m*3 5.3 C 3.2 km/h
1003 02-04-2020 11:30:00 5.6 C 4.88 g/m*3 5.6 C 3.2 km/h
1004 02-04-2020 11:35:00 5.9 C 4.98 g/m*3 5.9 C 1.6 km/h
1005 02-04-2020 11:40:00 6.3 C 4.89 g/m*3 6.3 C 3.2 km/h
1006 02-04-2020 11:45:00 6.6 C 4.91 g/m*3 6.6 C 1.6 km/h
1007 02-04-2020 11:50:00 6.9 C 5 g/m*3 6.9 C 3.2 km/h
1008 02-04-2020 11:55:00 7.2 C 4.95 g/m*3 7.2 C 1.6 km/h
1009 02-04-2020 12:00:00 7.5 C 5.04 g/m*3 7.5 C 3.2 km/h
1010 02-04-2020 12:05:00 7.8 C 4.9 g/m*3 6.83 C 6.4 km/h
1011 02-04-2020 12:10:00 8.1 C 4.99 g/m*3 8.1 C 3.2 km/h
1012 02-04-2020 12:15:00 8.3 C 4.97 g/m*3 8.3 C 3.2 km/h
1013 02-04-2020 12:20:00 8.6 C 4.9 g/m*3 8.6 C 4.8 km/h
1014 02-04-2020 12:25:00 8.8 C 4.96 g/m*3 8.8 C 4.8 km/h
1015 02-04-2020 12:30:00 9.1 C 4.97 g/m*3 9.1 C 1.6 km/h
1016 02-04-2020 12:35:00 9.2 C 4.91 g/m*3 9.2 C 1.6 km/h
1017 02-04-2020 12:40:00 9.4 C 4.52 g/m*3 9.4 C 3.2 km/h
1018 02-04-2020 12:45:00 9.6 C 4.76 g/m*3 8.91 C 6.4 km/h
1019 02-04-2020 12:50:00 9.7 C 4.79 g/m*3 9.7 C 3.2 km/h
1020 02-04-2020 12:55:00 9.9 C 4.67 g/m*3 8.87 C 8.1 km/h
1021 02-04-2020 13:00:00 10 C 4.6 g/m*3 10 C 4.8 km/h
1022 02-04-2020 13:05:00 10.1 C 4.63 g/m*3 8.8 C 9.7 km/h
1023 02-04-2020 13:10:00 10.2 C 4.76 g/m*3 8.92 C 9.7 km/h
1024 02-04-2020 13:15:00 10.5 C 4.66 g/m*3 9.95 C 6.4 km/h
1025 02-04-2020 13:20:00 10.7 C 4.52 g/m*3 10.18 C 6.4 km/h
Sensor: Nr:Datum:Temp:Abs-Feuchte:Windchill:Wind:
Aussen-T/F 1026 02-04-2020 13:25:00 10.8 C 4.45 g/m*3 10.29 C 6.4 km/h
1027 02-04-2020 13:30:00 10.8 C 4.15 g/m*3 9.38 C 11.3 km/h
1028 02-04-2020 13:35:00 11 C 4.4 g/m*3 11 C 4.8 km/h
1029 02-04-2020 13:40:00 11.2 C 4.56 g/m*3 11.2 C 12.9 km/h
1030 02-04-2020 13:45:00 11.3 C 4.59 g/m*3 11.3 C 12.9 km/h
1031 02-04-2020 13:50:00 11.4 C 4.31 g/m*3 11.4 C 6.4 km/h
1032 02-04-2020 13:55:00 11.4 C 4.41 g/m*3 11.4 C 8.1 km/h
1033 02-04-2020 14:00:00 11.6 C 4.57 g/m*3 11.6 C 9.7 km/h
1034 02-04-2020 14:05:00 11.7 C 4.6 g/m*3 11.7 C 9.7 km/h
1035 02-04-2020 14:10:00 11.8 C 4.53 g/m*3 11.8 C 6.4 km/h
1036 02-04-2020 14:15:00 11.9 C 4.55 g/m*3 11.9 C 8.1 km/h
1037 02-04-2020 14:20:00 12.1 C 4.61 g/m*3 12.1 C 11.3 km/h
1038 02-04-2020 14:25:00 12.3 C 4.67 g/m*3 12.3 C 6.4 km/h
1039 02-04-2020 14:30:00 12.6 C 4.65 g/m*3 12.6 C 4.8 km/h
1040 02-04-2020 14:35:00 12.7 C 4.68 g/m*3 12.7 C 8.1 km/h
1041 02-04-2020 14:40:00 12.8 C 4.82 g/m*3 12.8 C 8.1 km/h
1042 02-04-2020 14:45:00 12.8 C 4.7 g/m*3 12.8 C 11.3 km/h
1043 02-04-2020 14:50:00 12.8 C 4.7 g/m*3 12.8 C 8.1 km/h
1044 02-04-2020 14:55:00 12.7 C 4.79 g/m*3 12.7 C 11.3 km/h
1045 02-04-2020 15:00:00 12.8 C 4.7 g/m*3 12.8 C 6.4 km/h
1046 02-04-2020 15:05:00 12.9 C 4.85 g/m*3 12.9 C 9.7 km/h
1047 02-04-2020 15:10:00 13.1 C 4.79 g/m*3 13.1 C 9.7 km/h
1048 02-04-2020 15:15:00 13.2 C 4.59 g/m*3 13.2 C 8.1 km/h
1049 02-04-2020 15:20:00 13.2 C 4.59 g/m*3 13.2 C 8.1 km/h
1050 02-04-2020 15:25:00 13.2 C 4.59 g/m*3 13.2 C 9.7 km/h
Sensor: Nr:Datum:Temp:Abs-Feuchte:Windchill:Wind:
Aussen-T/F 1051 02-04-2020 15:30:00 13.3 C 4.74 g/m*3 13.3 C 16.1 km/h
1052 02-04-2020 15:35:00 13.3 C 4.74 g/m*3 13.3 C 8.1 km/h
1053 02-04-2020 15:40:00 13.4 C 4.65 g/m*3 13.4 C 8.1 km/h
1054 02-04-2020 15:45:00 13.5 C 4.68 g/m*3 13.5 C 9.7 km/h
1055 02-04-2020 15:50:00 13.6 C 4.71 g/m*3 13.6 C 9.7 km/h
1056 02-04-2020 15:55:00 13.6 C 4.83 g/m*3 13.6 C 8.1 km/h
1057 02-04-2020 16:00:00 13.6 C 4.71 g/m*3 13.6 C 6.4 km/h
1058 02-04-2020 16:05:00 13.8 C 4.89 g/m*3 13.8 C 4.8 km/h
1059 02-04-2020 16:10:00 13.9 C 4.92 g/m*3 13.9 C 6.4 km/h
1060 02-04-2020 16:15:00 13.8 C 4.89 g/m*3 13.8 C 14.5 km/h
1061 02-04-2020 16:20:00 13.4 C 4.88 g/m*3 13.4 C 11.3 km/h
1062 02-04-2020 16:25:00 13.2 C 5.05 g/m*3 13.2 C 9.7 km/h
1063 02-04-2020 16:30:00 13.3 C 4.97 g/m*3 13.3 C 12.9 km/h
1064 02-04-2020 16:35:00 13.3 C 4.97 g/m*3 13.3 C 14.5 km/h
1065 02-04-2020 16:40:00 13.5 C 5.03 g/m*3 13.5 C 11.3 km/h
1066 02-04-2020 16:45:00 13.6 C 5.06 g/m*3 13.6 C 11.3 km/h
1067 02-04-2020 16:50:00 13.7 C 4.97 g/m*3 13.7 C 16.1 km/h
1068 02-04-2020 16:55:00 13.7 C 5.09 g/m*3 13.7 C 11.3 km/h
1069 02-04-2020 17:00:00 13.8 C 5.12 g/m*3 13.8 C 14.5 km/h
1070 02-04-2020 17:05:00 13.9 C 5.27 g/m*3 13.9 C 11.3 km/h
1071 02-04-2020 17:10:00 13.9 C 5.15 g/m*3 13.9 C 12.9 km/h
1072 02-04-2020 17:15:00 14 C 5.31 g/m*3 14 C 9.7 km/h
1073 02-04-2020 17:20:00 14 C 5.19 g/m*3 14 C 14.5 km/h
1074 02-04-2020 17:25:00 13.7 C 5.21 g/m*3 13.7 C 17.7 km/h
1075 02-04-2020 17:30:00 13.4 C 5.35 g/m*3 13.4 C 12.9 km/h
Sensor: Nr:Datum:Temp:Abs-Feuchte:Windchill:Wind:
Aussen-T/F 1076 02-04-2020 17:35:00 13.4 C 5.35 g/m*3 13.4 C 14.5 km/h
1077 02-04-2020 17:40:00 13.4 C 5.35 g/m*3 13.4 C 9.7 km/h
1078 02-04-2020 17:45:00 13.3 C 5.31 g/m*3 13.3 C 16.1 km/h
1079 02-04-2020 17:50:00 13.2 C 5.51 g/m*3 13.2 C 12.9 km/h
1080 02-04-2020 17:55:00 13 C 5.56 g/m*3 13 C 12.9 km/h
1081 02-04-2020 18:00:00 12.8 C 5.6 g/m*3 12.8 C 16.1 km/h
1082 02-04-2020 18:05:00 12.7 C 5.57 g/m*3 12.7 C 14.5 km/h
1083 02-04-2020 18:10:00 12.5 C 5.5 g/m*3 12.5 C 14.5 km/h
1084 02-04-2020 18:15:00 12.4 C 5.57 g/m*3 12.4 C 11.3 km/h
1085 02-04-2020 18:20:00 12.4 C 5.57 g/m*3 12.4 C 14.5 km/h
1086 02-04-2020 18:25:00 12.3 C 5.43 g/m*3 12.3 C 9.7 km/h
1087 02-04-2020 18:30:00 12.2 C 5.5 g/m*3 12.2 C 17.7 km/h
1088 02-04-2020 18:35:00 12.1 C 5.36 g/m*3 12.1 C 9.7 km/h
1089 02-04-2020 18:40:00 11.9 C 5.4 g/m*3 11.9 C 14.5 km/h
1090 02-04-2020 18:45:00 11.8 C 5.26 g/m*3 11.8 C 14.5 km/h
1091 02-04-2020 18:50:00 11.7 C 5.33 g/m*3 11.7 C 9.7 km/h
1092 02-04-2020 18:55:00 11.6 C 5.3 g/m*3 11.6 C 9.7 km/h
1093 02-04-2020 19:00:00 11.4 C 5.13 g/m*3 11.4 C 11.3 km/h
1094 02-04-2020 19:05:00 11.3 C 5.2 g/m*3 11.3 C 12.9 km/h
1095 02-04-2020 19:10:00 11.3 C 5.2 g/m*3 11.3 C 6.4 km/h
1096 02-04-2020 19:15:00 11.1 C 5.14 g/m*3 11.1 C 8.1 km/h
1097 02-04-2020 19:20:00 10.9 C 5.07 g/m*3 10.04 C 8.1 km/h
1098 02-04-2020 19:25:00 10.8 C 5.14 g/m*3 10.29 C 6.4 km/h
1099 02-04-2020 19:30:00 10.7 C 5.11 g/m*3 9.04 C 12.9 km/h
1100 02-04-2020 19:35:00 10.5 C 5.04 g/m*3 9.28 C 9.7 km/h
Sensor: Nr:Datum:Temp:Abs-Feuchte:Windchill:Wind:
Aussen-T/F 1101 02-04-2020 19:40:00 10.3 C 5.08 g/m*3 10.3 C 4.8 km/h
1102 02-04-2020 19:45:00 10.1 C 5.01 g/m*3 9.48 C 6.4 km/h
1103 02-04-2020 19:50:00 10 C 4.98 g/m*3 9.37 C 6.4 km/h
1104 02-04-2020 19:55:00 9.8 C 4.92 g/m*3 9.14 C 6.4 km/h
1105 02-04-2020 20:00:00 9.6 C 5.04 g/m*3 9.6 C 4.8 km/h
1106 02-04-2020 20:05:00 9.4 C 4.97 g/m*3 9.4 C 3.2 km/h
1107 02-04-2020 20:10:00 9.2 C 5 g/m*3 7.73 C 9.7 km/h
1108 02-04-2020 20:15:00 9.1 C 4.97 g/m*3 7.33 C 11.3 km/h
1109 02-04-2020 20:20:00 9 C 5.03 g/m*3 7.21 C 11.3 km/h
1110 02-04-2020 20:25:00 8.9 C 5.08 g/m*3 8.9 C 1.6 km/h
1111 02-04-2020 20:30:00 8.7 C 5.02 g/m*3 7.46 C 8.1 km/h
1112 02-04-2020 20:35:00 8.6 C 5.07 g/m*3 6.73 C 11.3 km/h
1113 02-04-2020 20:40:00 8.5 C 5.04 g/m*3 8.5 C 1.6 km/h
1114 02-04-2020 20:45:00 8.3 C 5.06 g/m*3 8.3 C 3.2 km/h
1115 02-04-2020 20:50:00 8.2 C 5.02 g/m*3 7.29 C 6.4 km/h
1116 02-04-2020 20:55:00 8 C 5.04 g/m*3 8 C 3.2 km/h
1117 02-04-2020 21:00:00 7.7 C 5.03 g/m*3 7.7 C 1.6 km/h
1118 02-04-2020 21:05:00 7.4 C 5.01 g/m*3 7.4 C 3.2 km/h
1119 02-04-2020 21:10:00 7.3 C 5.06 g/m*3 7.3 C 3.2 km/h
1120 02-04-2020 21:15:00 7.1 C 5.07 g/m*3 7.1 C 3.2 km/h
1121 02-04-2020 21:20:00 6.8 C 5.05 g/m*3 6.8 C 4.8 km/h
1122 02-04-2020 21:25:00 6.6 C 5.06 g/m*3 6.6 C 4.8 km/h
1123 02-04-2020 21:30:00 6.4 C 5.07 g/m*3 6.4 C 4.8 km/h
1124 02-04-2020 21:35:00 6.2 C 5.07 g/m*3 6.2 C 4.8 km/h
1125 02-04-2020 21:40:00 6.2 C 5.07 g/m*3 6.2 C 4.8 km/h
Sensor: Nr:Datum:Temp:Abs-Feuchte:Windchill:Wind:
Aussen-T/F 1126 02-04-2020 21:45:00 6.1 C 5.04 g/m*3 6.1 C 4.8 km/h
1127 02-04-2020 21:50:00 6 C 5.08 g/m*3 6 C 3.2 km/h
1128 02-04-2020 21:55:00 5.9 C 5.05 g/m*3 5.9 C 4.8 km/h
1129 02-04-2020 22:00:00 5.8 C 5.01 g/m*3 5.8 C 3.2 km/h
1130 02-04-2020 22:05:00 5.9 C 5.05 g/m*3 5.9 C 4.8 km/h
1131 02-04-2020 22:10:00 5.9 C 5.05 g/m*3 5.9 C 3.2 km/h
1132 02-04-2020 22:15:00 6 C 5.08 g/m*3 6 C 3.2 km/h
1133 02-04-2020 22:20:00 6.1 C 5.11 g/m*3 6.1 C 3.2 km/h
1134 02-04-2020 22:25:00 6 C 5.08 g/m*3 6 C 3.2 km/h
1135 02-04-2020 22:30:00 5.9 C 5.12 g/m*3 5.9 C 3.2 km/h
1136 02-04-2020 22:35:00 5.9 C 5.12 g/m*3 5.9 C 3.2 km/h
1137 02-04-2020 22:40:00 5.8 C 5.09 g/m*3 5.8 C 4.8 km/h
1138 02-04-2020 22:45:00 5.7 C 5.12 g/m*3 5.7 C 4.8 km/h
1139 02-04-2020 22:50:00 5.7 C 5.12 g/m*3 5.7 C 4.8 km/h
1140 02-04-2020 22:55:00 5.7 C 5.12 g/m*3 5.7 C 3.2 km/h
1141 02-04-2020 23:00:00 5.6 C 5.16 g/m*3 5.6 C 4.8 km/h
1142 02-04-2020 23:05:00 5.6 C 5.16 g/m*3 5.6 C 4.8 km/h
1143 02-04-2020 23:10:00 5.6 C 5.16 g/m*3 5.6 C 4.8 km/h
1144 02-04-2020 23:15:00 5.6 C 5.16 g/m*3 5.6 C 4.8 km/h
1145 02-04-2020 23:20:00 5.6 C 5.23 g/m*3 5.6 C 4.8 km/h
1146 02-04-2020 23:25:00 5.5 C 5.2 g/m*3 5.5 C 4.8 km/h
1147 02-04-2020 23:30:00 5.4 C 5.16 g/m*3 5.4 C 4.8 km/h
1148 02-04-2020 23:35:00 5.3 C 5.2 g/m*3 5.3 C 4.8 km/h
1149 02-04-2020 23:40:00 5.1 C 5.13 g/m*3 5.1 C 3.2 km/h
1150 02-04-2020 23:45:00 4.9 C 5.06 g/m*3 4.9 C 0 km/h
Sensor: Nr:Datum:Temp:Abs-Feuchte:Windchill:Wind:
Aussen-T/F 1151 02-04-2020 23:50:00 4.6 C 5.03 g/m*3 4.6 C 1.6 km/h
1152 02-04-2020 23:55:00 4.3 C 4.99 g/m*3 4.3 C 1.6 km/h
1153 03-04-2020 00:00:00 4.2 C 5.03 g/m*3 4.2 C 1.6 km/h
1154 03-04-2020 00:05:00 3.9 C 4.93 g/m*3 3.9 C 0 km/h
1155 03-04-2020 00:10:00 3.7 C 4.92 g/m*3 3.7 C 0 km/h
1156 03-04-2020 00:15:00 3.4 C 4.89 g/m*3 3.4 C 0 km/h
1157 03-04-2020 00:20:00 3.3 C 4.85 g/m*3 3.3 C 1.6 km/h
1158 03-04-2020 00:25:00 3.3 C 4.91 g/m*3 3.3 C 3.2 km/h
1159 03-04-2020 00:30:00 3.3 C 4.97 g/m*3 3.3 C 1.6 km/h
1160 03-04-2020 00:35:00 3.3 C 4.91 g/m*3 3.3 C 0 km/h
1161 03-04-2020 00:40:00 3.3 C 4.91 g/m*3 3.3 C 3.2 km/h
1162 03-04-2020 00:45:00 3.4 C 5.01 g/m*3 3.4 C 3.2 km/h
1163 03-04-2020 00:50:00 3.4 C 4.95 g/m*3 3.4 C 1.6 km/h
1164 03-04-2020 00:55:00 3.2 C 4.88 g/m*3 1.51 C 6.4 km/h
1165 03-04-2020 01:00:00 3.2 C 4.88 g/m*3 3.2 C 1.6 km/h
1166 03-04-2020 01:05:00 3.1 C 4.85 g/m*3 3.1 C 3.2 km/h
1167 03-04-2020 01:10:00 2.9 C 4.84 g/m*3 2.9 C 3.2 km/h
1168 03-04-2020 01:15:00 3 C 4.88 g/m*3 1.28 C 6.4 km/h
1169 03-04-2020 01:20:00 2.9 C 4.84 g/m*3 2.9 C 1.6 km/h
1170 03-04-2020 01:25:00 2.9 C 4.9 g/m*3 0.64 C 8.1 km/h
1171 03-04-2020 01:30:00 3 C 4.93 g/m*3 0.76 C 8.1 km/h
1172 03-04-2020 01:35:00 3.1 C 4.97 g/m*3 0.87 C 8.1 km/h
1173 03-04-2020 01:40:00 3.2 C 4.94 g/m*3 0.58 C 9.7 km/h
1174 03-04-2020 01:45:00 3.1 C 4.91 g/m*3 3.1 C 3.2 km/h
1175 03-04-2020 01:50:00 3 C 4.88 g/m*3 0.76 C 8.1 km/h
Sensor: Nr:Datum:Temp:Abs-Feuchte:Windchill:Wind:
Aussen-T/F 1176 03-04-2020 01:55:00 2.9 C 4.84 g/m*3 2.9 C 4.8 km/h
1177 03-04-2020 02:00:00 2.9 C 4.9 g/m*3 2.9 C 1.6 km/h
1178 03-04-2020 02:05:00 2.8 C 4.87 g/m*3 2.8 C 1.6 km/h
1179 03-04-2020 02:10:00 2.8 C 4.87 g/m*3 2.8 C 1.6 km/h
1180 03-04-2020 02:15:00 2.8 C 4.87 g/m*3 1.05 C 6.4 km/h
1181 03-04-2020 02:20:00 2.9 C 4.96 g/m*3 2.9 C 4.8 km/h
1182 03-04-2020 02:25:00 3.1 C 4.97 g/m*3 3.1 C 4.8 km/h
1183 03-04-2020 02:30:00 3.2 C 5 g/m*3 3.2 C 4.8 km/h
1184 03-04-2020 02:35:00 3.3 C 5.04 g/m*3 3.3 C 1.6 km/h
1185 03-04-2020 02:40:00 3.4 C 5.01 g/m*3 3.4 C 3.2 km/h
1186 03-04-2020 02:45:00 3.3 C 4.97 g/m*3 3.3 C 0 km/h
1187 03-04-2020 02:50:00 3.3 C 4.97 g/m*3 3.3 C 1.6 km/h
1188 03-04-2020 02:55:00 3.4 C 5.01 g/m*3 3.4 C 3.2 km/h
1189 03-04-2020 03:00:00 3.4 C 5.07 g/m*3 3.4 C 0 km/h
1190 03-04-2020 03:05:00 3.6 C 5.14 g/m*3 3.6 C 1.6 km/h
1191 03-04-2020 03:10:00 3.7 C 5.17 g/m*3 3.7 C 1.6 km/h
1192 03-04-2020 03:15:00 3.8 C 5.14 g/m*3 3.8 C 1.6 km/h
1193 03-04-2020 03:20:00 3.9 C 5.18 g/m*3 3.9 C 0 km/h
1194 03-04-2020 03:25:00 4.1 C 5.25 g/m*3 4.1 C 4.8 km/h
1195 03-04-2020 03:30:00 4.2 C 5.28 g/m*3 4.2 C 1.6 km/h
1196 03-04-2020 03:35:00 4.4 C 5.29 g/m*3 2.9 C 6.4 km/h
1197 03-04-2020 03:40:00 4.7 C 5.26 g/m*3 2.76 C 8.1 km/h
1198 03-04-2020 03:45:00 4.8 C 5.3 g/m*3 3.36 C 6.4 km/h
1199 03-04-2020 03:50:00 4.9 C 5.33 g/m*3 3.48 C 6.4 km/h
1200 03-04-2020 03:55:00 4.9 C 5.33 g/m*3 4.9 C 3.2 km/h
Sensor: Nr:Datum:Temp:Abs-Feuchte:Windchill:Wind:
Aussen-T/F 1201 03-04-2020 04:00:00 4.9 C 5.33 g/m*3 4.9 C 4.8 km/h
1202 03-04-2020 04:05:00 5.1 C 5.4 g/m*3 3.71 C 6.4 km/h
1203 03-04-2020 04:10:00 5.3 C 5.41 g/m*3 5.3 C 3.2 km/h
1204 03-04-2020 04:15:00 5.4 C 5.37 g/m*3 3.2 C 9.7 km/h
1205 03-04-2020 04:20:00 5.4 C 5.3 g/m*3 3.58 C 8.1 km/h
1206 03-04-2020 04:25:00 5.4 C 5.3 g/m*3 5.4 C 1.6 km/h
1207 03-04-2020 04:30:00 5.4 C 5.3 g/m*3 5.4 C 1.6 km/h
1208 03-04-2020 04:35:00 5.4 C 5.37 g/m*3 5.4 C 0 km/h
1209 03-04-2020 04:40:00 5.4 C 5.44 g/m*3 5.4 C 0 km/h
1210 03-04-2020 04:45:00 5.3 C 5.41 g/m*3 5.3 C 0 km/h
1211 03-04-2020 04:50:00 5.2 C 5.37 g/m*3 5.2 C 0 km/h
1212 03-04-2020 04:55:00 5.2 C 5.44 g/m*3 5.2 C 0 km/h
1213 03-04-2020 05:00:00 5.1 C 5.4 g/m*3 5.1 C 0 km/h
1214 03-04-2020 05:05:00 5.1 C 5.4 g/m*3 5.1 C 0 km/h
1215 03-04-2020 05:10:00 5.1 C 5.4 g/m*3 5.1 C 1.6 km/h
1216 03-04-2020 05:15:00 5.2 C 5.44 g/m*3 5.2 C 0 km/h
1217 03-04-2020 05:20:00 5.2 C 5.44 g/m*3 5.2 C 3.2 km/h
1218 03-04-2020 05:25:00 5.3 C 5.48 g/m*3 5.3 C 1.6 km/h
1219 03-04-2020 05:30:00 5.3 C 5.48 g/m*3 5.3 C 0 km/h
1220 03-04-2020 05:35:00 5.3 C 5.41 g/m*3 5.3 C 1.6 km/h
1221 03-04-2020 05:40:00 5.4 C 5.44 g/m*3 4.06 C 6.4 km/h
1222 03-04-2020 05:45:00 5.5 C 5.48 g/m*3 5.5 C 1.6 km/h
1223 03-04-2020 05:50:00 5.6 C 5.51 g/m*3 4.29 C 6.4 km/h
1224 03-04-2020 05:55:00 5.6 C 5.59 g/m*3 5.6 C 4.8 km/h
1225 03-04-2020 06:00:00 5.7 C 5.55 g/m*3 4.4 C 6.4 km/h
Sensor: Nr:Datum:Temp:Abs-Feuchte:Windchill:Wind:
Aussen-T/F 1226 03-04-2020 06:05:00 5.7 C 5.48 g/m*3 4.4 C 6.4 km/h
1227 03-04-2020 06:10:00 5.8 C 5.59 g/m*3 5.8 C 4.8 km/h
1228 03-04-2020 06:15:00 5.7 C 5.55 g/m*3 5.7 C 3.2 km/h
1229 03-04-2020 06:20:00 5.7 C 5.55 g/m*3 5.7 C 3.2 km/h
1230 03-04-2020 06:25:00 5.7 C 5.55 g/m*3 5.7 C 4.8 km/h
1231 03-04-2020 06:30:00 5.7 C 5.55 g/m*3 5.7 C 3.2 km/h
1232 03-04-2020 06:35:00 5.7 C 5.62 g/m*3 5.7 C 0 km/h
1233 03-04-2020 06:40:00 5.6 C 5.59 g/m*3 5.6 C 3.2 km/h
1234 03-04-2020 06:45:00 5.6 C 5.59 g/m*3 5.6 C 0 km/h
1235 03-04-2020 06:50:00 5.6 C 5.59 g/m*3 4.29 C 6.4 km/h
1236 03-04-2020 06:55:00 5.7 C 5.55 g/m*3 3.56 C 9.7 km/h
1237 03-04-2020 07:00:00 5.8 C 5.59 g/m*3 4.05 C 8.1 km/h
1238 03-04-2020 07:05:00 6 C 5.59 g/m*3 3.92 C 9.7 km/h
1239 03-04-2020 07:10:00 6 C 5.59 g/m*3 4.28 C 8.1 km/h
1240 03-04-2020 07:15:00 6.1 C 5.55 g/m*3 3.43 C 12.9 km/h
1241 03-04-2020 07:20:00 6.1 C 5.55 g/m*3 3.72 C 11.3 km/h
1242 03-04-2020 07:25:00 6.1 C 5.55 g/m*3 4.86 C 6.4 km/h
1243 03-04-2020 07:30:00 6.1 C 5.63 g/m*3 4.4 C 8.1 km/h
1244 03-04-2020 07:35:00 6.1 C 5.63 g/m*3 4.86 C 6.4 km/h
1245 03-04-2020 07:40:00 6.1 C 5.63 g/m*3 4.86 C 6.4 km/h
1246 03-04-2020 07:45:00 6.1 C 5.63 g/m*3 6.1 C 4.8 km/h
1247 03-04-2020 07:50:00 6.1 C 5.7 g/m*3 6.1 C 4.8 km/h
1248 03-04-2020 07:55:00 6.1 C 5.7 g/m*3 6.1 C 1.6 km/h
1249 03-04-2020 08:00:00 6.1 C 5.7 g/m*3 4.4 C 8.1 km/h
1250 03-04-2020 08:05:00 6.2 C 5.66 g/m*3 4.52 C 8.1 km/h
Sensor: Nr:Datum:Temp:Abs-Feuchte:Windchill:Wind:
Aussen-T/F 1251 03-04-2020 08:10:00 6.2 C 5.66 g/m*3 4.15 C 9.7 km/h
1252 03-04-2020 08:15:00 6.3 C 5.7 g/m*3 4.27 C 9.7 km/h
1253 03-04-2020 08:20:00 6.3 C 5.7 g/m*3 3.96 C 11.3 km/h
1254 03-04-2020 08:25:00 6.3 C 5.7 g/m*3 4.27 C 9.7 km/h
1255 03-04-2020 08:30:00 6.4 C 5.74 g/m*3 4.75 C 8.1 km/h
1256 03-04-2020 08:35:00 6.4 C 5.74 g/m*3 4.08 C 11.3 km/h
1257 03-04-2020 08:40:00 6.4 C 5.74 g/m*3 3.8 C 12.9 km/h
1258 03-04-2020 08:45:00 6.6 C 5.81 g/m*3 4.63 C 9.7 km/h
1259 03-04-2020 08:50:00 6.7 C 5.85 g/m*3 4.75 C 9.7 km/h
1260 03-04-2020 08:55:00 6.8 C 5.89 g/m*3 4.87 C 9.7 km/h
1261 03-04-2020 09:00:00 7 C 5.97 g/m*3 5.46 C 8.1 km/h
1262 03-04-2020 09:05:00 7.1 C 5.93 g/m*3 5.23 C 9.7 km/h
1263 03-04-2020 09:10:00 7.2 C 5.97 g/m*3 5.35 C 9.7 km/h
1264 03-04-2020 09:15:00 7.3 C 6 g/m*3 5.81 C 8.1 km/h
1265 03-04-2020 09:20:00 7.4 C 6.04 g/m*3 6.37 C 6.4 km/h
1266 03-04-2020 09:25:00 7.6 C 6.12 g/m*3 5.82 C 9.7 km/h
1267 03-04-2020 09:30:00 7.7 C 6.16 g/m*3 6.28 C 8.1 km/h
1268 03-04-2020 09:35:00 7.8 C 6.12 g/m*3 5.77 C 11.3 km/h
1269 03-04-2020 09:40:00 7.8 C 6.12 g/m*3 6.83 C 6.4 km/h
1270 03-04-2020 09:45:00 8 C 6.2 g/m*3 8 C 4.8 km/h
1271 03-04-2020 09:50:00 8.1 C 6.24 g/m*3 7.17 C 6.4 km/h
1272 03-04-2020 09:55:00 8.2 C 6.2 g/m*3 7.29 C 6.4 km/h
1273 03-04-2020 10:00:00 8.3 C 6.32 g/m*3 6.99 C 8.1 km/h
1274 03-04-2020 10:05:00 8.5 C 6.4 g/m*3 7.22 C 8.1 km/h
1275 03-04-2020 10:10:00 8.7 C 6.4 g/m*3 7.87 C 6.4 km/h
Sensor: Nr:Datum:Temp:Abs-Feuchte:Windchill:Wind:
Aussen-T/F 1276 03-04-2020 10:15:00 8.8 C 6.44 g/m*3 7.58 C 8.1 km/h
1277 03-04-2020 10:20:00 8.9 C 6.48 g/m*3 7.69 C 8.1 km/h
1278 03-04-2020 10:25:00 9.1 C 6.48 g/m*3 7.93 C 8.1 km/h
1279 03-04-2020 10:30:00 9.2 C 6.52 g/m*3 7.73 C 9.7 km/h
1280 03-04-2020 10:35:00 9.2 C 6.52 g/m*3 7.46 C 11.3 km/h
1281 03-04-2020 10:40:00 9.3 C 6.56 g/m*3 8.16 C 8.1 km/h
1282 03-04-2020 10:45:00 9.4 C 6.6 g/m*3 7.97 C 9.7 km/h
1283 03-04-2020 10:50:00 9.6 C 6.6 g/m*3 7.94 C 11.3 km/h
1284 03-04-2020 10:55:00 9.8 C 6.68 g/m*3 7.94 C 12.9 km/h
1285 03-04-2020 11:00:00 9.9 C 6.72 g/m*3 8.56 C 9.7 km/h
1286 03-04-2020 11:05:00 10.3 C 6.8 g/m*3 9.04 C 9.7 km/h
1287 03-04-2020 11:10:00 10.6 C 6.73 g/m*3 9.4 C 9.7 km/h
1288 03-04-2020 11:15:00 10.8 C 6.82 g/m*3 9.64 C 9.7 km/h
1289 03-04-2020 11:20:00 10.9 C 6.76 g/m*3 9.51 C 11.3 km/h
1290 03-04-2020 11:25:00 10.9 C 6.66 g/m*3 9.51 C 11.3 km/h
1291 03-04-2020 11:30:00 10.8 C 6.52 g/m*3 10.29 C 6.4 km/h
1292 03-04-2020 11:35:00 10.9 C 6.47 g/m*3 10.04 C 8.1 km/h
1293 03-04-2020 11:40:00 11.2 C 6.49 g/m*3 11.2 C 14.5 km/h
1294 03-04-2020 11:45:00 11.3 C 6.43 g/m*3 11.3 C 14.5 km/h
1295 03-04-2020 11:50:00 11.3 C 6.43 g/m*3 11.3 C 12.9 km/h
1296 03-04-2020 11:55:00 11.3 C 6.43 g/m*3 11.3 C 16.1 km/h
1297 03-04-2020 12:00:00 11.2 C 6.39 g/m*3 11.2 C 19.3 km/h
1298 03-04-2020 12:05:00 11.2 C 6.49 g/m*3 11.2 C 11.3 km/h
1299 03-04-2020 12:10:00 11.2 C 6.39 g/m*3 11.2 C 9.7 km/h
1300 03-04-2020 12:15:00 11.2 C 6.39 g/m*3 11.2 C 9.7 km/h
Sensor: Nr:Datum:Temp:Abs-Feuchte:Windchill:Wind:
Aussen-T/F 1301 03-04-2020 12:20:00 11.3 C 6.43 g/m*3 11.3 C 9.7 km/h
1302 03-04-2020 12:25:00 11.5 C 6.3 g/m*3 11.5 C 12.9 km/h
1303 03-04-2020 12:30:00 11.7 C 6.38 g/m*3 11.7 C 8.1 km/h
1304 03-04-2020 12:35:00 11.6 C 6.13 g/m*3 11.6 C 12.9 km/h
1305 03-04-2020 12:40:00 11.5 C 6.09 g/m*3 11.5 C 12.9 km/h
1306 03-04-2020 12:45:00 11.3 C 6.22 g/m*3 11.3 C 12.9 km/h
1307 03-04-2020 12:50:00 11.3 C 6.12 g/m*3 11.3 C 11.3 km/h
1308 03-04-2020 12:55:00 11.2 C 6.18 g/m*3 11.2 C 11.3 km/h
1309 03-04-2020 13:00:00 11.2 C 6.28 g/m*3 11.2 C 9.7 km/h
1310 03-04-2020 13:05:00 11.3 C 6.43 g/m*3 11.3 C 11.3 km/h
1311 03-04-2020 13:10:00 11.4 C 6.36 g/m*3 11.4 C 9.7 km/h
1312 03-04-2020 13:15:00 11.5 C 6.3 g/m*3 11.5 C 12.9 km/h
1313 03-04-2020 13:20:00 11.6 C 6.13 g/m*3 11.6 C 11.3 km/h
1314 03-04-2020 13:25:00 11.7 C 6.17 g/m*3 11.7 C 11.3 km/h
1315 03-04-2020 13:30:00 11.7 C 5.96 g/m*3 11.7 C 12.9 km/h
1316 03-04-2020 13:35:00 11.6 C 6.03 g/m*3 11.6 C 12.9 km/h
1317 03-04-2020 13:40:00 11.6 C 6.03 g/m*3 11.6 C 16.1 km/h
1318 03-04-2020 13:45:00 11.7 C 6.28 g/m*3 11.7 C 8.1 km/h
1319 03-04-2020 13:50:00 11.8 C 6.31 g/m*3 11.8 C 9.7 km/h
1320 03-04-2020 13:55:00 11.8 C 6.1 g/m*3 11.8 C 11.3 km/h
1321 03-04-2020 14:00:00 11.8 C 5.89 g/m*3 11.8 C 11.3 km/h
1322 03-04-2020 14:05:00 11.8 C 5.89 g/m*3 11.8 C 12.9 km/h
1323 03-04-2020 14:10:00 11.7 C 5.86 g/m*3 11.7 C 11.3 km/h
1324 03-04-2020 14:15:00 11.7 C 5.86 g/m*3 11.7 C 12.9 km/h
1325 03-04-2020 14:20:00 11.6 C 5.82 g/m*3 11.6 C 12.9 km/h
Sensor: Nr:Datum:Temp:Abs-Feuchte:Windchill:Wind:
Aussen-T/F 1326 03-04-2020 14:25:00 11.6 C 5.92 g/m*3 11.6 C 8.1 km/h
1327 03-04-2020 14:30:00 11.7 C 6.38 g/m*3 11.7 C 6.4 km/h
1328 03-04-2020 14:35:00 11.6 C 6.44 g/m*3 11.6 C 8.1 km/h
1329 03-04-2020 14:40:00 11.6 C 6.24 g/m*3 11.6 C 12.9 km/h
1330 03-04-2020 14:45:00 11.6 C 6.13 g/m*3 11.6 C 9.7 km/h
1331 03-04-2020 14:50:00 11.6 C 5.92 g/m*3 11.6 C 8.1 km/h
1332 03-04-2020 14:55:00 11.7 C 5.86 g/m*3 11.7 C 12.9 km/h
1333 03-04-2020 15:00:00 11.7 C 5.75 g/m*3 11.7 C 11.3 km/h
1334 03-04-2020 15:05:00 11.8 C 5.79 g/m*3 11.8 C 12.9 km/h
1335 03-04-2020 15:10:00 11.8 C 5.79 g/m*3 11.8 C 14.5 km/h
1336 03-04-2020 15:15:00 11.7 C 5.75 g/m*3 11.7 C 12.9 km/h
1337 03-04-2020 15:20:00 11.7 C 5.65 g/m*3 11.7 C 11.3 km/h
1338 03-04-2020 15:25:00 11.7 C 5.86 g/m*3 11.7 C 9.7 km/h
1339 03-04-2020 15:30:00 11.7 C 6.07 g/m*3 11.7 C 9.7 km/h
1340 03-04-2020 15:35:00 11.7 C 6.07 g/m*3 11.7 C 8.1 km/h
1341 03-04-2020 15:40:00 11.7 C 6.07 g/m*3 11.7 C 8.1 km/h
1342 03-04-2020 15:45:00 11.8 C 6 g/m*3 11.8 C 11.3 km/h
1343 03-04-2020 15:50:00 11.8 C 6.1 g/m*3 11.8 C 11.3 km/h
1344 03-04-2020 15:55:00 11.9 C 5.72 g/m*3 11.9 C 11.3 km/h
1345 03-04-2020 16:00:00 12.1 C 5.79 g/m*3 12.1 C 11.3 km/h
1346 03-04-2020 16:05:00 12.2 C 5.61 g/m*3 12.2 C 11.3 km/h
1347 03-04-2020 16:10:00 12.2 C 5.5 g/m*3 12.2 C 9.7 km/h
1348 03-04-2020 16:15:00 12.3 C 5.43 g/m*3 12.3 C 11.3 km/h
1349 03-04-2020 16:20:00 12.3 C 5.43 g/m*3 12.3 C 12.9 km/h
1350 03-04-2020 16:25:00 12.2 C 5.4 g/m*3 12.2 C 14.5 km/h
Sensor: Nr:Datum:Temp:Abs-Feuchte:Windchill:Wind:
Aussen-T/F 1351 03-04-2020 16:30:00 12.2 C 5.5 g/m*3 12.2 C 14.5 km/h
1352 03-04-2020 16:35:00 12.3 C 5.32 g/m*3 12.3 C 12.9 km/h
1353 03-04-2020 16:40:00 12.3 C 5.43 g/m*3 12.3 C 11.3 km/h
1354 03-04-2020 16:45:00 12.3 C 5.32 g/m*3 12.3 C 16.1 km/h
1355 03-04-2020 16:50:00 12.3 C 5.32 g/m*3 12.3 C 9.7 km/h
1356 03-04-2020 16:55:00 12.3 C 5.21 g/m*3 12.3 C 17.7 km/h
1357 03-04-2020 17:00:00 12.1 C 5.15 g/m*3 12.1 C 16.1 km/h
1358 03-04-2020 17:05:00 12.1 C 5.36 g/m*3 12.1 C 11.3 km/h
1359 03-04-2020 17:10:00 12.1 C 5.36 g/m*3 12.1 C 11.3 km/h
1360 03-04-2020 17:15:00 12.1 C 5.25 g/m*3 12.1 C 14.5 km/h
1361 03-04-2020 17:20:00 12.1 C 5.25 g/m*3 12.1 C 14.5 km/h
1362 03-04-2020 17:25:00 12.2 C 5.29 g/m*3 12.2 C 9.7 km/h
1363 03-04-2020 17:30:00 12.2 C 5.4 g/m*3 12.2 C 9.7 km/h
1364 03-04-2020 17:35:00 12.2 C 5.29 g/m*3 12.2 C 16.1 km/h
1365 03-04-2020 17:40:00 12.3 C 5.21 g/m*3 12.3 C 9.7 km/h
1366 03-04-2020 17:45:00 12.2 C 5.29 g/m*3 12.2 C 11.3 km/h
1367 03-04-2020 17:50:00 12.1 C 5.36 g/m*3 12.1 C 14.5 km/h
1368 03-04-2020 17:55:00 11.9 C 5.3 g/m*3 11.9 C 12.9 km/h
1369 03-04-2020 18:00:00 11.8 C 5.26 g/m*3 11.8 C 14.5 km/h
1370 03-04-2020 18:05:00 11.7 C 5.33 g/m*3 11.7 C 16.1 km/h
1371 03-04-2020 18:10:00 11.7 C 5.33 g/m*3 11.7 C 8.1 km/h
1372 03-04-2020 18:15:00 11.7 C 5.44 g/m*3 11.7 C 9.7 km/h
1373 03-04-2020 18:20:00 11.7 C 5.44 g/m*3 11.7 C 12.9 km/h
1374 03-04-2020 18:25:00 11.6 C 5.51 g/m*3 11.6 C 16.1 km/h
1375 03-04-2020 18:30:00 11.5 C 5.37 g/m*3 11.5 C 9.7 km/h
Sensor: Nr:Datum:Temp:Abs-Feuchte:Windchill:Wind:
Aussen-T/F 1376 03-04-2020 18:35:00 11.4 C 5.44 g/m*3 11.4 C 9.7 km/h
1377 03-04-2020 18:40:00 11.4 C 5.34 g/m*3 11.4 C 8.1 km/h
1378 03-04-2020 18:45:00 11.3 C 5.41 g/m*3 11.3 C 9.7 km/h
1379 03-04-2020 18:50:00 11.2 C 5.47 g/m*3 11.2 C 12.9 km/h
1380 03-04-2020 18:55:00 11.2 C 5.47 g/m*3 11.2 C 11.3 km/h
1381 03-04-2020 19:00:00 11.2 C 5.57 g/m*3 11.2 C 9.7 km/h
1382 03-04-2020 19:05:00 11.1 C 5.64 g/m*3 11.1 C 6.4 km/h
1383 03-04-2020 19:10:00 11 C 5.61 g/m*3 9.88 C 9.7 km/h
1384 03-04-2020 19:15:00 10.9 C 5.57 g/m*3 9.51 C 11.3 km/h
1385 03-04-2020 19:20:00 10.8 C 5.63 g/m*3 9.38 C 11.3 km/h
1386 03-04-2020 19:25:00 10.8 C 5.44 g/m*3 9.93 C 8.1 km/h
1387 03-04-2020 19:30:00 10.7 C 5.4 g/m*3 9.52 C 9.7 km/h
1388 03-04-2020 19:35:00 10.6 C 5.27 g/m*3 8.92 C 12.9 km/h
1389 03-04-2020 19:40:00 10.6 C 5.37 g/m*3 9.4 C 9.7 km/h
1390 03-04-2020 19:45:00 10.4 C 5.3 g/m*3 9.16 C 9.7 km/h
1391 03-04-2020 19:50:00 10.4 C 5.3 g/m*3 9.16 C 9.7 km/h
1392 03-04-2020 19:55:00 10.3 C 5.36 g/m*3 9.34 C 8.1 km/h
1393 03-04-2020 20:00:00 10.3 C 5.36 g/m*3 9.04 C 9.7 km/h
1394 03-04-2020 20:05:00 10.2 C 5.42 g/m*3 10.2 C 3.2 km/h
1395 03-04-2020 20:10:00 10.1 C 5.39 g/m*3 9.1 C 8.1 km/h
1396 03-04-2020 20:15:00 9.9 C 5.32 g/m*3 9.25 C 6.4 km/h
1397 03-04-2020 20:20:00 9.9 C 5.32 g/m*3 9.9 C 4.8 km/h
1398 03-04-2020 20:25:00 9.8 C 5.2 g/m*3 7.94 C 12.9 km/h
1399 03-04-2020 20:30:00 9.8 C 5.1 g/m*3 7.94 C 12.9 km/h
1400 03-04-2020 20:35:00 9.8 C 5.2 g/m*3 9.14 C 6.4 km/h
Sensor: Nr:Datum:Temp:Abs-Feuchte:Windchill:Wind:
Aussen-T/F 1401 03-04-2020 20:40:00 9.8 C 5.2 g/m*3 9.8 C 4.8 km/h
1402 03-04-2020 20:45:00 9.7 C 5.16 g/m*3 9.7 C 4.8 km/h
1403 03-04-2020 20:50:00 9.7 C 4.98 g/m*3 9.7 C 3.2 km/h
1404 03-04-2020 20:55:00 9.6 C 5.13 g/m*3 9.6 C 4.8 km/h
1405 03-04-2020 21:00:00 9.6 C 5.04 g/m*3 8.91 C 6.4 km/h
1406 03-04-2020 21:05:00 9.5 C 4.82 g/m*3 7.82 C 11.3 km/h
1407 03-04-2020 21:10:00 9.5 C 4.82 g/m*3 8.4 C 8.1 km/h
1408 03-04-2020 21:15:00 9.5 C 4.82 g/m*3 9.5 C 4.8 km/h
1409 03-04-2020 21:20:00 9.4 C 4.88 g/m*3 8.68 C 6.4 km/h
1410 03-04-2020 21:25:00 9.4 C 4.97 g/m*3 9.4 C 0 km/h
1411 03-04-2020 21:30:00 9.2 C 5.09 g/m*3 9.2 C 1.6 km/h
1412 03-04-2020 21:35:00 9.1 C 4.88 g/m*3 8.33 C 6.4 km/h
1413 03-04-2020 21:40:00 9 C 4.94 g/m*3 9 C 3.2 km/h
1414 03-04-2020 21:45:00 8.9 C 5.08 g/m*3 8.9 C 3.2 km/h
1415 03-04-2020 21:50:00 8.8 C 5.05 g/m*3 8.8 C 3.2 km/h
1416 03-04-2020 21:55:00 8.8 C 4.96 g/m*3 8.8 C 3.2 km/h
1417 03-04-2020 22:00:00 8.7 C 5.02 g/m*3 8.7 C 4.8 km/h
1418 03-04-2020 22:05:00 8.6 C 4.9 g/m*3 8.6 C 1.6 km/h
1419 03-04-2020 22:10:00 8.6 C 5.07 g/m*3 8.6 C 3.2 km/h
1420 03-04-2020 22:15:00 8.5 C 5.04 g/m*3 8.5 C 3.2 km/h
1421 03-04-2020 22:20:00 8.4 C 5.09 g/m*3 8.4 C 4.8 km/h
1422 03-04-2020 22:25:00 8.2 C 5.11 g/m*3 8.2 C 4.8 km/h
1423 03-04-2020 22:30:00 7.9 C 5.01 g/m*3 7.9 C 3.2 km/h
1424 03-04-2020 22:35:00 7.7 C 5.03 g/m*3 7.7 C 4.8 km/h
1425 03-04-2020 22:40:00 7.5 C 5.04 g/m*3 7.5 C 3.2 km/h
Sensor: Nr:Datum:Temp:Abs-Feuchte:Windchill:Wind:
Aussen-T/F 1426 03-04-2020 22:45:00 7.3 C 5.06 g/m*3 7.3 C 4.8 km/h
1427 03-04-2020 22:50:00 7.1 C 4.99 g/m*3 7.1 C 4.8 km/h
1428 03-04-2020 22:55:00 7.1 C 4.91 g/m*3 7.1 C 4.8 km/h
1429 03-04-2020 23:00:00 7 C 4.88 g/m*3 7 C 4.8 km/h
1430 03-04-2020 23:05:00 7 C 4.88 g/m*3 7 C 3.2 km/h
1431 03-04-2020 23:10:00 7.2 C 4.87 g/m*3 7.2 C 4.8 km/h
1432 03-04-2020 23:15:00 7.4 C 4.85 g/m*3 7.4 C 4.8 km/h
1433 03-04-2020 23:20:00 7.6 C 4.99 g/m*3 7.6 C 0 km/h
1434 03-04-2020 23:25:00 7.4 C 4.93 g/m*3 7.4 C 1.6 km/h
1435 03-04-2020 23:30:00 7 C 4.88 g/m*3 7 C 0 km/h
1436 03-04-2020 23:35:00 6.6 C 4.91 g/m*3 6.6 C 4.8 km/h
1437 03-04-2020 23:40:00 6.4 C 4.84 g/m*3 6.4 C 1.6 km/h
1438 03-04-2020 23:45:00 6.2 C 4.85 g/m*3 6.2 C 0 km/h
1439 03-04-2020 23:50:00 6 C 4.86 g/m*3 6 C 3.2 km/h
1440 03-04-2020 23:55:00 5.8 C 4.8 g/m*3 5.8 C 3.2 km/h
1441 04-04-2020 00:00:00 5.7 C 4.84 g/m*3 5.7 C 3.2 km/h
1442 04-04-2020 00:05:00 5.7 C 4.84 g/m*3 5.7 C 3.2 km/h
1443 04-04-2020 00:10:00 5.7 C 4.84 g/m*3 5.7 C 1.6 km/h
1444 04-04-2020 00:15:00 5.7 C 4.77 g/m*3 5.7 C 0 km/h
1445 04-04-2020 00:20:00 5.7 C 4.77 g/m*3 5.7 C 4.8 km/h
1446 04-04-2020 00:25:00 5.8 C 4.73 g/m*3 5.8 C 4.8 km/h
1447 04-04-2020 00:30:00 5.8 C 4.73 g/m*3 5.8 C 4.8 km/h
1448 04-04-2020 00:35:00 5.8 C 4.73 g/m*3 5.8 C 3.2 km/h
1449 04-04-2020 00:40:00 5.7 C 4.7 g/m*3 5.7 C 0 km/h
1450 04-04-2020 00:45:00 5.6 C 4.74 g/m*3 5.6 C 3.2 km/h
Sensor: Nr:Datum:Temp:Abs-Feuchte:Windchill:Wind:
Aussen-T/F 1451 04-04-2020 00:50:00 5.4 C 4.74 g/m*3 5.4 C 4.8 km/h
1452 04-04-2020 00:55:00 5.2 C 4.68 g/m*3 5.2 C 1.6 km/h
1453 04-04-2020 01:00:00 5.1 C 4.72 g/m*3 3.71 C 6.4 km/h
1454 04-04-2020 01:05:00 5.1 C 4.72 g/m*3 3.71 C 6.4 km/h
1455 04-04-2020 01:10:00 5.1 C 4.72 g/m*3 5.1 C 3.2 km/h
1456 04-04-2020 01:15:00 5 C 4.69 g/m*3 5 C 3.2 km/h
1457 04-04-2020 01:20:00 4.9 C 4.66 g/m*3 4.9 C 1.6 km/h
1458 04-04-2020 01:25:00 4.9 C 4.73 g/m*3 4.9 C 1.6 km/h
1459 04-04-2020 01:30:00 4.8 C 4.76 g/m*3 4.8 C 4.8 km/h
1460 04-04-2020 01:35:00 4.7 C 4.8 g/m*3 4.7 C 3.2 km/h
1461 04-04-2020 01:40:00 4.5 C 4.8 g/m*3 4.5 C 3.2 km/h
1462 04-04-2020 01:45:00 4.3 C 4.74 g/m*3 4.3 C 3.2 km/h
1463 04-04-2020 01:50:00 4.1 C 4.74 g/m*3 4.1 C 0 km/h
1464 04-04-2020 01:55:00 3.8 C 4.71 g/m*3 3.8 C 1.6 km/h
1465 04-04-2020 02:00:00 3.6 C 4.7 g/m*3 3.6 C 0 km/h
1466 04-04-2020 02:05:00 3.3 C 4.67 g/m*3 3.3 C 0 km/h
1467 04-04-2020 02:10:00 3 C 4.64 g/m*3 3 C 0 km/h
1468 04-04-2020 02:15:00 2.8 C 4.58 g/m*3 2.8 C 0 km/h
1469 04-04-2020 02:20:00 2.6 C 4.57 g/m*3 2.6 C 0 km/h
1470 04-04-2020 02:25:00 2.5 C 4.6 g/m*3 2.5 C 0 km/h
1471 04-04-2020 02:30:00 2.3 C 4.54 g/m*3 2.3 C 0 km/h
1472 04-04-2020 02:35:00 2.2 C 4.56 g/m*3 2.2 C 1.6 km/h
1473 04-04-2020 02:40:00 2.1 C 4.53 g/m*3 2.1 C 0 km/h
1474 04-04-2020 02:45:00 1.9 C 4.53 g/m*3 1.9 C 0 km/h
1475 04-04-2020 02:50:00 1.9 C 4.58 g/m*3 1.9 C 0 km/h
Sensor: Nr:Datum:Temp:Abs-Feuchte:Windchill:Wind:
Aussen-T/F 1476 04-04-2020 02:55:00 1.9 C 4.58 g/m*3 1.9 C 0 km/h
1477 04-04-2020 03:00:00 1.8 C 4.55 g/m*3 1.8 C 0 km/h
1478 04-04-2020 03:05:00 1.7 C 4.52 g/m*3 1.7 C 0 km/h
1479 04-04-2020 03:10:00 1.7 C 4.52 g/m*3 1.7 C 0 km/h
1480 04-04-2020 03:15:00 1.5 C 4.46 g/m*3 1.5 C 0 km/h
1481 04-04-2020 03:20:00 1.4 C 4.48 g/m*3 1.4 C 0 km/h
1482 04-04-2020 03:25:00 1.3 C 4.5 g/m*3 1.3 C 3.2 km/h
1483 04-04-2020 03:30:00 1.3 C 4.5 g/m*3 1.3 C 3.2 km/h
1484 04-04-2020 03:35:00 1.4 C 4.59 g/m*3 1.4 C 3.2 km/h
1485 04-04-2020 03:40:00 1.4 C 4.59 g/m*3 1.4 C 0 km/h
1486 04-04-2020 03:45:00 1.3 C 4.5 g/m*3 1.3 C 0 km/h
1487 04-04-2020 03:50:00 1.2 C 4.47 g/m*3 1.2 C 0 km/h
1488 04-04-2020 03:55:00 1 C 4.41 g/m*3 1 C 0 km/h
1489 04-04-2020 04:00:00 0.9 C 4.38 g/m*3 0.9 C 0 km/h
1490 04-04-2020 04:05:00 0.8 C 4.4 g/m*3 0.8 C 0 km/h
1491 04-04-2020 04:10:00 0.7 C 4.37 g/m*3 0.7 C 0 km/h
1492 04-04-2020 04:15:00 0.6 C 4.34 g/m*3 0.6 C 0 km/h
1493 04-04-2020 04:20:00 0.5 C 4.36 g/m*3 0.5 C 0 km/h
1494 04-04-2020 04:25:00 0.4 C 4.33 g/m*3 0.4 C 0 km/h
1495 04-04-2020 04:30:00 0.4 C 4.33 g/m*3 0.4 C 0 km/h
1496 04-04-2020 04:35:00 0.3 C 4.3 g/m*3 0.3 C 1.6 km/h
1497 04-04-2020 04:40:00 0.3 C 4.35 g/m*3 0.3 C 0 km/h
1498 04-04-2020 04:45:00 0.3 C 4.35 g/m*3 0.3 C 0 km/h
1499 04-04-2020 04:50:00 0.2 C 4.27 g/m*3 0.2 C 0 km/h
1500 04-04-2020 04:55:00 0.2 C 4.32 g/m*3 0.2 C 0 km/h
Sensor: Nr:Datum:Temp:Abs-Feuchte:Windchill:Wind:
Aussen-T/F 1501 04-04-2020 05:00:00 0.2 C 4.32 g/m*3 0.2 C 1.6 km/h
1502 04-04-2020 05:05:00 0.2 C 4.32 g/m*3 0.2 C 0 km/h
1503 04-04-2020 05:10:00 0.1 C 4.29 g/m*3 0.1 C 0 km/h
1504 04-04-2020 05:15:00 0.1 C 4.29 g/m*3 0.1 C 0 km/h
1505 04-04-2020 05:20:00 -0.1 C 4.23 g/m*3 -0.1 C 0 km/h
1506 04-04-2020 05:25:00 -0.1 C 4.28 g/m*3 -0.1 C 0 km/h
1507 04-04-2020 05:30:00 -0.1 C 4.28 g/m*3 -0.1 C 0 km/h
1508 04-04-2020 05:35:00 -0.1 C 4.28 g/m*3 -0.1 C 0 km/h
1509 04-04-2020 05:40:00 -0.2 C 4.25 g/m*3 -0.2 C 1.6 km/h
1510 04-04-2020 05:45:00 -0.2 C 4.25 g/m*3 -0.2 C 0 km/h
1511 04-04-2020 05:50:00 -0.2 C 4.25 g/m*3 -0.2 C 0 km/h
1512 04-04-2020 05:55:00 -0.2 C 4.25 g/m*3 -0.2 C 0 km/h
1513 04-04-2020 06:00:00 -0.2 C 4.25 g/m*3 -0.2 C 0 km/h
1514 04-04-2020 06:05:00 -0.3 C 4.22 g/m*3 -0.3 C 0 km/h
1515 04-04-2020 06:10:00 -0.4 C 4.19 g/m*3 -0.4 C 0 km/h
1516 04-04-2020 06:15:00 -0.4 C 4.19 g/m*3 -0.4 C 0 km/h
1517 04-04-2020 06:20:00 -0.4 C 4.24 g/m*3 -0.4 C 0 km/h
1518 04-04-2020 06:25:00 -0.5 C 4.17 g/m*3 -0.5 C 0 km/h
1519 04-04-2020 06:30:00 -0.4 C 4.24 g/m*3 -0.4 C 0 km/h
1520 04-04-2020 06:35:00 -0.6 C 4.14 g/m*3 -0.6 C 3.2 km/h
1521 04-04-2020 06:40:00 -0.4 C 4.24 g/m*3 -2.64 C 6.4 km/h
1522 04-04-2020 06:45:00 -0.4 C 4.24 g/m*3 -0.4 C 0 km/h
1523 04-04-2020 06:50:00 -0.4 C 4.24 g/m*3 -0.4 C 0 km/h
1524 04-04-2020 06:55:00 -0.6 C 4.18 g/m*3 -0.6 C 0 km/h
1525 04-04-2020 07:00:00 -0.6 C 4.18 g/m*3 -0.6 C 0 km/h
Sensor: Nr:Datum:Temp:Abs-Feuchte:Windchill:Wind:
Aussen-T/F 1526 04-04-2020 07:05:00 -0.7 C 4.15 g/m*3 -0.7 C 0 km/h
1527 04-04-2020 07:10:00 -0.7 C 4.15 g/m*3 -0.7 C 0 km/h
1528 04-04-2020 07:15:00 -0.7 C 4.15 g/m*3 -0.7 C 0 km/h
1529 04-04-2020 07:20:00 -0.8 C 4.13 g/m*3 -0.8 C 0 km/h
1530 04-04-2020 07:25:00 -0.8 C 4.17 g/m*3 -0.8 C 1.6 km/h
1531 04-04-2020 07:30:00 -0.8 C 4.17 g/m*3 -0.8 C 0 km/h
1532 04-04-2020 07:35:00 -0.8 C 4.17 g/m*3 -0.8 C 0 km/h
1533 04-04-2020 07:40:00 -0.8 C 4.13 g/m*3 -0.8 C 0 km/h
1534 04-04-2020 07:45:00 -0.8 C 4.13 g/m*3 -0.8 C 0 km/h
1535 04-04-2020 07:50:00 -0.8 C 4.17 g/m*3 -0.8 C 0 km/h
1536 04-04-2020 07:55:00 -0.9 C 4.14 g/m*3 -0.9 C 0 km/h
1537 04-04-2020 08:00:00 -0.9 C 4.14 g/m*3 -0.9 C 1.6 km/h
1538 04-04-2020 08:05:00 -0.9 C 4.14 g/m*3 -0.9 C 0 km/h
1539 04-04-2020 08:10:00 -0.8 C 4.17 g/m*3 -0.8 C 0 km/h
1540 04-04-2020 08:15:00 -0.8 C 4.22 g/m*3 -0.8 C 0 km/h
1541 04-04-2020 08:20:00 -0.7 C 4.25 g/m*3 -0.7 C 0 km/h
1542 04-04-2020 08:25:00 -0.6 C 4.28 g/m*3 -0.6 C 0 km/h
1543 04-04-2020 08:30:00 -0.4 C 4.34 g/m*3 -0.4 C 0 km/h
1544 04-04-2020 08:35:00 -0.3 C 4.37 g/m*3 -0.3 C 0 km/h
1545 04-04-2020 08:40:00 -0.3 C 4.37 g/m*3 -0.3 C 0 km/h
1546 04-04-2020 08:45:00 -0.2 C 4.4 g/m*3 -0.2 C 0 km/h
1547 04-04-2020 08:50:00 -0.1 C 4.43 g/m*3 -0.1 C 0 km/h
1548 04-04-2020 08:55:00 -0.1 C 4.43 g/m*3 -0.1 C 0 km/h
1549 04-04-2020 09:00:00 0 C 4.46 g/m*3 0 C 0 km/h
1550 04-04-2020 09:05:00 0.1 C 4.49 g/m*3 0.1 C 1.6 km/h
Sensor: Nr:Datum:Temp:Abs-Feuchte:Windchill:Wind:
Aussen-T/F 1551 04-04-2020 09:10:00 0.2 C 4.47 g/m*3 0.2 C 0 km/h
1552 04-04-2020 09:15:00 0.3 C 4.5 g/m*3 0.3 C 0 km/h
1553 04-04-2020 09:20:00 0.3 C 4.5 g/m*3 0.3 C 0 km/h
1554 04-04-2020 09:25:00 0.4 C 4.53 g/m*3 0.4 C 0 km/h
1555 04-04-2020 09:30:00 0.5 C 4.56 g/m*3 0.5 C 3.2 km/h
1556 04-04-2020 09:35:00 0.7 C 4.63 g/m*3 0.7 C 0 km/h
1557 04-04-2020 09:40:00 0.8 C 4.66 g/m*3 0.8 C 1.6 km/h
1558 04-04-2020 09:45:00 1 C 4.72 g/m*3 1 C 3.2 km/h
1559 04-04-2020 09:50:00 1.1 C 4.76 g/m*3 1.1 C 0 km/h
1560 04-04-2020 09:55:00 1.3 C 4.82 g/m*3 1.3 C 0 km/h
1561 04-04-2020 10:00:00 1.5 C 4.89 g/m*3 1.5 C 0 km/h
1562 04-04-2020 10:05:00 1.8 C 4.99 g/m*3 1.8 C 0 km/h
1563 04-04-2020 10:10:00 2 C 5 g/m*3 2 C 0 km/h
1564 04-04-2020 10:15:00 2.2 C 5.07 g/m*3 2.2 C 0 km/h
1565 04-04-2020 10:20:00 2.3 C 5.05 g/m*3 2.3 C 0 km/h
1566 04-04-2020 10:25:00 2.6 C 5.15 g/m*3 2.6 C 0 km/h
1567 04-04-2020 10:30:00 2.7 C 5.13 g/m*3 2.7 C 0 km/h
1568 04-04-2020 10:35:00 3 C 5.23 g/m*3 3 C 0 km/h
1569 04-04-2020 10:40:00 3.3 C 5.34 g/m*3 3.3 C 0 km/h
1570 04-04-2020 10:45:00 3.7 C 5.42 g/m*3 3.7 C 0 km/h
1571 04-04-2020 10:50:00 4 C 5.47 g/m*3 4 C 0 km/h
1572 04-04-2020 10:55:00 4.3 C 5.45 g/m*3 4.3 C 0 km/h
1573 04-04-2020 11:00:00 4.8 C 5.57 g/m*3 4.8 C 1.6 km/h
1574 04-04-2020 11:05:00 5.2 C 5.65 g/m*3 5.2 C 0 km/h
1575 04-04-2020 11:10:00 5.7 C 5.69 g/m*3 5.7 C 0 km/h
Sensor: Nr:Datum:Temp:Abs-Feuchte:Windchill:Wind:
Aussen-T/F 1576 04-04-2020 11:15:00 6.1 C 5.7 g/m*3 6.1 C 0 km/h
1577 04-04-2020 11:20:00 6.5 C 5.7 g/m*3 6.5 C 1.6 km/h
1578 04-04-2020 11:25:00 6.8 C 5.81 g/m*3 6.8 C 1.6 km/h
1579 04-04-2020 11:30:00 7.2 C 5.73 g/m*3 7.2 C 4.8 km/h
1580 04-04-2020 11:35:00 7.4 C 5.49 g/m*3 7.4 C 0 km/h
1581 04-04-2020 11:40:00 7.8 C 5.55 g/m*3 7.8 C 3.2 km/h
1582 04-04-2020 11:45:00 8.2 C 5.61 g/m*3 8.2 C 3.2 km/h
1583 04-04-2020 11:50:00 8.5 C 5.64 g/m*3 8.5 C 3.2 km/h
1584 04-04-2020 11:55:00 8.8 C 5.48 g/m*3 6.97 C 11.3 km/h
1585 04-04-2020 12:00:00 9 C 5.55 g/m*3 9 C 3.2 km/h
1586 04-04-2020 12:05:00 9.2 C 5.45 g/m*3 9.2 C 4.8 km/h
1587 04-04-2020 12:10:00 9.3 C 5.48 g/m*3 9.3 C 3.2 km/h
1588 04-04-2020 12:15:00 9.6 C 5.5 g/m*3 9.6 C 4.8 km/h
1589 04-04-2020 12:20:00 9.9 C 5.51 g/m*3 8.87 C 8.1 km/h
1590 04-04-2020 12:25:00 10.1 C 5.39 g/m*3 9.48 C 6.4 km/h
1591 04-04-2020 12:30:00 10.3 C 5.27 g/m*3 10.3 C 3.2 km/h
1592 04-04-2020 12:35:00 10.3 C 5.17 g/m*3 9.04 C 9.7 km/h
1593 04-04-2020 12:40:00 10.3 C 5.27 g/m*3 9.04 C 9.7 km/h
1594 04-04-2020 12:45:00 10.3 C 5.27 g/m*3 8.78 C 11.3 km/h
1595 04-04-2020 12:50:00 10.4 C 5.2 g/m*3 9.16 C 9.7 km/h
1596 04-04-2020 12:55:00 10.6 C 5.37 g/m*3 9.4 C 9.7 km/h
1597 04-04-2020 13:00:00 10.7 C 5.21 g/m*3 9.26 C 11.3 km/h
1598 04-04-2020 13:05:00 10.8 C 5.24 g/m*3 9.93 C 8.1 km/h
1599 04-04-2020 13:10:00 10.9 C 5.37 g/m*3 10.41 C 6.4 km/h
1600 04-04-2020 13:15:00 11.2 C 5.47 g/m*3 11.2 C 8.1 km/h
Sensor: Nr:Datum:Temp:Abs-Feuchte:Windchill:Wind:
Aussen-T/F 1601 04-04-2020 13:20:00 11.3 C 5.3 g/m*3 11.3 C 9.7 km/h
1602 04-04-2020 13:25:00 11.4 C 5.44 g/m*3 11.4 C 9.7 km/h
1603 04-04-2020 13:30:00 11.5 C 5.27 g/m*3 11.5 C 12.9 km/h
1604 04-04-2020 13:35:00 11.6 C 5.3 g/m*3 11.6 C 9.7 km/h
1605 04-04-2020 13:40:00 11.7 C 5.44 g/m*3 11.7 C 9.7 km/h
1606 04-04-2020 13:45:00 11.8 C 5.26 g/m*3 11.8 C 9.7 km/h
1607 04-04-2020 13:50:00 12 C 5.44 g/m*3 12 C 11.3 km/h
1608 04-04-2020 13:55:00 12.2 C 5.29 g/m*3 12.2 C 17.7 km/h
1609 04-04-2020 14:00:00 12.1 C 5.15 g/m*3 12.1 C 16.1 km/h
1610 04-04-2020 14:05:00 12.1 C 5.25 g/m*3 12.1 C 11.3 km/h
1611 04-04-2020 14:10:00 12.3 C 5.1 g/m*3 12.3 C 12.9 km/h
1612 04-04-2020 14:15:00 12.6 C 5.31 g/m*3 12.6 C 12.9 km/h
1613 04-04-2020 14:20:00 12.7 C 5.23 g/m*3 12.7 C 19.3 km/h
1614 04-04-2020 14:25:00 12.8 C 5.26 g/m*3 12.8 C 14.5 km/h
1615 04-04-2020 14:30:00 12.9 C 5.3 g/m*3 12.9 C 12.9 km/h
1616 04-04-2020 14:35:00 13 C 5.33 g/m*3 13 C 12.9 km/h
1617 04-04-2020 14:40:00 13.1 C 5.25 g/m*3 13.1 C 12.9 km/h
1618 04-04-2020 14:45:00 13.2 C 5.4 g/m*3 13.2 C 12.9 km/h
1619 04-04-2020 14:50:00 13.2 C 5.28 g/m*3 13.2 C 14.5 km/h
1620 04-04-2020 14:55:00 13.2 C 5.4 g/m*3 13.2 C 8.1 km/h
1621 04-04-2020 15:00:00 13.3 C 5.2 g/m*3 13.3 C 16.1 km/h
1622 04-04-2020 15:05:00 13.2 C 5.4 g/m*3 13.2 C 8.1 km/h
1623 04-04-2020 15:10:00 13.3 C 5.31 g/m*3 13.3 C 12.9 km/h
1624 04-04-2020 15:15:00 13.3 C 5.2 g/m*3 13.3 C 12.9 km/h
1625 04-04-2020 15:20:00 13.3 C 5.2 g/m*3 13.3 C 12.9 km/h
Sensor: Nr:Datum:Temp:Abs-Feuchte:Windchill:Wind:
Aussen-T/F 1626 04-04-2020 15:25:00 13.3 C 5.31 g/m*3 13.3 C 12.9 km/h
1627 04-04-2020 15:30:00 13.6 C 5.41 g/m*3 13.6 C 11.3 km/h
1628 04-04-2020 15:35:00 13.7 C 5.45 g/m*3 13.7 C 9.7 km/h
1629 04-04-2020 15:40:00 13.8 C 5.36 g/m*3 13.8 C 6.4 km/h
1630 04-04-2020 15:45:00 13.9 C 5.39 g/m*3 13.9 C 14.5 km/h
1631 04-04-2020 15:50:00 14 C 5.31 g/m*3 14 C 16.1 km/h
1632 04-04-2020 15:55:00 14 C 5.31 g/m*3 14 C 14.5 km/h
1633 04-04-2020 16:00:00 14.2 C 5.37 g/m*3 14.2 C 12.9 km/h
1634 04-04-2020 16:05:00 14.4 C 5.32 g/m*3 14.4 C 14.5 km/h
1635 04-04-2020 16:10:00 14.4 C 5.32 g/m*3 14.4 C 12.9 km/h
1636 04-04-2020 16:15:00 14.7 C 5.41 g/m*3 14.7 C 6.4 km/h
1637 04-04-2020 16:20:00 14.8 C 5.32 g/m*3 14.8 C 11.3 km/h
1638 04-04-2020 16:25:00 14.7 C 5.29 g/m*3 14.7 C 12.9 km/h
1639 04-04-2020 16:30:00 14.7 C 5.41 g/m*3 14.7 C 11.3 km/h
1640 04-04-2020 16:35:00 14.9 C 5.48 g/m*3 14.9 C 8.1 km/h
1641 04-04-2020 16:40:00 15.2 C 5.58 g/m*3 15.2 C 8.1 km/h
1642 04-04-2020 16:45:00 15.3 C 5.48 g/m*3 15.3 C 9.7 km/h
1643 04-04-2020 16:50:00 15.4 C 5.52 g/m*3 15.4 C 9.7 km/h
1644 04-04-2020 16:55:00 15.6 C 5.45 g/m*3 15.6 C 8.1 km/h
1645 04-04-2020 17:00:00 15.7 C 5.62 g/m*3 15.7 C 9.7 km/h
1646 04-04-2020 17:05:00 15.9 C 5.69 g/m*3 15.9 C 8.1 km/h
1647 04-04-2020 17:10:00 16.1 C 5.48 g/m*3 16.1 C 8.1 km/h
1648 04-04-2020 17:15:00 16.1 C 5.62 g/m*3 16.1 C 9.7 km/h
1649 04-04-2020 17:20:00 15.9 C 5.55 g/m*3 15.9 C 9.7 km/h
1650 04-04-2020 17:25:00 15.9 C 5.55 g/m*3 15.9 C 12.9 km/h
Sensor: Nr:Datum:Temp:Abs-Feuchte:Windchill:Wind:
Aussen-T/F 1651 04-04-2020 17:30:00 15.8 C 5.65 g/m*3 15.8 C 8.1 km/h
1652 04-04-2020 17:35:00 15.8 C 5.52 g/m*3 15.8 C 11.3 km/h
1653 04-04-2020 17:40:00 15.7 C 5.75 g/m*3 15.7 C 8.1 km/h
1654 04-04-2020 17:45:00 15.9 C 5.82 g/m*3 15.9 C 8.1 km/h
1655 04-04-2020 17:50:00 16 C 5.72 g/m*3 16 C 11.3 km/h
1656 04-04-2020 17:55:00 16.1 C 5.76 g/m*3 16.1 C 6.4 km/h
1657 04-04-2020 18:00:00 16.3 C 6.1 g/m*3 16.3 C 6.4 km/h
1658 04-04-2020 18:05:00 16.5 C 5.76 g/m*3 16.5 C 11.3 km/h
1659 04-04-2020 18:10:00 16.5 C 6.04 g/m*3 16.5 C 8.1 km/h
1660 04-04-2020 18:15:00 16.5 C 5.9 g/m*3 16.5 C 9.7 km/h
1661 04-04-2020 18:20:00 16.4 C 5.86 g/m*3 16.4 C 16.1 km/h
1662 04-04-2020 18:25:00 16.3 C 5.97 g/m*3 16.3 C 8.1 km/h
1663 04-04-2020 18:30:00 16.1 C 5.89 g/m*3 16.1 C 12.9 km/h
1664 04-04-2020 18:35:00 16.1 C 6.03 g/m*3 16.1 C 9.7 km/h
1665 04-04-2020 18:40:00 16.2 C 6.07 g/m*3 16.2 C 6.4 km/h
1666 04-04-2020 18:45:00 16.3 C 5.97 g/m*3 16.3 C 8.1 km/h
1667 04-04-2020 18:50:00 16.1 C 6.03 g/m*3 16.1 C 11.3 km/h
1668 04-04-2020 18:55:00 16 C 5.99 g/m*3 16 C 6.4 km/h
1669 04-04-2020 19:00:00 16 C 6.13 g/m*3 16 C 8.1 km/h
1670 04-04-2020 19:05:00 16 C 5.99 g/m*3 16 C 6.4 km/h
1671 04-04-2020 19:10:00 15.9 C 5.96 g/m*3 15.9 C 9.7 km/h
1672 04-04-2020 19:15:00 15.8 C 5.92 g/m*3 15.8 C 6.4 km/h
1673 04-04-2020 19:20:00 15.6 C 5.98 g/m*3 15.6 C 6.4 km/h
1674 04-04-2020 19:25:00 15.4 C 6.31 g/m*3 15.4 C 1.6 km/h
1675 04-04-2020 19:30:00 15.3 C 6.01 g/m*3 15.3 C 3.2 km/h
Sensor: Nr:Datum:Temp:Abs-Feuchte:Windchill:Wind:
Aussen-T/F 1676 04-04-2020 19:35:00 15.1 C 6.32 g/m*3 15.1 C 0 km/h
1677 04-04-2020 19:40:00 14.9 C 6.5 g/m*3 14.9 C 3.2 km/h
1678 04-04-2020 19:45:00 14.4 C 6.43 g/m*3 14.4 C 3.2 km/h
1679 04-04-2020 19:50:00 13.9 C 6.35 g/m*3 13.9 C 4.8 km/h
1680 04-04-2020 19:55:00 13.2 C 6.2 g/m*3 13.2 C 4.8 km/h
1681 04-04-2020 20:00:00 12.6 C 6.2 g/m*3 12.6 C 6.4 km/h
1682 04-04-2020 20:05:00 12.1 C 6.11 g/m*3 12.1 C 6.4 km/h
1683 04-04-2020 20:10:00 11.7 C 6.07 g/m*3 11.7 C 4.8 km/h
1684 04-04-2020 20:15:00 11.3 C 6.02 g/m*3 11.3 C 6.4 km/h
1685 04-04-2020 20:20:00 10.9 C 6.07 g/m*3 10.41 C 6.4 km/h
1686 04-04-2020 20:25:00 10.6 C 6.05 g/m*3 10.6 C 4.8 km/h
1687 04-04-2020 20:30:00 10.3 C 6.03 g/m*3 9.72 C 6.4 km/h
1688 04-04-2020 20:35:00 9.9 C 5.88 g/m*3 9.25 C 6.4 km/h
1689 04-04-2020 20:40:00 9.7 C 5.81 g/m*3 9.02 C 6.4 km/h
1690 04-04-2020 20:45:00 9.4 C 5.7 g/m*3 9.4 C 4.8 km/h
1691 04-04-2020 20:50:00 9.2 C 5.63 g/m*3 8.45 C 6.4 km/h
1692 04-04-2020 20:55:00 9 C 5.64 g/m*3 8.21 C 6.4 km/h
1693 04-04-2020 21:00:00 8.8 C 5.57 g/m*3 7.58 C 8.1 km/h
1694 04-04-2020 21:05:00 8.7 C 5.53 g/m*3 7.87 C 6.4 km/h
1695 04-04-2020 21:10:00 8.6 C 5.59 g/m*3 8.6 C 4.8 km/h
1696 04-04-2020 21:15:00 8.5 C 5.55 g/m*3 7.64 C 6.4 km/h
1697 04-04-2020 21:20:00 8.4 C 5.51 g/m*3 8.4 C 4.8 km/h
1698 04-04-2020 21:25:00 8.3 C 5.48 g/m*3 8.3 C 4.8 km/h
1699 04-04-2020 21:30:00 8.2 C 5.53 g/m*3 8.2 C 4.8 km/h
1700 04-04-2020 21:35:00 8.1 C 5.57 g/m*3 8.1 C 4.8 km/h
Sensor: Nr:Datum:Temp:Abs-Feuchte:Windchill:Wind:
Aussen-T/F 1701 04-04-2020 21:40:00 8 C 5.54 g/m*3 8 C 3.2 km/h
1702 04-04-2020 21:45:00 7.8 C 5.55 g/m*3 7.8 C 1.6 km/h
1703 04-04-2020 21:50:00 7.7 C 5.51 g/m*3 7.7 C 3.2 km/h
1704 04-04-2020 21:55:00 7.5 C 5.52 g/m*3 7.5 C 3.2 km/h
1705 04-04-2020 22:00:00 7.3 C 5.45 g/m*3 7.3 C 1.6 km/h
1706 04-04-2020 22:05:00 7.1 C 5.46 g/m*3 7.1 C 1.6 km/h
1707 04-04-2020 22:10:00 6.8 C 5.43 g/m*3 6.8 C 0 km/h
1708 04-04-2020 22:15:00 6.6 C 5.36 g/m*3 6.6 C 0 km/h
1709 04-04-2020 22:20:00 6.4 C 5.36 g/m*3 6.4 C 0 km/h
1710 04-04-2020 22:25:00 6.2 C 5.37 g/m*3 6.2 C 0 km/h
1711 04-04-2020 22:30:00 6.2 C 5.44 g/m*3 6.2 C 0 km/h
1712 04-04-2020 22:35:00 6.2 C 5.44 g/m*3 6.2 C 0 km/h
1713 04-04-2020 22:40:00 6 C 5.37 g/m*3 6 C 0 km/h
1714 04-04-2020 22:45:00 5.8 C 5.3 g/m*3 5.8 C 0 km/h
1715 04-04-2020 22:50:00 5.7 C 5.27 g/m*3 5.7 C 0 km/h
1716 04-04-2020 22:55:00 5.6 C 5.23 g/m*3 5.6 C 0 km/h
1717 04-04-2020 23:00:00 5.4 C 5.16 g/m*3 5.4 C 0 km/h
1718 04-04-2020 23:05:00 5.3 C 5.13 g/m*3 5.3 C 0 km/h
1719 04-04-2020 23:10:00 5.2 C 5.1 g/m*3 5.2 C 0 km/h
1720 04-04-2020 23:15:00 5.1 C 5.13 g/m*3 5.1 C 0 km/h
1721 04-04-2020 23:20:00 4.9 C 5.06 g/m*3 4.9 C 0 km/h
1722 04-04-2020 23:25:00 4.8 C 5.1 g/m*3 4.8 C 0 km/h
1723 04-04-2020 23:30:00 4.6 C 5.1 g/m*3 4.6 C 0 km/h
1724 04-04-2020 23:35:00 4.4 C 5.03 g/m*3 4.4 C 0 km/h
1725 04-04-2020 23:40:00 4.4 C 5.09 g/m*3 4.4 C 0 km/h
Sensor: Nr:Datum:Temp:Abs-Feuchte:Windchill:Wind:
Aussen-T/F 1726 04-04-2020 23:45:00 4.3 C 5.06 g/m*3 4.3 C 0 km/h
1727 04-04-2020 23:50:00 4.3 C 5.06 g/m*3 4.3 C 0 km/h
1728 04-04-2020 23:55:00 4.2 C 5.03 g/m*3 4.2 C 0 km/h
1729 05-04-2020 00:00:00 4.1 C 4.99 g/m*3 4.1 C 0 km/h
1730 05-04-2020 00:05:00 4 C 4.96 g/m*3 4 C 0 km/h
1731 05-04-2020 00:10:00 3.9 C 4.99 g/m*3 3.9 C 0 km/h
1732 05-04-2020 00:15:00 3.8 C 4.96 g/m*3 3.8 C 0 km/h
1733 05-04-2020 00:20:00 3.7 C 4.99 g/m*3 3.7 C 0 km/h
1734 05-04-2020 00:25:00 3.6 C 5.01 g/m*3 3.6 C 0 km/h
1735 05-04-2020 00:30:00 3.5 C 4.98 g/m*3 3.5 C 0 km/h
1736 05-04-2020 00:35:00 3.4 C 4.95 g/m*3 3.4 C 0 km/h
1737 05-04-2020 00:40:00 3.3 C 4.97 g/m*3 3.3 C 0 km/h
1738 05-04-2020 00:45:00 3.3 C 4.97 g/m*3 3.3 C 0 km/h
1739 05-04-2020 00:50:00 3.3 C 4.97 g/m*3 3.3 C 0 km/h
1740 05-04-2020 00:55:00 3.2 C 4.94 g/m*3 3.2 C 0 km/h
1741 05-04-2020 01:00:00 3.1 C 4.91 g/m*3 3.1 C 0 km/h
1742 05-04-2020 01:05:00 3.1 C 4.97 g/m*3 3.1 C 0 km/h
1743 05-04-2020 01:10:00 2.9 C 4.9 g/m*3 2.9 C 0 km/h
1744 05-04-2020 01:15:00 2.9 C 4.96 g/m*3 2.9 C 0 km/h
1745 05-04-2020 01:20:00 2.9 C 4.96 g/m*3 2.9 C 0 km/h
1746 05-04-2020 01:25:00 2.9 C 4.96 g/m*3 2.9 C 0 km/h
1747 05-04-2020 01:30:00 2.9 C 5.02 g/m*3 2.9 C 0 km/h
1748 05-04-2020 01:35:00 2.9 C 5.02 g/m*3 2.9 C 0 km/h
1749 05-04-2020 01:40:00 2.9 C 4.96 g/m*3 2.9 C 0 km/h
1750 05-04-2020 01:45:00 2.8 C 4.93 g/m*3 2.8 C 0 km/h
Sensor: Nr:Datum:Temp:Abs-Feuchte:Windchill:Wind:
Aussen-T/F 1751 05-04-2020 01:50:00 2.8 C 4.99 g/m*3 2.8 C 0 km/h
1752 05-04-2020 01:55:00 2.7 C 4.89 g/m*3 2.7 C 0 km/h
1753 05-04-2020 02:00:00 2.6 C 4.92 g/m*3 2.6 C 0 km/h
1754 05-04-2020 02:05:00 2.5 C 4.89 g/m*3 2.5 C 0 km/h
1755 05-04-2020 02:10:00 2.4 C 4.91 g/m*3 2.4 C 0 km/h
1756 05-04-2020 02:15:00 2.3 C 4.88 g/m*3 2.3 C 0 km/h
1757 05-04-2020 02:20:00 2.3 C 4.93 g/m*3 2.3 C 0 km/h
1758 05-04-2020 02:25:00 2.3 C 4.93 g/m*3 2.3 C 0 km/h
1759 05-04-2020 02:30:00 2.3 C 4.93 g/m*3 2.3 C 0 km/h
1760 05-04-2020 02:35:00 2.3 C 4.88 g/m*3 2.3 C 0 km/h
1761 05-04-2020 02:40:00 2.3 C 4.93 g/m*3 2.3 C 0 km/h
1762 05-04-2020 02:45:00 2.2 C 4.84 g/m*3 2.2 C 0 km/h
1763 05-04-2020 02:50:00 2.2 C 4.9 g/m*3 2.2 C 0 km/h
1764 05-04-2020 02:55:00 2.1 C 4.87 g/m*3 2.1 C 3.2 km/h
1765 05-04-2020 03:00:00 2.1 C 4.87 g/m*3 2.1 C 3.2 km/h
1766 05-04-2020 03:05:00 2 C 4.83 g/m*3 2 C 0 km/h
1767 05-04-2020 03:10:00 1.9 C 4.8 g/m*3 1.9 C 0 km/h
1768 05-04-2020 03:15:00 1.9 C 4.8 g/m*3 1.9 C 0 km/h
1769 05-04-2020 03:20:00 1.9 C 4.86 g/m*3 1.9 C 0 km/h
1770 05-04-2020 03:25:00 1.9 C 4.86 g/m*3 1.9 C 0 km/h
1771 05-04-2020 03:30:00 1.8 C 4.82 g/m*3 1.8 C 0 km/h
1772 05-04-2020 03:35:00 1.8 C 4.82 g/m*3 1.8 C 0 km/h
1773 05-04-2020 03:40:00 1.7 C 4.79 g/m*3 1.7 C 0 km/h
1774 05-04-2020 03:45:00 1.6 C 4.76 g/m*3 1.6 C 0 km/h
1775 05-04-2020 03:50:00 1.6 C 4.76 g/m*3 1.6 C 0 km/h
Sensor: Nr:Datum:Temp:Abs-Feuchte:Windchill:Wind:
Aussen-T/F 1776 05-04-2020 03:55:00 1.6 C 4.81 g/m*3 1.6 C 0 km/h
1777 05-04-2020 04:00:00 1.5 C 4.78 g/m*3 1.5 C 0 km/h
1778 05-04-2020 04:05:00 1.4 C 4.75 g/m*3 1.4 C 0 km/h
1779 05-04-2020 04:10:00 1.4 C 4.75 g/m*3 1.4 C 0 km/h
1780 05-04-2020 04:15:00 1.3 C 4.72 g/m*3 1.3 C 0 km/h
1781 05-04-2020 04:20:00 1.3 C 4.77 g/m*3 1.3 C 0 km/h
1782 05-04-2020 04:25:00 1.3 C 4.77 g/m*3 1.3 C 0 km/h
1783 05-04-2020 04:30:00 1.3 C 4.77 g/m*3 1.3 C 0 km/h
1784 05-04-2020 04:35:00 1.3 C 4.77 g/m*3 1.3 C 0 km/h
1785 05-04-2020 04:40:00 1.2 C 4.74 g/m*3 1.2 C 0 km/h
1786 05-04-2020 04:45:00 1.2 C 4.74 g/m*3 1.2 C 0 km/h
1787 05-04-2020 04:50:00 1.1 C 4.7 g/m*3 1.1 C 0 km/h
1788 05-04-2020 04:55:00 1.1 C 4.7 g/m*3 1.1 C 0 km/h
1789 05-04-2020 05:00:00 1 C 4.67 g/m*3 1 C 0 km/h
1790 05-04-2020 05:05:00 0.9 C 4.64 g/m*3 0.9 C 0 km/h
1791 05-04-2020 05:10:00 0.9 C 4.69 g/m*3 0.9 C 0 km/h
1792 05-04-2020 05:15:00 0.8 C 4.66 g/m*3 0.8 C 0 km/h
1793 05-04-2020 05:20:00 0.8 C 4.66 g/m*3 0.8 C 0 km/h
1794 05-04-2020 05:25:00 0.8 C 4.66 g/m*3 0.8 C 0 km/h
1795 05-04-2020 05:30:00 0.7 C 4.63 g/m*3 0.7 C 0 km/h
1796 05-04-2020 05:35:00 0.7 C 4.63 g/m*3 0.7 C 0 km/h
1797 05-04-2020 05:40:00 0.6 C 4.6 g/m*3 0.6 C 0 km/h
1798 05-04-2020 05:45:00 0.6 C 4.6 g/m*3 0.6 C 0 km/h
1799 05-04-2020 05:50:00 0.5 C 4.56 g/m*3 0.5 C 0 km/h
1800 05-04-2020 05:55:00 0.5 C 4.61 g/m*3 0.5 C 0 km/h
Sensor: Nr:Datum:Temp:Abs-Feuchte:Windchill:Wind:
Aussen-T/F 1801 05-04-2020 06:00:00 0.5 C 4.61 g/m*3 0.5 C 0 km/h
1802 05-04-2020 06:05:00 0.4 C 4.58 g/m*3 0.4 C 0 km/h
1803 05-04-2020 06:10:00 0.4 C 4.58 g/m*3 0.4 C 0 km/h
1804 05-04-2020 06:15:00 0.4 C 4.58 g/m*3 0.4 C 0 km/h
1805 05-04-2020 06:20:00 0.4 C 4.58 g/m*3 0.4 C 0 km/h
1806 05-04-2020 06:25:00 0.4 C 4.58 g/m*3 0.4 C 0 km/h
1807 05-04-2020 06:30:00 0.4 C 4.58 g/m*3 0.4 C 0 km/h
1808 05-04-2020 06:35:00 0.3 C 4.55 g/m*3 0.3 C 0 km/h
1809 05-04-2020 06:40:00 0.3 C 4.55 g/m*3 0.3 C 0 km/h
1810 05-04-2020 06:45:00 0.3 C 4.6 g/m*3 0.3 C 0 km/h
1811 05-04-2020 06:50:00 0.3 C 4.6 g/m*3 0.3 C 0 km/h
1812 05-04-2020 06:55:00 0.3 C 4.6 g/m*3 0.3 C 0 km/h
1813 05-04-2020 07:00:00 0.3 C 4.6 g/m*3 0.3 C 0 km/h
1814 05-04-2020 07:05:00 0.2 C 4.57 g/m*3 0.2 C 0 km/h
1815 05-04-2020 07:10:00 0.2 C 4.57 g/m*3 0.2 C 0 km/h
1816 05-04-2020 07:15:00 0.3 C 4.6 g/m*3 0.3 C 0 km/h
1817 05-04-2020 07:20:00 0.3 C 4.6 g/m*3 0.3 C 0 km/h
1818 05-04-2020 07:25:00 0.3 C 4.6 g/m*3 0.3 C 0 km/h
1819 05-04-2020 07:30:00 0.3 C 4.6 g/m*3 0.3 C 0 km/h
1820 05-04-2020 07:35:00 0.3 C 4.6 g/m*3 0.3 C 0 km/h
1821 05-04-2020 07:40:00 0.4 C 4.63 g/m*3 0.4 C 0 km/h
1822 05-04-2020 07:45:00 0.4 C 4.63 g/m*3 0.4 C 0 km/h
1823 05-04-2020 07:50:00 0.4 C 4.63 g/m*3 0.4 C 0 km/h
1824 05-04-2020 07:55:00 0.5 C 4.66 g/m*3 0.5 C 0 km/h
1825 05-04-2020 08:00:00 0.5 C 4.66 g/m*3 0.5 C 0 km/h
Sensor: Nr:Datum:Temp:Abs-Feuchte:Windchill:Wind:
Aussen-T/F 1826 05-04-2020 08:05:00 0.6 C 4.75 g/m*3 0.6 C 0 km/h
1827 05-04-2020 08:10:00 0.6 C 4.75 g/m*3 0.6 C 0 km/h
1828 05-04-2020 08:15:00 0.7 C 4.78 g/m*3 0.7 C 0 km/h
1829 05-04-2020 08:20:00 0.7 C 4.78 g/m*3 0.7 C 0 km/h
1830 05-04-2020 08:25:00 0.8 C 4.81 g/m*3 0.8 C 0 km/h
1831 05-04-2020 08:30:00 0.9 C 4.85 g/m*3 0.9 C 0 km/h
1832 05-04-2020 08:35:00 1.1 C 4.91 g/m*3 1.1 C 0 km/h
1833 05-04-2020 08:40:00 1.2 C 4.95 g/m*3 1.2 C 0 km/h
1834 05-04-2020 08:45:00 1.2 C 4.95 g/m*3 1.2 C 0 km/h
1835 05-04-2020 08:50:00 1.3 C 4.98 g/m*3 1.3 C 0 km/h
1836 05-04-2020 08:55:00 1.5 C 5.05 g/m*3 1.5 C 0 km/h
1837 05-04-2020 09:00:00 1.6 C 5.08 g/m*3 1.6 C 0 km/h
1838 05-04-2020 09:05:00 1.7 C 5.12 g/m*3 1.7 C 0 km/h
1839 05-04-2020 09:10:00 1.8 C 5.15 g/m*3 1.8 C 0 km/h
1840 05-04-2020 09:15:00 1.9 C 5.19 g/m*3 1.9 C 0 km/h
1841 05-04-2020 09:20:00 2.2 C 5.29 g/m*3 2.2 C 0 km/h
1842 05-04-2020 09:25:00 2.3 C 5.39 g/m*3 2.3 C 0 km/h
1843 05-04-2020 09:30:00 2.6 C 5.5 g/m*3 2.6 C 0 km/h
1844 05-04-2020 09:35:00 2.8 C 5.57 g/m*3 2.8 C 0 km/h
1845 05-04-2020 09:40:00 3 C 5.65 g/m*3 3 C 0 km/h
1846 05-04-2020 09:45:00 3.3 C 5.76 g/m*3 3.3 C 0 km/h
1847 05-04-2020 09:50:00 3.4 C 5.74 g/m*3 3.4 C 0 km/h
1848 05-04-2020 09:55:00 3.7 C 5.86 g/m*3 3.7 C 0 km/h
1849 05-04-2020 10:00:00 3.8 C 5.9 g/m*3 3.8 C 0 km/h
1850 05-04-2020 10:05:00 4.1 C 5.95 g/m*3 4.1 C 0 km/h
Sensor: Nr:Datum:Temp:Abs-Feuchte:Windchill:Wind:
Aussen-T/F 1851 05-04-2020 10:10:00 4.4 C 6.07 g/m*3 4.4 C 0 km/h
1852 05-04-2020 10:15:00 4.7 C 6.13 g/m*3 4.7 C 0 km/h
1853 05-04-2020 10:20:00 4.9 C 6.21 g/m*3 4.9 C 0 km/h
1854 05-04-2020 10:25:00 5.2 C 6.27 g/m*3 5.2 C 0 km/h
1855 05-04-2020 10:30:00 5.6 C 6.36 g/m*3 5.6 C 0 km/h
1856 05-04-2020 10:35:00 6.1 C 6.43 g/m*3 6.1 C 0 km/h
1857 05-04-2020 10:40:00 6.5 C 6.52 g/m*3 6.5 C 0 km/h
1858 05-04-2020 10:45:00 6.9 C 6.54 g/m*3 6.9 C 0 km/h
1859 05-04-2020 10:50:00 7.3 C 6.64 g/m*3 7.3 C 0 km/h
1860 05-04-2020 10:55:00 7.8 C 6.69 g/m*3 7.8 C 0 km/h
1861 05-04-2020 11:00:00 8.3 C 6.74 g/m*3 8.3 C 0 km/h
1862 05-04-2020 11:05:00 8.9 C 6.92 g/m*3 8.9 C 4.8 km/h
1863 05-04-2020 11:10:00 9.4 C 6.87 g/m*3 9.4 C 4.8 km/h
1864 05-04-2020 11:15:00 9.9 C 7 g/m*3 9.9 C 0 km/h
1865 05-04-2020 11:20:00 10.3 C 6.8 g/m*3 10.3 C 1.6 km/h
1866 05-04-2020 11:25:00 10.7 C 6.97 g/m*3 10.7 C 1.6 km/h
1867 05-04-2020 11:30:00 11.4 C 6.57 g/m*3 11.4 C 8.1 km/h
1868 05-04-2020 11:35:00 12.4 C 6.45 g/m*3 12.4 C 4.8 km/h
1869 05-04-2020 11:40:00 13.1 C 6.39 g/m*3 13.1 C 9.7 km/h
1870 05-04-2020 11:45:00 13.7 C 5.8 g/m*3 13.7 C 14.5 km/h
1871 05-04-2020 11:50:00 14.2 C 5.74 g/m*3 14.2 C 8.1 km/h
1872 05-04-2020 11:55:00 14.8 C 5.7 g/m*3 14.8 C 6.4 km/h
1873 05-04-2020 12:00:00 15.3 C 5.62 g/m*3 15.3 C 14.5 km/h
1874 05-04-2020 12:05:00 15.6 C 5.45 g/m*3 15.6 C 19.3 km/h
1875 05-04-2020 12:10:00 15.8 C 5.65 g/m*3 15.8 C 8.1 km/h
Sensor: Nr:Datum:Temp:Abs-Feuchte:Windchill:Wind:
Aussen-T/F 1876 05-04-2020 12:15:00 16.1 C 5.76 g/m*3 16.1 C 14.5 km/h
1877 05-04-2020 12:20:00 16.2 C 5.52 g/m*3 16.2 C 16.1 km/h
1878 05-04-2020 12:25:00 16.3 C 5.41 g/m*3 16.3 C 9.7 km/h
1879 05-04-2020 12:30:00 16.4 C 5.3 g/m*3 16.4 C 12.9 km/h
1880 05-04-2020 12:35:00 16.6 C 5.51 g/m*3 16.6 C 11.3 km/h
1881 05-04-2020 12:40:00 16.7 C 5.68 g/m*3 16.7 C 11.3 km/h
1882 05-04-2020 12:45:00 16.8 C 5.43 g/m*3 16.8 C 6.4 km/h
1883 05-04-2020 12:50:00 16.8 C 5.58 g/m*3 16.8 C 8.1 km/h
1884 05-04-2020 12:55:00 16.8 C 5.29 g/m*3 16.8 C 9.7 km/h
1885 05-04-2020 13:00:00 16.8 C 5.43 g/m*3 16.8 C 12.9 km/h
1886 05-04-2020 13:05:00 16.9 C 5.32 g/m*3 16.9 C 9.7 km/h
1887 05-04-2020 13:10:00 17.1 C 5.53 g/m*3 17.1 C 9.7 km/h
1888 05-04-2020 13:15:00 17.3 C 5.6 g/m*3 17.3 C 11.3 km/h
1889 05-04-2020 13:20:00 17.2 C 5.42 g/m*3 17.2 C 9.7 km/h
1890 05-04-2020 13:25:00 17.3 C 5.45 g/m*3 17.3 C 12.9 km/h
1891 05-04-2020 13:30:00 17.4 C 5.48 g/m*3 17.4 C 11.3 km/h
1892 05-04-2020 13:35:00 17.4 C 5.48 g/m*3 17.4 C 14.5 km/h
1893 05-04-2020 13:40:00 17.3 C 5.6 g/m*3 17.3 C 19.3 km/h
1894 05-04-2020 13:45:00 17.3 C 5.3 g/m*3 17.3 C 9.7 km/h
1895 05-04-2020 13:50:00 17.3 C 5.45 g/m*3 17.3 C 12.9 km/h
1896 05-04-2020 13:55:00 17.4 C 5.34 g/m*3 17.4 C 16.1 km/h
1897 05-04-2020 14:00:00 17.6 C 5.55 g/m*3 17.6 C 20.9 km/h
1898 05-04-2020 14:05:00 17.7 C 5.58 g/m*3 17.7 C 8.1 km/h
1899 05-04-2020 14:10:00 17.9 C 5.34 g/m*3 17.9 C 12.9 km/h
1900 05-04-2020 14:15:00 17.9 C 5.65 g/m*3 17.9 C 22.5 km/h
Sensor: Nr:Datum:Temp:Abs-Feuchte:Windchill:Wind:
Aussen-T/F 1901 05-04-2020 14:20:00 18.1 C 5.56 g/m*3 18.1 C 16.1 km/h
1902 05-04-2020 14:25:00 18.2 C 5.6 g/m*3 18.2 C 17.7 km/h
1903 05-04-2020 14:30:00 18.2 C 5.44 g/m*3 18.2 C 16.1 km/h
1904 05-04-2020 14:35:00 18.3 C 5.63 g/m*3 18.3 C 11.3 km/h
1905 05-04-2020 14:40:00 18.6 C 5.57 g/m*3 18.6 C 8.1 km/h
1906 05-04-2020 14:45:00 18.7 C 5.6 g/m*3 18.7 C 11.3 km/h
1907 05-04-2020 14:50:00 18.8 C 5.48 g/m*3 18.8 C 14.5 km/h
1908 05-04-2020 14:55:00 18.6 C 5.57 g/m*3 18.6 C 12.9 km/h
1909 05-04-2020 15:00:00 18.6 C 5.57 g/m*3 18.6 C 6.4 km/h
1910 05-04-2020 15:05:00 18.8 C 5.64 g/m*3 18.8 C 6.4 km/h
1911 05-04-2020 15:10:00 18.9 C 5.51 g/m*3 18.9 C 6.4 km/h
1912 05-04-2020 15:15:00 19 C 5.38 g/m*3 19 C 6.4 km/h
1913 05-04-2020 15:20:00 18.9 C 5.51 g/m*3 18.9 C 11.3 km/h
1914 05-04-2020 15:25:00 18.9 C 5.35 g/m*3 18.9 C 8.1 km/h
1915 05-04-2020 15:30:00 19.1 C 5.41 g/m*3 19.1 C 14.5 km/h
1916 05-04-2020 15:35:00 18.9 C 5.18 g/m*3 18.9 C 14.5 km/h
1917 05-04-2020 15:40:00 18.8 C 5.31 g/m*3 18.8 C 6.4 km/h
1918 05-04-2020 15:45:00 18.9 C 5.67 g/m*3 18.9 C 11.3 km/h
1919 05-04-2020 15:50:00 19 C 5.54 g/m*3 19 C 9.7 km/h
1920 05-04-2020 15:55:00 19.2 C 5.44 g/m*3 19.2 C 11.3 km/h
1921 05-04-2020 16:00:00 19.2 C 5.44 g/m*3 19.2 C 12.9 km/h
1922 05-04-2020 16:05:00 19.3 C 5.31 g/m*3 19.3 C 14.5 km/h
1923 05-04-2020 16:10:00 19.3 C 5.47 g/m*3 19.3 C 19.3 km/h
1924 05-04-2020 16:15:00 19.4 C 5.51 g/m*3 19.4 C 12.9 km/h
1925 05-04-2020 16:20:00 19.5 C 5.54 g/m*3 19.5 C 17.7 km/h
Sensor: Nr:Datum:Temp:Abs-Feuchte:Windchill:Wind:
Aussen-T/F 1926 05-04-2020 16:25:00 19.6 C 5.4 g/m*3 19.6 C 17.7 km/h
1927 05-04-2020 16:30:00 19.6 C 5.74 g/m*3 19.6 C 11.3 km/h
1928 05-04-2020 16:35:00 19.8 C 5.64 g/m*3 19.8 C 11.3 km/h
1929 05-04-2020 16:40:00 19.9 C 5.67 g/m*3 19.9 C 8.1 km/h
1930 05-04-2020 16:45:00 20.3 C 5.63 g/m*3 20.3 C 12.9 km/h
1931 05-04-2020 16:50:00 20.3 C 5.45 g/m*3 20.3 C 16.1 km/h
1932 05-04-2020 16:55:00 20.2 C 5.42 g/m*3 20.2 C 16.1 km/h
1933 05-04-2020 17:00:00 20.2 C 5.42 g/m*3 20.2 C 12.9 km/h
1934 05-04-2020 17:05:00 20.1 C 5.74 g/m*3 20.1 C 12.9 km/h
1935 05-04-2020 17:10:00 20.5 C 5.69 g/m*3 20.5 C 8.1 km/h
1936 05-04-2020 17:15:00 20.9 C 5.83 g/m*3 20.9 C 6.4 km/h
1937 05-04-2020 17:20:00 21.2 C 5.56 g/m*3 21.2 C 6.4 km/h
1938 05-04-2020 17:25:00 21.1 C 5.71 g/m*3 21.1 C 11.3 km/h
1939 05-04-2020 17:30:00 21.2 C 5.56 g/m*3 21.2 C 9.7 km/h
1940 05-04-2020 17:35:00 21.2 C 5.56 g/m*3 21.2 C 12.9 km/h
1941 05-04-2020 17:40:00 21.2 C 5.56 g/m*3 21.2 C 12.9 km/h
1942 05-04-2020 17:45:00 21.1 C 5.53 g/m*3 21.1 C 9.7 km/h
1943 05-04-2020 17:50:00 21 C 5.5 g/m*3 21 C 9.7 km/h
1944 05-04-2020 17:55:00 21.1 C 5.53 g/m*3 21.1 C 8.1 km/h
1945 05-04-2020 18:00:00 20.9 C 5.65 g/m*3 20.9 C 8.1 km/h
1946 05-04-2020 18:05:00 20.9 C 5.46 g/m*3 20.9 C 8.1 km/h
1947 05-04-2020 18:10:00 20.7 C 5.4 g/m*3 20.7 C 14.5 km/h
1948 05-04-2020 18:15:00 20.4 C 5.48 g/m*3 20.4 C 11.3 km/h
1949 05-04-2020 18:20:00 20.5 C 5.52 g/m*3 20.5 C 6.4 km/h
1950 05-04-2020 18:25:00 20.7 C 5.76 g/m*3 20.7 C 8.1 km/h
Sensor: Nr:Datum:Temp:Abs-Feuchte:Windchill:Wind:
Aussen-T/F 1951 05-04-2020 18:30:00 20.7 C 5.58 g/m*3 20.7 C 9.7 km/h
1952 05-04-2020 18:35:00 20.7 C 5.76 g/m*3 20.7 C 9.7 km/h
1953 05-04-2020 18:40:00 20.6 C 5.55 g/m*3 20.6 C 9.7 km/h
1954 05-04-2020 18:45:00 20.4 C 5.48 g/m*3 20.4 C 11.3 km/h
1955 05-04-2020 18:50:00 20.4 C 5.48 g/m*3 20.4 C 6.4 km/h
1956 05-04-2020 18:55:00 20.4 C 5.48 g/m*3 20.4 C 8.1 km/h
1957 05-04-2020 19:00:00 20.3 C 5.45 g/m*3 20.3 C 6.4 km/h
1958 05-04-2020 19:05:00 20.3 C 5.45 g/m*3 20.3 C 4.8 km/h
1959 05-04-2020 19:10:00 20.2 C 5.42 g/m*3 20.2 C 8.1 km/h
1960 05-04-2020 19:15:00 20.1 C 5.56 g/m*3 20.1 C 4.8 km/h
1961 05-04-2020 19:20:00 19.9 C 5.67 g/m*3 19.9 C 1.6 km/h
1962 05-04-2020 19:25:00 19.8 C 6.15 g/m*3 19.8 C 3.2 km/h
1963 05-04-2020 19:30:00 19.6 C 5.91 g/m*3 19.6 C 4.8 km/h
1964 05-04-2020 19:35:00 19.4 C 6.01 g/m*3 19.4 C 1.6 km/h
1965 05-04-2020 19:40:00 19.1 C 6.23 g/m*3 19.1 C 3.2 km/h
1966 05-04-2020 19:45:00 18.6 C 6.21 g/m*3 18.6 C 3.2 km/h
1967 05-04-2020 19:50:00 17.9 C 6.11 g/m*3 17.9 C 4.8 km/h
1968 05-04-2020 19:55:00 17.2 C 6.15 g/m*3 17.2 C 4.8 km/h
1969 05-04-2020 20:00:00 16.4 C 6.14 g/m*3 16.4 C 4.8 km/h
1970 05-04-2020 20:05:00 15.8 C 6.06 g/m*3 15.8 C 6.4 km/h
1971 05-04-2020 20:10:00 15.1 C 6.06 g/m*3 15.1 C 6.4 km/h
1972 05-04-2020 20:15:00 14.6 C 5.88 g/m*3 14.6 C 6.4 km/h
1973 05-04-2020 20:20:00 14.2 C 6.11 g/m*3 14.2 C 6.4 km/h
1974 05-04-2020 20:25:00 13.8 C 5.96 g/m*3 13.8 C 6.4 km/h
1975 05-04-2020 20:30:00 13.4 C 5.93 g/m*3 13.4 C 6.4 km/h
Sensor: Nr:Datum:Temp:Abs-Feuchte:Windchill:Wind:
Aussen-T/F 1976 05-04-2020 20:35:00 13.1 C 5.93 g/m*3 13.1 C 6.4 km/h
1977 05-04-2020 20:40:00 12.8 C 5.94 g/m*3 12.8 C 6.4 km/h
1978 05-04-2020 20:45:00 12.6 C 5.97 g/m*3 12.6 C 4.8 km/h
1979 05-04-2020 20:50:00 12.4 C 5.9 g/m*3 12.4 C 4.8 km/h
1980 05-04-2020 20:55:00 12.3 C 5.86 g/m*3 12.3 C 6.4 km/h
1981 05-04-2020 21:00:00 12.1 C 6.01 g/m*3 12.1 C 6.4 km/h
1982 05-04-2020 21:05:00 11.9 C 5.93 g/m*3 11.9 C 6.4 km/h
1983 05-04-2020 21:10:00 11.8 C 6 g/m*3 11.8 C 6.4 km/h
1984 05-04-2020 21:15:00 11.7 C 5.96 g/m*3 11.7 C 6.4 km/h
1985 05-04-2020 21:20:00 11.6 C 5.92 g/m*3 11.6 C 6.4 km/h
1986 05-04-2020 21:25:00 11.4 C 5.85 g/m*3 11.4 C 4.8 km/h
1987 05-04-2020 21:30:00 11.3 C 5.92 g/m*3 11.3 C 4.8 km/h
1988 05-04-2020 21:35:00 11.2 C 5.88 g/m*3 11.2 C 6.4 km/h
1989 05-04-2020 21:40:00 11.1 C 5.84 g/m*3 11.1 C 6.4 km/h
1990 05-04-2020 21:45:00 10.9 C 5.87 g/m*3 10.9 C 4.8 km/h
1991 05-04-2020 21:50:00 10.8 C 5.83 g/m*3 10.29 C 6.4 km/h
1992 05-04-2020 21:55:00 10.6 C 5.86 g/m*3 10.6 C 4.8 km/h
1993 05-04-2020 22:00:00 10.4 C 5.78 g/m*3 10.4 C 4.8 km/h
1994 05-04-2020 22:05:00 10.3 C 5.84 g/m*3 10.3 C 4.8 km/h
1995 05-04-2020 22:10:00 10.1 C 5.86 g/m*3 10.1 C 3.2 km/h
1996 05-04-2020 22:15:00 9.9 C 5.79 g/m*3 9.9 C 4.8 km/h
1997 05-04-2020 22:20:00 9.7 C 5.72 g/m*3 9.7 C 4.8 km/h
1998 05-04-2020 22:25:00 9.6 C 5.77 g/m*3 9.6 C 3.2 km/h
1999 05-04-2020 22:30:00 9.5 C 5.73 g/m*3 9.5 C 1.6 km/h
2000 05-04-2020 22:35:00 9.4 C 5.79 g/m*3 9.4 C 1.6 km/h
Sensor: Nr:Datum:Temp:Abs-Feuchte:Windchill:Wind:
Aussen-T/F 2001 05-04-2020 22:40:00 9.2 C 5.71 g/m*3 9.2 C 1.6 km/h
2002 05-04-2020 22:45:00 9.1 C 5.68 g/m*3 9.1 C 0 km/h
2003 05-04-2020 22:50:00 8.9 C 5.69 g/m*3 8.9 C 0 km/h
2004 05-04-2020 22:55:00 8.9 C 5.78 g/m*3 8.9 C 0 km/h
2005 05-04-2020 23:00:00 8.8 C 5.83 g/m*3 8.8 C 0 km/h
2006 05-04-2020 23:05:00 8.6 C 5.84 g/m*3 8.6 C 0 km/h
2007 05-04-2020 23:10:00 8.4 C 5.77 g/m*3 8.4 C 1.6 km/h
2008 05-04-2020 23:15:00 8.2 C 5.78 g/m*3 8.2 C 0 km/h
2009 05-04-2020 23:20:00 8.1 C 5.74 g/m*3 8.1 C 0 km/h
2010 05-04-2020 23:25:00 8 C 5.7 g/m*3 8 C 0 km/h
2011 05-04-2020 23:30:00 7.9 C 5.67 g/m*3 7.9 C 0 km/h
2012 05-04-2020 23:35:00 7.8 C 5.63 g/m*3 7.8 C 0 km/h
2013 05-04-2020 23:40:00 7.7 C 5.59 g/m*3 7.7 C 0 km/h
2014 05-04-2020 23:45:00 7.7 C 5.68 g/m*3 7.7 C 0 km/h
2015 05-04-2020 23:50:00 7.6 C 5.64 g/m*3 7.6 C 0 km/h
2016 05-04-2020 23:55:00 7.4 C 5.57 g/m*3 7.4 C 0 km/h
2017 06-04-2020 00:00:00 7.3 C 5.61 g/m*3 7.3 C 0 km/h
2018 06-04-2020 00:05:00 7.2 C 5.57 g/m*3 7.2 C 0 km/h
2019 06-04-2020 00:10:00 7.1 C 5.62 g/m*3 7.1 C 0 km/h
2020 06-04-2020 00:15:00 7.1 C 5.69 g/m*3 7.1 C 0 km/h
2021 06-04-2020 00:20:00 7.1 C 5.69 g/m*3 7.1 C 0 km/h
2022 06-04-2020 00:25:00 7 C 5.66 g/m*3 7 C 0 km/h
2023 06-04-2020 00:30:00 6.9 C 5.54 g/m*3 6.9 C 0 km/h
2024 06-04-2020 00:35:00 6.9 C 5.62 g/m*3 6.9 C 0 km/h
2025 06-04-2020 00:40:00 6.7 C 5.55 g/m*3 6.7 C 0 km/h
Sensor: Nr:Datum:Temp:Abs-Feuchte:Windchill:Wind:
Aussen-T/F 2026 06-04-2020 00:45:00 6.6 C 5.51 g/m*3 6.6 C 0 km/h
2027 06-04-2020 00:50:00 6.5 C 5.62 g/m*3 6.5 C 0 km/h
2028 06-04-2020 00:55:00 6.4 C 5.59 g/m*3 6.4 C 0 km/h
2029 06-04-2020 01:00:00 6.3 C 5.63 g/m*3 6.3 C 0 km/h
2030 06-04-2020 01:05:00 6.2 C 5.59 g/m*3 6.2 C 0 km/h
2031 06-04-2020 01:10:00 6.2 C 5.66 g/m*3 6.2 C 0 km/h
2032 06-04-2020 01:15:00 6.1 C 5.55 g/m*3 6.1 C 0 km/h
2033 06-04-2020 01:20:00 6 C 5.59 g/m*3 6 C 0 km/h
2034 06-04-2020 01:25:00 5.9 C 5.55 g/m*3 5.9 C 0 km/h
2035 06-04-2020 01:30:00 5.8 C 5.52 g/m*3 5.8 C 0 km/h
2036 06-04-2020 01:35:00 5.7 C 5.55 g/m*3 5.7 C 0 km/h
2037 06-04-2020 01:40:00 5.6 C 5.51 g/m*3 5.6 C 0 km/h
2038 06-04-2020 01:45:00 5.5 C 5.55 g/m*3 5.5 C 0 km/h
2039 06-04-2020 01:50:00 5.4 C 5.51 g/m*3 5.4 C 0 km/h
2040 06-04-2020 01:55:00 5.4 C 5.51 g/m*3 5.4 C 0 km/h
2041 06-04-2020 02:00:00 5.4 C 5.58 g/m*3 5.4 C 0 km/h
2042 06-04-2020 02:05:00 5.3 C 5.48 g/m*3 5.3 C 0 km/h
2043 06-04-2020 02:10:00 5.1 C 5.47 g/m*3 5.1 C 0 km/h
2044 06-04-2020 02:15:00 5 C 5.5 g/m*3 5 C 0 km/h
2045 06-04-2020 02:20:00 5 C 5.5 g/m*3 5 C 0 km/h
2046 06-04-2020 02:25:00 4.9 C 5.4 g/m*3 4.9 C 0 km/h
2047 06-04-2020 02:30:00 4.9 C 5.47 g/m*3 4.9 C 0 km/h
2048 06-04-2020 02:35:00 4.8 C 5.43 g/m*3 4.8 C 0 km/h
2049 06-04-2020 02:40:00 4.8 C 5.43 g/m*3 4.8 C 0 km/h
2050 06-04-2020 02:45:00 4.8 C 5.43 g/m*3 4.8 C 0 km/h
Sensor: Nr:Datum:Temp:Abs-Feuchte:Windchill:Wind:
Aussen-T/F 2051 06-04-2020 02:50:00 4.7 C 5.4 g/m*3 4.7 C 0 km/h
2052 06-04-2020 02:55:00 4.6 C 5.36 g/m*3 4.6 C 0 km/h
2053 06-04-2020 03:00:00 4.4 C 5.35 g/m*3 4.4 C 0 km/h
2054 06-04-2020 03:05:00 4.4 C 5.35 g/m*3 4.4 C 0 km/h
2055 06-04-2020 03:10:00 4.3 C 5.32 g/m*3 4.3 C 0 km/h
2056 06-04-2020 03:15:00 4.3 C 5.32 g/m*3 4.3 C 0 km/h
2057 06-04-2020 03:20:00 4.2 C 5.35 g/m*3 4.2 C 0 km/h
2058 06-04-2020 03:25:00 4.2 C 5.35 g/m*3 4.2 C 0 km/h
2059 06-04-2020 03:30:00 4.2 C 5.35 g/m*3 4.2 C 0 km/h
2060 06-04-2020 03:35:00 4.1 C 5.31 g/m*3 4.1 C 0 km/h
2061 06-04-2020 03:40:00 4.1 C 5.31 g/m*3 4.1 C 0 km/h
2062 06-04-2020 03:45:00 4 C 5.28 g/m*3 4 C 0 km/h
2063 06-04-2020 03:50:00 3.9 C 5.24 g/m*3 3.9 C 0 km/h
2064 06-04-2020 03:55:00 3.9 C 5.31 g/m*3 3.9 C 0 km/h
2065 06-04-2020 04:00:00 3.8 C 5.27 g/m*3 3.8 C 0 km/h
2066 06-04-2020 04:05:00 3.8 C 5.27 g/m*3 3.8 C 0 km/h
2067 06-04-2020 04:10:00 3.8 C 5.27 g/m*3 3.8 C 0 km/h
2068 06-04-2020 04:15:00 3.8 C 5.27 g/m*3 3.8 C 0 km/h
2069 06-04-2020 04:20:00 3.8 C 5.27 g/m*3 3.8 C 0 km/h
2070 06-04-2020 04:25:00 3.8 C 5.27 g/m*3 3.8 C 0 km/h
2071 06-04-2020 04:30:00 3.7 C 5.23 g/m*3 3.7 C 0 km/h
2072 06-04-2020 04:35:00 3.6 C 5.2 g/m*3 3.6 C 0 km/h
2073 06-04-2020 04:40:00 3.5 C 5.23 g/m*3 3.5 C 0 km/h
2074 06-04-2020 04:45:00 3.4 C 5.19 g/m*3 3.4 C 0 km/h
2075 06-04-2020 04:50:00 3.3 C 5.16 g/m*3 3.3 C 0 km/h
Sensor: Nr:Datum:Temp:Abs-Feuchte:Windchill:Wind:
Aussen-T/F 2076 06-04-2020 04:55:00 3.2 C 5.18 g/m*3 3.2 C 0 km/h
2077 06-04-2020 05:00:00 3.2 C 5.18 g/m*3 3.2 C 0 km/h
2078 06-04-2020 05:05:00 3.2 C 5.18 g/m*3 3.2 C 0 km/h
2079 06-04-2020 05:10:00 3.2 C 5.18 g/m*3 3.2 C 0 km/h
2080 06-04-2020 05:15:00 3.2 C 5.18 g/m*3 3.2 C 0 km/h
2081 06-04-2020 05:20:00 3.1 C 5.15 g/m*3 3.1 C 0 km/h
2082 06-04-2020 05:25:00 3 C 5.11 g/m*3 3 C 0 km/h
2083 06-04-2020 05:30:00 2.9 C 5.08 g/m*3 2.9 C 0 km/h
2084 06-04-2020 05:35:00 2.9 C 5.14 g/m*3 2.9 C 0 km/h
2085 06-04-2020 05:40:00 2.9 C 5.14 g/m*3 2.9 C 0 km/h
2086 06-04-2020 05:45:00 2.8 C 5.1 g/m*3 2.8 C 0 km/h
2087 06-04-2020 05:50:00 2.8 C 5.1 g/m*3 2.8 C 0 km/h
2088 06-04-2020 05:55:00 2.7 C 5.07 g/m*3 2.7 C 0 km/h
2089 06-04-2020 06:00:00 2.6 C 5.03 g/m*3 2.6 C 0 km/h
2090 06-04-2020 06:05:00 2.6 C 5.09 g/m*3 2.6 C 0 km/h
2091 06-04-2020 06:10:00 2.4 C 5.02 g/m*3 2.4 C 0 km/h
2092 06-04-2020 06:15:00 2.4 C 5.02 g/m*3 2.4 C 0 km/h
2093 06-04-2020 06:20:00 2.3 C 4.99 g/m*3 2.3 C 0 km/h
2094 06-04-2020 06:25:00 2.2 C 4.96 g/m*3 2.2 C 0 km/h
2095 06-04-2020 06:30:00 2.2 C 5.01 g/m*3 2.2 C 0 km/h
2096 06-04-2020 06:35:00 2.1 C 4.98 g/m*3 2.1 C 0 km/h
2097 06-04-2020 06:40:00 2.1 C 4.98 g/m*3 2.1 C 0 km/h
2098 06-04-2020 06:45:00 2.1 C 4.98 g/m*3 2.1 C 0 km/h
2099 06-04-2020 06:50:00 2.1 C 4.98 g/m*3 2.1 C 0 km/h
2100 06-04-2020 06:55:00 2.1 C 4.98 g/m*3 2.1 C 0 km/h
Sensor: Nr:Datum:Temp:Abs-Feuchte:Windchill:Wind:
Aussen-T/F 2101 06-04-2020 07:00:00 2.1 C 5.04 g/m*3 2.1 C 0 km/h
2102 06-04-2020 07:05:00 2.2 C 5.07 g/m*3 2.2 C 0 km/h
2103 06-04-2020 07:10:00 2.2 C 5.07 g/m*3 2.2 C 0 km/h
2104 06-04-2020 07:15:00 2.3 C 5.1 g/m*3 2.3 C 0 km/h
2105 06-04-2020 07:20:00 2.4 C 5.2 g/m*3 2.4 C 0 km/h
2106 06-04-2020 07:25:00 2.4 C 5.14 g/m*3 2.4 C 0 km/h
2107 06-04-2020 07:30:00 2.4 C 5.14 g/m*3 2.4 C 0 km/h
2108 06-04-2020 07:35:00 2.4 C 5.14 g/m*3 2.4 C 0 km/h
2109 06-04-2020 07:40:00 2.4 C 5.14 g/m*3 2.4 C 0 km/h
2110 06-04-2020 07:45:00 2.4 C 5.14 g/m*3 2.4 C 0 km/h
2111 06-04-2020 07:50:00 2.6 C 5.27 g/m*3 2.6 C 0 km/h
2112 06-04-2020 07:55:00 2.7 C 5.24 g/m*3 2.7 C 0 km/h
2113 06-04-2020 08:00:00 2.6 C 5.21 g/m*3 2.6 C 0 km/h
2114 06-04-2020 08:05:00 2.7 C 5.24 g/m*3 2.7 C 0 km/h
2115 06-04-2020 08:10:00 2.7 C 5.3 g/m*3 2.7 C 0 km/h
2116 06-04-2020 08:15:00 2.8 C 5.34 g/m*3 2.8 C 0 km/h
2117 06-04-2020 08:20:00 2.9 C 5.37 g/m*3 2.9 C 0 km/h
2118 06-04-2020 08:25:00 3.1 C 5.45 g/m*3 3.1 C 0 km/h
2119 06-04-2020 08:30:00 3.4 C 5.5 g/m*3 3.4 C 1.6 km/h
2120 06-04-2020 08:35:00 3.6 C 5.57 g/m*3 3.6 C 0 km/h
2121 06-04-2020 08:40:00 3.7 C 5.55 g/m*3 3.7 C 0 km/h
2122 06-04-2020 08:45:00 3.8 C 5.58 g/m*3 3.8 C 0 km/h
2123 06-04-2020 08:50:00 3.9 C 5.62 g/m*3 3.9 C 0 km/h
2124 06-04-2020 08:55:00 3.9 C 5.56 g/m*3 3.9 C 0 km/h
2125 06-04-2020 09:00:00 3.9 C 5.56 g/m*3 3.9 C 0 km/h
Sensor: Nr:Datum:Temp:Abs-Feuchte:Windchill:Wind:
Aussen-T/F 2126 06-04-2020 09:05:00 4 C 5.59 g/m*3 4 C 0 km/h
2127 06-04-2020 09:10:00 4.1 C 5.63 g/m*3 4.1 C 0 km/h
2128 06-04-2020 09:15:00 4.2 C 5.67 g/m*3 4.2 C 1.6 km/h
2129 06-04-2020 09:20:00 4.2 C 5.67 g/m*3 4.2 C 0 km/h
2130 06-04-2020 09:25:00 4.3 C 5.71 g/m*3 4.3 C 0 km/h
2131 06-04-2020 09:30:00 4.4 C 5.75 g/m*3 4.4 C 0 km/h
2132 06-04-2020 09:35:00 4.6 C 5.82 g/m*3 4.6 C 0 km/h
2133 06-04-2020 09:40:00 4.8 C 5.9 g/m*3 4.8 C 0 km/h
2134 06-04-2020 09:45:00 5 C 5.98 g/m*3 5 C 0 km/h
2135 06-04-2020 09:50:00 5.2 C 6.06 g/m*3 5.2 C 0 km/h
2136 06-04-2020 09:55:00 5.3 C 6.1 g/m*3 5.3 C 0 km/h
2137 06-04-2020 10:00:00 5.6 C 6.15 g/m*3 5.6 C 0 km/h
2138 06-04-2020 10:05:00 5.9 C 6.2 g/m*3 5.9 C 0 km/h
2139 06-04-2020 10:10:00 6.2 C 6.25 g/m*3 6.2 C 0 km/h
2140 06-04-2020 10:15:00 6.4 C 6.33 g/m*3 6.4 C 0 km/h
2141 06-04-2020 10:20:00 6.7 C 6.38 g/m*3 6.7 C 0 km/h
2142 06-04-2020 10:25:00 7.1 C 6.47 g/m*3 7.1 C 0 km/h
2143 06-04-2020 10:30:00 7.4 C 6.52 g/m*3 7.4 C 0 km/h
2144 06-04-2020 10:35:00 8 C 6.61 g/m*3 8 C 0 km/h
2145 06-04-2020 10:40:00 8.4 C 6.62 g/m*3 8.4 C 0 km/h
2146 06-04-2020 10:45:00 8.8 C 6.7 g/m*3 8.8 C 3.2 km/h
2147 06-04-2020 10:50:00 9.4 C 6.87 g/m*3 9.4 C 0 km/h
2148 06-04-2020 10:55:00 9.9 C 6.82 g/m*3 9.9 C 0 km/h
2149 06-04-2020 11:00:00 10.5 C 6.98 g/m*3 10.5 C 0 km/h
2150 06-04-2020 11:05:00 11.2 C 6.89 g/m*3 11.2 C 0 km/h
Sensor: Nr:Datum:Temp:Abs-Feuchte:Windchill:Wind:
Aussen-T/F 2151 06-04-2020 11:10:00 11.7 C 6.9 g/m*3 11.7 C 0 km/h
2152 06-04-2020 11:15:00 12.3 C 7.28 g/m*3 12.3 C 0 km/h
2153 06-04-2020 11:20:00 12.7 C 6.9 g/m*3 12.7 C 0 km/h
2154 06-04-2020 11:25:00 13.3 C 6.47 g/m*3 13.3 C 6.4 km/h
2155 06-04-2020 11:30:00 14.2 C 6.59 g/m*3 14.2 C 11.3 km/h
2156 06-04-2020 11:35:00 15.3 C 6.4 g/m*3 15.3 C 12.9 km/h
2157 06-04-2020 11:40:00 16.1 C 6.17 g/m*3 16.1 C 8.1 km/h
2158 06-04-2020 11:45:00 16.7 C 5.97 g/m*3 16.7 C 17.7 km/h
2159 06-04-2020 11:50:00 17.1 C 6.26 g/m*3 17.1 C 19.3 km/h
2160 06-04-2020 11:55:00 17.3 C 6.04 g/m*3 17.3 C 16.1 km/h
2161 06-04-2020 12:00:00 17.6 C 6 g/m*3 17.6 C 9.7 km/h
2162 06-04-2020 12:05:00 17.9 C 5.8 g/m*3 17.9 C 16.1 km/h
2163 06-04-2020 12:10:00 18.1 C 5.87 g/m*3 18.1 C 12.9 km/h
2164 06-04-2020 12:15:00 18.3 C 5.79 g/m*3 18.3 C 14.5 km/h
2165 06-04-2020 12:20:00 18.6 C 6.05 g/m*3 18.6 C 9.7 km/h
2166 06-04-2020 12:25:00 18.7 C 5.76 g/m*3 18.7 C 12.9 km/h
2167 06-04-2020 12:30:00 18.9 C 5.67 g/m*3 18.9 C 11.3 km/h
2168 06-04-2020 12:35:00 19.1 C 5.74 g/m*3 19.1 C 14.5 km/h
2169 06-04-2020 12:40:00 19.2 C 5.77 g/m*3 19.2 C 14.5 km/h
2170 06-04-2020 12:45:00 19.3 C 5.81 g/m*3 19.3 C 11.3 km/h
2171 06-04-2020 12:50:00 19.4 C 5.84 g/m*3 19.4 C 12.9 km/h
2172 06-04-2020 12:55:00 19.4 C 6.01 g/m*3 19.4 C 11.3 km/h
2173 06-04-2020 13:00:00 19.6 C 5.74 g/m*3 19.6 C 11.3 km/h
2174 06-04-2020 13:05:00 19.7 C 5.94 g/m*3 19.7 C 11.3 km/h
2175 06-04-2020 13:10:00 19.8 C 5.98 g/m*3 19.8 C 11.3 km/h
Sensor: Nr:Datum:Temp:Abs-Feuchte:Windchill:Wind:
Aussen-T/F 2176 06-04-2020 13:15:00 19.9 C 5.84 g/m*3 19.9 C 8.1 km/h
2177 06-04-2020 13:20:00 20.1 C 5.91 g/m*3 20.1 C 12.9 km/h
2178 06-04-2020 13:25:00 20.2 C 5.94 g/m*3 20.2 C 9.7 km/h
2179 06-04-2020 13:30:00 20.2 C 6.12 g/m*3 20.2 C 8.1 km/h
2180 06-04-2020 13:35:00 20.3 C 6.16 g/m*3 20.3 C 6.4 km/h
2181 06-04-2020 13:40:00 20.4 C 6.37 g/m*3 20.4 C 9.7 km/h
2182 06-04-2020 13:45:00 20.5 C 6.41 g/m*3 20.5 C 9.7 km/h
2183 06-04-2020 13:50:00 20.7 C 6.12 g/m*3 20.7 C 8.1 km/h
2184 06-04-2020 13:55:00 20.8 C 6.16 g/m*3 20.8 C 8.1 km/h
2185 06-04-2020 14:00:00 21 C 6.23 g/m*3 21 C 9.7 km/h
2186 06-04-2020 14:05:00 21.2 C 6.3 g/m*3 21.2 C 11.3 km/h
2187 06-04-2020 14:10:00 21.2 C 6.12 g/m*3 21.2 C 11.3 km/h
2188 06-04-2020 14:15:00 21.3 C 6.52 g/m*3 21.3 C 6.4 km/h
2189 06-04-2020 14:20:00 21.5 C 6.03 g/m*3 21.5 C 9.7 km/h
2190 06-04-2020 14:25:00 21.7 C 6.1 g/m*3 21.7 C 8.1 km/h
2191 06-04-2020 14:30:00 21.9 C 6.37 g/m*3 21.9 C 8.1 km/h
2192 06-04-2020 14:35:00 22.2 C 6.28 g/m*3 22.2 C 9.7 km/h
2193 06-04-2020 14:40:00 22.4 C 5.96 g/m*3 22.4 C 14.5 km/h
2194 06-04-2020 14:45:00 22.6 C 6.03 g/m*3 22.6 C 17.7 km/h
2195 06-04-2020 14:50:00 22.6 C 5.62 g/m*3 22.6 C 12.9 km/h
2196 06-04-2020 14:55:00 22.7 C 5.05 g/m*3 22.7 C 11.3 km/h
2197 06-04-2020 15:00:00 22.8 C 5.08 g/m*3 22.8 C 12.9 km/h
2198 06-04-2020 15:05:00 22.9 C 4.7 g/m*3 22.9 C 16.1 km/h
2199 06-04-2020 15:10:00 22.8 C 4.88 g/m*3 22.8 C 14.5 km/h
2200 06-04-2020 15:15:00 22.7 C 5.05 g/m*3 22.7 C 20.9 km/h
Sensor: Nr:Datum:Temp:Abs-Feuchte:Windchill:Wind:
Aussen-T/F 2201 06-04-2020 15:20:00 22.6 C 5.22 g/m*3 22.6 C 17.7 km/h
2202 06-04-2020 15:25:00 22.6 C 5.22 g/m*3 22.6 C 20.9 km/h
2203 06-04-2020 15:30:00 22.6 C 4.82 g/m*3 22.6 C 22.5 km/h
2204 06-04-2020 15:35:00 22.6 C 5.02 g/m*3 22.6 C 16.1 km/h
2205 06-04-2020 15:40:00 22.6 C 5.02 g/m*3 22.6 C 25.7 km/h
2206 06-04-2020 15:45:00 22.6 C 5.02 g/m*3 22.6 C 20.9 km/h
2207 06-04-2020 15:50:00 22.6 C 5.02 g/m*3 22.6 C 19.3 km/h
2208 06-04-2020 15:55:00 22.8 C 5.28 g/m*3 22.8 C 11.3 km/h
2209 06-04-2020 16:00:00 23 C 5.34 g/m*3 23 C 4.8 km/h
2210 06-04-2020 16:05:00 23.2 C 5.41 g/m*3 23.2 C 6.4 km/h
2211 06-04-2020 16:10:00 23.4 C 5.26 g/m*3 23.4 C 16.1 km/h
2212 06-04-2020 16:15:00 23.6 C 5.32 g/m*3 23.6 C 11.3 km/h
2213 06-04-2020 16:20:00 23.8 C 5.16 g/m*3 23.8 C 12.9 km/h
2214 06-04-2020 16:25:00 23.8 C 4.95 g/m*3 23.8 C 16.1 km/h
2215 06-04-2020 16:30:00 23.9 C 5.62 g/m*3 23.9 C 11.3 km/h
2216 06-04-2020 16:35:00 23.9 C 5.62 g/m*3 23.9 C 11.3 km/h
2217 06-04-2020 16:40:00 24.1 C 5.91 g/m*3 24.1 C 11.3 km/h
2218 06-04-2020 16:45:00 24.3 C 5.75 g/m*3 24.3 C 11.3 km/h
2219 06-04-2020 16:50:00 24.3 C 5.75 g/m*3 24.3 C 11.3 km/h
2220 06-04-2020 16:55:00 24.1 C 6.13 g/m*3 24.1 C 16.1 km/h
2221 06-04-2020 17:00:00 23.8 C 5.81 g/m*3 23.8 C 17.7 km/h
2222 06-04-2020 17:05:00 23.8 C 6.02 g/m*3 23.8 C 14.5 km/h
2223 06-04-2020 17:10:00 23.6 C 5.74 g/m*3 23.6 C 16.1 km/h
2224 06-04-2020 17:15:00 23.7 C 5.99 g/m*3 23.7 C 14.5 km/h
2225 06-04-2020 17:20:00 23.8 C 6.02 g/m*3 23.8 C 12.9 km/h
Sensor: Nr:Datum:Temp:Abs-Feuchte:Windchill:Wind:
Aussen-T/F 2226 06-04-2020 17:25:00 23.9 C 5.62 g/m*3 23.9 C 16.1 km/h
2227 06-04-2020 17:30:00 23.9 C 5.84 g/m*3 23.9 C 17.7 km/h
2228 06-04-2020 17:35:00 23.8 C 5.59 g/m*3 23.8 C 14.5 km/h
2229 06-04-2020 17:40:00 23.7 C 5.78 g/m*3 23.7 C 19.3 km/h
2230 06-04-2020 17:45:00 23.9 C 6.06 g/m*3 23.9 C 12.9 km/h
2231 06-04-2020 17:50:00 24.1 C 5.69 g/m*3 24.1 C 16.1 km/h
2232 06-04-2020 17:55:00 23.9 C 5.62 g/m*3 23.9 C 11.3 km/h
2233 06-04-2020 18:00:00 23.8 C 5.81 g/m*3 23.8 C 14.5 km/h
2234 06-04-2020 18:05:00 23.7 C 5.56 g/m*3 23.7 C 14.5 km/h
2235 06-04-2020 18:10:00 23.7 C 5.56 g/m*3 23.7 C 16.1 km/h
2236 06-04-2020 18:15:00 23.4 C 5.47 g/m*3 23.4 C 12.9 km/h
2237 06-04-2020 18:20:00 23.5 C 5.71 g/m*3 23.5 C 11.3 km/h
2238 06-04-2020 18:25:00 23.6 C 5.53 g/m*3 23.6 C 12.9 km/h
2239 06-04-2020 18:30:00 23.5 C 5.5 g/m*3 23.5 C 16.1 km/h
2240 06-04-2020 18:35:00 23.4 C 5.68 g/m*3 23.4 C 12.9 km/h
2241 06-04-2020 18:40:00 23.3 C 5.44 g/m*3 23.3 C 11.3 km/h
2242 06-04-2020 18:45:00 23.3 C 5.44 g/m*3 23.3 C 9.7 km/h
2243 06-04-2020 18:50:00 23.2 C 5.61 g/m*3 23.2 C 12.9 km/h
2244 06-04-2020 18:55:00 23.1 C 5.58 g/m*3 23.1 C 11.3 km/h
2245 06-04-2020 19:00:00 22.9 C 5.52 g/m*3 22.9 C 11.3 km/h
2246 06-04-2020 19:05:00 22.8 C 5.69 g/m*3 22.8 C 8.1 km/h
2247 06-04-2020 19:10:00 22.7 C 5.86 g/m*3 22.7 C 9.7 km/h
2248 06-04-2020 19:15:00 22.6 C 6.23 g/m*3 22.6 C 4.8 km/h
2249 06-04-2020 19:20:00 22.3 C 6.12 g/m*3 22.3 C 9.7 km/h
2250 06-04-2020 19:25:00 22 C 6.02 g/m*3 22 C 4.8 km/h
Sensor: Nr:Datum:Temp:Abs-Feuchte:Windchill:Wind:
Aussen-T/F 2251 06-04-2020 19:30:00 21.7 C 5.91 g/m*3 21.7 C 6.4 km/h
2252 06-04-2020 19:35:00 21.3 C 6.34 g/m*3 21.3 C 3.2 km/h
2253 06-04-2020 19:40:00 20.8 C 6.52 g/m*3 20.8 C 6.4 km/h
2254 06-04-2020 19:45:00 20.4 C 6.19 g/m*3 20.4 C 4.8 km/h
2255 06-04-2020 19:50:00 20 C 6.39 g/m*3 20 C 6.4 km/h
2256 06-04-2020 19:55:00 19.5 C 6.38 g/m*3 19.5 C 3.2 km/h
2257 06-04-2020 20:00:00 18.9 C 6.48 g/m*3 18.9 C 6.4 km/h
2258 06-04-2020 20:05:00 18.2 C 6.37 g/m*3 18.2 C 6.4 km/h
2259 06-04-2020 20:10:00 17.6 C 6.45 g/m*3 17.6 C 6.4 km/h
2260 06-04-2020 20:15:00 17.1 C 6.55 g/m*3 17.1 C 6.4 km/h
2261 06-04-2020 20:20:00 16.6 C 6.36 g/m*3 16.6 C 6.4 km/h
2262 06-04-2020 20:25:00 16.2 C 6.34 g/m*3 16.2 C 6.4 km/h
2263 06-04-2020 20:30:00 15.8 C 6.46 g/m*3 15.8 C 6.4 km/h
2264 06-04-2020 20:35:00 15.5 C 6.34 g/m*3 15.5 C 6.4 km/h
2265 06-04-2020 20:40:00 15.3 C 6.53 g/m*3 15.3 C 4.8 km/h
2266 06-04-2020 20:45:00 15 C 6.41 g/m*3 15 C 4.8 km/h
2267 06-04-2020 20:50:00 14.7 C 6.55 g/m*3 14.7 C 3.2 km/h
2268 06-04-2020 20:55:00 14.5 C 6.59 g/m*3 14.5 C 4.8 km/h
2269 06-04-2020 21:00:00 14.2 C 6.47 g/m*3 14.2 C 4.8 km/h
2270 06-04-2020 21:05:00 14 C 6.51 g/m*3 14 C 4.8 km/h
2271 06-04-2020 21:10:00 13.9 C 6.47 g/m*3 13.9 C 4.8 km/h
2272 06-04-2020 21:15:00 13.7 C 6.51 g/m*3 13.7 C 3.2 km/h
2273 06-04-2020 21:20:00 13.6 C 6.59 g/m*3 13.6 C 3.2 km/h
2274 06-04-2020 21:25:00 13.3 C 6.47 g/m*3 13.3 C 1.6 km/h
2275 06-04-2020 21:30:00 13.2 C 6.54 g/m*3 13.2 C 3.2 km/h
Sensor: Nr:Datum:Temp:Abs-Feuchte:Windchill:Wind:
Aussen-T/F 2276 06-04-2020 21:35:00 12.9 C 6.42 g/m*3 12.9 C 0 km/h
2277 06-04-2020 21:40:00 12.8 C 6.5 g/m*3 12.8 C 0 km/h
2278 06-04-2020 21:45:00 12.6 C 6.31 g/m*3 12.6 C 0 km/h
2279 06-04-2020 21:50:00 12.3 C 6.3 g/m*3 12.3 C 0 km/h
2280 06-04-2020 21:55:00 12.1 C 6.33 g/m*3 12.1 C 1.6 km/h
2281 06-04-2020 22:00:00 12 C 6.39 g/m*3 12 C 1.6 km/h
2282 06-04-2020 22:05:00 11.9 C 6.35 g/m*3 11.9 C 1.6 km/h
2283 06-04-2020 22:10:00 11.8 C 6.53 g/m*3 11.8 C 1.6 km/h
2284 06-04-2020 22:15:00 11.6 C 6.44 g/m*3 11.6 C 0 km/h
2285 06-04-2020 22:20:00 11.3 C 6.32 g/m*3 11.3 C 0 km/h
2286 06-04-2020 22:25:00 11 C 6.31 g/m*3 11 C 1.6 km/h
2287 06-04-2020 22:30:00 10.8 C 6.33 g/m*3 10.8 C 0 km/h
2288 06-04-2020 22:35:00 10.7 C 6.29 g/m*3 10.7 C 1.6 km/h
2289 06-04-2020 22:40:00 10.6 C 6.34 g/m*3 10.6 C 1.6 km/h
2290 06-04-2020 22:45:00 10.4 C 6.17 g/m*3 10.4 C 0 km/h
2291 06-04-2020 22:50:00 10.4 C 6.17 g/m*3 10.4 C 0 km/h
2292 06-04-2020 22:55:00 10.3 C 6.22 g/m*3 10.3 C 0 km/h
2293 06-04-2020 23:00:00 10.2 C 6.19 g/m*3 10.2 C 1.6 km/h
2294 06-04-2020 23:05:00 10.2 C 6.19 g/m*3 10.2 C 0 km/h
2295 06-04-2020 23:10:00 10.1 C 6.15 g/m*3 10.1 C 0 km/h
2296 06-04-2020 23:15:00 10.1 C 6.05 g/m*3 10.1 C 0 km/h
2297 06-04-2020 23:20:00 10.1 C 6.15 g/m*3 10.1 C 0 km/h
2298 06-04-2020 23:25:00 10.1 C 6.15 g/m*3 10.1 C 0 km/h
2299 06-04-2020 23:30:00 10.1 C 6.15 g/m*3 10.1 C 1.6 km/h
2300 06-04-2020 23:35:00 9.9 C 6.07 g/m*3 9.9 C 0 km/h
Sensor: Nr:Datum:Temp:Abs-Feuchte:Windchill:Wind:
Aussen-T/F 2301 06-04-2020 23:40:00 9.8 C 6.03 g/m*3 9.8 C 0 km/h
2302 06-04-2020 23:45:00 9.8 C 6.12 g/m*3 9.8 C 0 km/h
2303 06-04-2020 23:50:00 9.8 C 6.22 g/m*3 9.8 C 3.2 km/h
2304 06-04-2020 23:55:00 9.9 C 6.35 g/m*3 8.06 C 12.9 km/h
2305 07-04-2020 00:00:00 10 C 6.39 g/m*3 8.42 C 11.3 km/h
2306 07-04-2020 00:05:00 10.1 C 6.43 g/m*3 10.1 C 3.2 km/h
2307 07-04-2020 00:10:00 10.1 C 6.52 g/m*3 10.1 C 1.6 km/h
2308 07-04-2020 00:15:00 9.8 C 6.4 g/m*3 9.8 C 1.6 km/h
2309 07-04-2020 00:20:00 9.6 C 6.41 g/m*3 9.6 C 0 km/h
2310 07-04-2020 00:25:00 9.4 C 6.33 g/m*3 9.4 C 0 km/h
2311 07-04-2020 00:30:00 9.3 C 6.29 g/m*3 9.3 C 1.6 km/h
2312 07-04-2020 00:35:00 9.3 C 6.29 g/m*3 9.3 C 0 km/h
2313 07-04-2020 00:40:00 9.3 C 6.29 g/m*3 9.3 C 1.6 km/h
2314 07-04-2020 00:45:00 9.3 C 6.29 g/m*3 9.3 C 1.6 km/h
2315 07-04-2020 00:50:00 9.3 C 6.29 g/m*3 9.3 C 0 km/h
2316 07-04-2020 00:55:00 9.3 C 6.38 g/m*3 9.3 C 0 km/h
2317 07-04-2020 01:00:00 9.2 C 6.34 g/m*3 9.2 C 0 km/h
2318 07-04-2020 01:05:00 9.2 C 6.43 g/m*3 9.2 C 0 km/h
2319 07-04-2020 01:10:00 9.2 C 6.43 g/m*3 9.2 C 0 km/h
2320 07-04-2020 01:15:00 9.3 C 6.47 g/m*3 9.3 C 0 km/h
2321 07-04-2020 01:20:00 9.4 C 6.42 g/m*3 9.4 C 1.6 km/h
2322 07-04-2020 01:25:00 9.6 C 6.6 g/m*3 9.6 C 0 km/h
2323 07-04-2020 01:30:00 9.7 C 6.55 g/m*3 9.7 C 3.2 km/h
2324 07-04-2020 01:35:00 9.8 C 6.49 g/m*3 9.8 C 4.8 km/h
2325 07-04-2020 01:40:00 10 C 6.86 g/m*3 10 C 4.8 km/h
Sensor: Nr:Datum:Temp:Abs-Feuchte:Windchill:Wind:
Aussen-T/F 2326 07-04-2020 01:45:00 10.2 C 6.76 g/m*3 10.2 C 3.2 km/h
2327 07-04-2020 01:50:00 10.3 C 6.8 g/m*3 10.3 C 0 km/h
2328 07-04-2020 01:55:00 10.3 C 6.7 g/m*3 10.3 C 0 km/h
2329 07-04-2020 02:00:00 10.3 C 6.7 g/m*3 10.3 C 0 km/h
2330 07-04-2020 02:05:00 10.1 C 6.71 g/m*3 10.1 C 0 km/h
2331 07-04-2020 02:10:00 9.9 C 6.63 g/m*3 9.9 C 0 km/h
2332 07-04-2020 02:15:00 9.8 C 6.59 g/m*3 9.8 C 0 km/h
2333 07-04-2020 02:20:00 9.6 C 6.6 g/m*3 9.6 C 0 km/h
2334 07-04-2020 02:25:00 9.3 C 6.56 g/m*3 9.3 C 0 km/h
2335 07-04-2020 02:30:00 9.1 C 6.57 g/m*3 9.1 C 0 km/h
2336 07-04-2020 02:35:00 8.9 C 6.48 g/m*3 8.9 C 0 km/h
2337 07-04-2020 02:40:00 8.8 C 6.53 g/m*3 8.8 C 0 km/h
2338 07-04-2020 02:45:00 8.6 C 6.44 g/m*3 8.6 C 0 km/h
2339 07-04-2020 02:50:00 8.3 C 6.41 g/m*3 8.3 C 0 km/h
2340 07-04-2020 02:55:00 8.2 C 6.45 g/m*3 8.2 C 3.2 km/h
2341 07-04-2020 03:00:00 8.2 C 6.53 g/m*3 8.2 C 0 km/h
2342 07-04-2020 03:05:00 8.1 C 6.49 g/m*3 8.1 C 0 km/h
2343 07-04-2020 03:10:00 8.1 C 6.57 g/m*3 8.1 C 0 km/h
2344 07-04-2020 03:15:00 8 C 6.53 g/m*3 8 C 0 km/h
2345 07-04-2020 03:20:00 8.1 C 6.66 g/m*3 8.1 C 0 km/h
2346 07-04-2020 03:25:00 8.1 C 6.74 g/m*3 8.1 C 0 km/h
2347 07-04-2020 03:30:00 8.2 C 6.7 g/m*3 8.2 C 0 km/h
2348 07-04-2020 03:35:00 8.2 C 6.7 g/m*3 8.2 C 0 km/h
2349 07-04-2020 03:40:00 8.2 C 6.7 g/m*3 8.2 C 0 km/h
2350 07-04-2020 03:45:00 8.2 C 6.7 g/m*3 8.2 C 1.6 km/h
Sensor: Nr:Datum:Temp:Abs-Feuchte:Windchill:Wind:
Aussen-T/F 2351 07-04-2020 03:50:00 8.2 C 6.78 g/m*3 8.2 C 0 km/h
2352 07-04-2020 03:55:00 8.2 C 6.78 g/m*3 8.2 C 0 km/h
2353 07-04-2020 04:00:00 8.2 C 6.78 g/m*3 8.2 C 0 km/h
2354 07-04-2020 04:05:00 8.3 C 6.83 g/m*3 8.3 C 0 km/h
2355 07-04-2020 04:10:00 8.3 C 6.83 g/m*3 8.3 C 0 km/h
2356 07-04-2020 04:15:00 8.2 C 6.78 g/m*3 8.2 C 0 km/h
2357 07-04-2020 04:20:00 8.2 C 6.7 g/m*3 8.2 C 0 km/h
2358 07-04-2020 04:25:00 8.2 C 6.7 g/m*3 8.2 C 0 km/h
2359 07-04-2020 04:30:00 8.1 C 6.66 g/m*3 8.1 C 0 km/h
2360 07-04-2020 04:35:00 7.9 C 6.57 g/m*3 7.9 C 0 km/h
2361 07-04-2020 04:40:00 7.7 C 6.57 g/m*3 7.7 C 0 km/h
2362 07-04-2020 04:45:00 7.6 C 6.61 g/m*3 7.6 C 0 km/h
2363 07-04-2020 04:50:00 7.6 C 6.61 g/m*3 7.6 C 0 km/h
2364 07-04-2020 04:55:00 7.5 C 6.56 g/m*3 7.5 C 0 km/h
2365 07-04-2020 05:00:00 7.3 C 6.48 g/m*3 7.3 C 0 km/h
2366 07-04-2020 05:05:00 7.2 C 6.52 g/m*3 7.2 C 0 km/h
2367 07-04-2020 05:10:00 7.1 C 6.47 g/m*3 7.1 C 0 km/h
2368 07-04-2020 05:15:00 6.9 C 6.39 g/m*3 6.9 C 0 km/h
2369 07-04-2020 05:20:00 6.8 C 6.42 g/m*3 6.8 C 0 km/h
2370 07-04-2020 05:25:00 6.7 C 6.38 g/m*3 6.7 C 0 km/h
2371 07-04-2020 05:30:00 6.7 C 6.46 g/m*3 6.7 C 0 km/h
2372 07-04-2020 05:35:00 6.6 C 6.42 g/m*3 6.6 C 0 km/h
2373 07-04-2020 05:40:00 6.4 C 6.33 g/m*3 6.4 C 0 km/h
2374 07-04-2020 05:45:00 6.4 C 6.41 g/m*3 6.4 C 0 km/h
2375 07-04-2020 05:50:00 6.3 C 6.37 g/m*3 6.3 C 0 km/h
Sensor: Nr:Datum:Temp:Abs-Feuchte:Windchill:Wind:
Aussen-T/F 2376 07-04-2020 05:55:00 6.3 C 6.44 g/m*3 6.3 C 0 km/h
2377 07-04-2020 06:00:00 6.3 C 6.44 g/m*3 6.3 C 0 km/h
2378 07-04-2020 06:05:00 6.3 C 6.44 g/m*3 6.3 C 0 km/h
2379 07-04-2020 06:10:00 6.2 C 6.32 g/m*3 6.2 C 0 km/h
2380 07-04-2020 06:15:00 6.1 C 6.36 g/m*3 6.1 C 0 km/h
2381 07-04-2020 06:20:00 6.1 C 6.36 g/m*3 6.1 C 0 km/h
2382 07-04-2020 06:25:00 6.1 C 6.36 g/m*3 6.1 C 0 km/h
2383 07-04-2020 06:30:00 5.9 C 6.27 g/m*3 5.9 C 0 km/h
2384 07-04-2020 06:35:00 5.8 C 6.23 g/m*3 5.8 C 0 km/h
2385 07-04-2020 06:40:00 5.8 C 6.3 g/m*3 5.8 C 0 km/h
2386 07-04-2020 06:45:00 5.8 C 6.3 g/m*3 5.8 C 0 km/h
2387 07-04-2020 06:50:00 5.7 C 6.26 g/m*3 5.7 C 0 km/h
2388 07-04-2020 06:55:00 5.6 C 6.22 g/m*3 5.6 C 0 km/h
2389 07-04-2020 07:00:00 5.5 C 6.18 g/m*3 5.5 C 0 km/h
2390 07-04-2020 07:05:00 5.4 C 6.21 g/m*3 5.4 C 0 km/h
2391 07-04-2020 07:10:00 5.4 C 6.21 g/m*3 5.4 C 0 km/h
2392 07-04-2020 07:15:00 5.4 C 6.28 g/m*3 5.4 C 0 km/h
2393 07-04-2020 07:20:00 5.5 C 6.32 g/m*3 5.5 C 0 km/h
2394 07-04-2020 07:25:00 5.6 C 6.36 g/m*3 5.6 C 0 km/h
2395 07-04-2020 07:30:00 5.6 C 6.43 g/m*3 5.6 C 0 km/h
2396 07-04-2020 07:35:00 5.7 C 6.4 g/m*3 5.7 C 0 km/h
2397 07-04-2020 07:40:00 5.8 C 6.52 g/m*3 5.8 C 0 km/h
2398 07-04-2020 07:45:00 5.9 C 6.56 g/m*3 5.9 C 0 km/h
2399 07-04-2020 07:50:00 6 C 6.6 g/m*3 6 C 0 km/h
2400 07-04-2020 07:55:00 6.1 C 6.58 g/m*3 6.1 C 0 km/h
Sensor: Nr:Datum:Temp:Abs-Feuchte:Windchill:Wind:
Aussen-T/F 2401 07-04-2020 08:00:00 6.2 C 6.62 g/m*3 6.2 C 0 km/h
2402 07-04-2020 08:05:00 6.2 C 6.62 g/m*3 6.2 C 0 km/h
2403 07-04-2020 08:10:00 6.3 C 6.66 g/m*3 6.3 C 0 km/h
2404 07-04-2020 08:15:00 6.3 C 6.66 g/m*3 6.3 C 1.6 km/h
2405 07-04-2020 08:20:00 6.4 C 6.71 g/m*3 6.4 C 0 km/h
2406 07-04-2020 08:25:00 6.5 C 6.67 g/m*3 6.5 C 0 km/h
2407 07-04-2020 08:30:00 6.6 C 6.72 g/m*3 6.6 C 0 km/h
2408 07-04-2020 08:35:00 6.6 C 6.72 g/m*3 6.6 C 1.6 km/h
2409 07-04-2020 08:40:00 6.6 C 6.72 g/m*3 6.6 C 0 km/h
2410 07-04-2020 08:45:00 6.7 C 6.84 g/m*3 6.7 C 0 km/h
2411 07-04-2020 08:50:00 6.8 C 6.88 g/m*3 6.8 C 0 km/h
2412 07-04-2020 08:55:00 6.9 C 6.93 g/m*3 6.9 C 0 km/h
2413 07-04-2020 09:00:00 7.1 C 7.02 g/m*3 7.1 C 0 km/h
2414 07-04-2020 09:05:00 7.2 C 7.06 g/m*3 7.2 C 0 km/h
2415 07-04-2020 09:10:00 7.3 C 7.03 g/m*3 7.3 C 0 km/h
2416 07-04-2020 09:15:00 7.4 C 7.08 g/m*3 7.4 C 0 km/h
2417 07-04-2020 09:20:00 7.5 C 7.2 g/m*3 7.5 C 0 km/h
2418 07-04-2020 09:25:00 7.6 C 7.25 g/m*3 7.6 C 0 km/h
2419 07-04-2020 09:30:00 7.8 C 7.35 g/m*3 7.8 C 0 km/h
2420 07-04-2020 09:35:00 7.9 C 7.39 g/m*3 7.9 C 0 km/h
2421 07-04-2020 09:40:00 8.2 C 7.54 g/m*3 8.2 C 0 km/h
2422 07-04-2020 09:45:00 8.4 C 7.63 g/m*3 8.4 C 0 km/h
2423 07-04-2020 09:50:00 8.7 C 7.61 g/m*3 8.7 C 0 km/h
2424 07-04-2020 09:55:00 8.9 C 7.71 g/m*3 8.9 C 0 km/h
2425 07-04-2020 10:00:00 9.2 C 7.77 g/m*3 9.2 C 0 km/h
Sensor: Nr:Datum:Temp:Abs-Feuchte:Windchill:Wind:
Aussen-T/F 2426 07-04-2020 10:05:00 9.4 C 7.87 g/m*3 9.4 C 0 km/h
2427 07-04-2020 10:10:00 9.6 C 8.06 g/m*3 9.6 C 0 km/h
2428 07-04-2020 10:15:00 9.9 C 8.22 g/m*3 9.9 C 0 km/h
2429 07-04-2020 10:20:00 10.2 C 8.28 g/m*3 10.2 C 0 km/h
2430 07-04-2020 10:25:00 10.5 C 8.34 g/m*3 10.5 C 0 km/h
2431 07-04-2020 10:30:00 10.8 C 8.4 g/m*3 10.8 C 0 km/h
2432 07-04-2020 10:35:00 11.2 C 8.62 g/m*3 11.2 C 0 km/h
2433 07-04-2020 10:40:00 11.4 C 8.62 g/m*3 11.4 C 0 km/h
2434 07-04-2020 10:45:00 11.8 C 8.74 g/m*3 11.8 C 0 km/h
2435 07-04-2020 10:50:00 12.2 C 8.85 g/m*3 12.2 C 0 km/h
2436 07-04-2020 10:55:00 12.6 C 8.96 g/m*3 12.6 C 0 km/h
2437 07-04-2020 11:00:00 13 C 8.96 g/m*3 13 C 1.6 km/h
2438 07-04-2020 11:05:00 13.4 C 8.95 g/m*3 13.4 C 0 km/h
2439 07-04-2020 11:10:00 13.8 C 9.06 g/m*3 13.8 C 0 km/h
2440 07-04-2020 11:15:00 14.2 C 9.04 g/m*3 14.2 C 3.2 km/h
2441 07-04-2020 11:20:00 14.6 C 9.13 g/m*3 14.6 C 0 km/h
2442 07-04-2020 11:25:00 14.8 C 9.25 g/m*3 14.8 C 1.6 km/h
2443 07-04-2020 11:30:00 15.1 C 9.16 g/m*3 15.1 C 3.2 km/h
2444 07-04-2020 11:35:00 15.4 C 9.2 g/m*3 15.4 C 1.6 km/h
2445 07-04-2020 11:40:00 15.7 C 9.1 g/m*3 15.7 C 1.6 km/h
2446 07-04-2020 11:45:00 16.1 C 9.18 g/m*3 16.1 C 3.2 km/h
2447 07-04-2020 11:50:00 16.2 C 9.24 g/m*3 16.2 C 3.2 km/h
2448 07-04-2020 11:55:00 16.4 C 9.21 g/m*3 16.4 C 3.2 km/h
2449 07-04-2020 12:00:00 16.6 C 9.18 g/m*3 16.6 C 3.2 km/h
2450 07-04-2020 12:05:00 16.8 C 9.15 g/m*3 16.8 C 3.2 km/h
Sensor: Nr:Datum:Temp:Abs-Feuchte:Windchill:Wind:
Aussen-T/F 2451 07-04-2020 12:10:00 17.1 C 9.17 g/m*3 17.1 C 3.2 km/h
2452 07-04-2020 12:15:00 17.2 C 9.08 g/m*3 17.2 C 4.8 km/h
2453 07-04-2020 12:20:00 17.4 C 9.34 g/m*3 17.4 C 3.2 km/h
2454 07-04-2020 12:25:00 17.6 C 9.15 g/m*3 17.6 C 4.8 km/h
2455 07-04-2020 12:30:00 17.8 C 9.26 g/m*3 17.8 C 6.4 km/h
2456 07-04-2020 12:35:00 18 C 9.22 g/m*3 18 C 4.8 km/h
2457 07-04-2020 12:40:00 18.2 C 9.33 g/m*3 18.2 C 3.2 km/h
2458 07-04-2020 12:45:00 18.3 C 9.22 g/m*3 18.3 C 4.8 km/h
2459 07-04-2020 12:50:00 18.4 C 9.28 g/m*3 18.4 C 4.8 km/h
2460 07-04-2020 12:55:00 18.5 C 9.33 g/m*3 18.5 C 3.2 km/h
2461 07-04-2020 13:00:00 18.6 C 9.39 g/m*3 18.6 C 4.8 km/h
2462 07-04-2020 13:05:00 18.8 C 9.34 g/m*3 18.8 C 3.2 km/h
2463 07-04-2020 13:10:00 18.9 C 9.23 g/m*3 18.9 C 6.4 km/h
2464 07-04-2020 13:15:00 19.2 C 9.23 g/m*3 19.2 C 6.4 km/h
2465 07-04-2020 13:20:00 19.3 C 9.29 g/m*3 19.3 C 3.2 km/h
2466 07-04-2020 13:25:00 19.4 C 8.84 g/m*3 19.4 C 6.4 km/h
2467 07-04-2020 13:30:00 19.5 C 9.06 g/m*3 19.5 C 4.8 km/h
2468 07-04-2020 13:35:00 19.6 C 9.12 g/m*3 19.6 C 6.4 km/h
2469 07-04-2020 13:40:00 19.7 C 9 g/m*3 19.7 C 3.2 km/h
2470 07-04-2020 13:45:00 19.8 C 9.05 g/m*3 19.8 C 6.4 km/h
2471 07-04-2020 13:50:00 19.9 C 8.93 g/m*3 19.9 C 8.1 km/h
2472 07-04-2020 13:55:00 20.1 C 9.04 g/m*3 20.1 C 11.3 km/h
2473 07-04-2020 14:00:00 20.3 C 8.97 g/m*3 20.3 C 8.1 km/h
2474 07-04-2020 14:05:00 20.3 C 8.97 g/m*3 20.3 C 8.1 km/h
2475 07-04-2020 14:10:00 20.4 C 9.02 g/m*3 20.4 C 11.3 km/h
Sensor: Nr:Datum:Temp:Abs-Feuchte:Windchill:Wind:
Aussen-T/F 2476 07-04-2020 14:15:00 20.6 C 8.95 g/m*3 20.6 C 6.4 km/h
2477 07-04-2020 14:20:00 20.8 C 9.23 g/m*3 20.8 C 3.2 km/h
2478 07-04-2020 14:25:00 20.9 C 8.92 g/m*3 20.9 C 11.3 km/h
2479 07-04-2020 14:30:00 21.1 C 9.21 g/m*3 21.1 C 6.4 km/h
2480 07-04-2020 14:35:00 21.3 C 8.95 g/m*3 21.3 C 8.1 km/h
2481 07-04-2020 14:40:00 21.3 C 8.95 g/m*3 21.3 C 12.9 km/h
2482 07-04-2020 14:45:00 21.2 C 8.9 g/m*3 21.2 C 8.1 km/h
2483 07-04-2020 14:50:00 21.1 C 8.84 g/m*3 21.1 C 8.1 km/h
2484 07-04-2020 14:55:00 21.2 C 8.9 g/m*3 21.2 C 4.8 km/h
2485 07-04-2020 15:00:00 21.4 C 8.81 g/m*3 21.4 C 11.3 km/h
2486 07-04-2020 15:05:00 21.6 C 8.91 g/m*3 21.6 C 11.3 km/h
2487 07-04-2020 15:10:00 21.7 C 8.97 g/m*3 21.7 C 8.1 km/h
2488 07-04-2020 15:15:00 21.8 C 8.83 g/m*3 21.8 C 8.1 km/h
2489 07-04-2020 15:20:00 21.8 C 8.63 g/m*3 21.8 C 6.4 km/h
2490 07-04-2020 15:25:00 21.8 C 8.63 g/m*3 21.8 C 8.1 km/h
2491 07-04-2020 15:30:00 21.9 C 8.68 g/m*3 21.9 C 9.7 km/h
2492 07-04-2020 15:35:00 21.9 C 8.49 g/m*3 21.9 C 12.9 km/h
2493 07-04-2020 15:40:00 22.1 C 8.59 g/m*3 22.1 C 11.3 km/h
2494 07-04-2020 15:45:00 22.1 C 8.78 g/m*3 22.1 C 9.7 km/h
2495 07-04-2020 15:50:00 22.1 C 8.78 g/m*3 22.1 C 11.3 km/h
2496 07-04-2020 15:55:00 22.2 C 8.64 g/m*3 22.2 C 12.9 km/h
2497 07-04-2020 16:00:00 22.3 C 8.49 g/m*3 22.3 C 9.7 km/h
2498 07-04-2020 16:05:00 22.3 C 8.49 g/m*3 22.3 C 9.7 km/h
2499 07-04-2020 16:10:00 22.3 C 8.49 g/m*3 22.3 C 4.8 km/h
2500 07-04-2020 16:15:00 22.2 C 8.44 g/m*3 22.2 C 3.2 km/h
Sensor: Nr:Datum:Temp:Abs-Feuchte:Windchill:Wind:
Aussen-T/F 2501 07-04-2020 16:20:00 22.2 C 8.44 g/m*3 22.2 C 11.3 km/h
2502 07-04-2020 16:25:00 22.4 C 8.34 g/m*3 22.4 C 9.7 km/h
2503 07-04-2020 16:30:00 22.5 C 8.39 g/m*3 22.5 C 12.9 km/h
2504 07-04-2020 16:35:00 22.3 C 8.29 g/m*3 22.3 C 6.4 km/h
2505 07-04-2020 16:40:00 22.1 C 8.2 g/m*3 22.1 C 6.4 km/h
2506 07-04-2020 16:45:00 22.3 C 8.49 g/m*3 22.3 C 4.8 km/h
2507 07-04-2020 16:50:00 22.9 C 8.17 g/m*3 22.9 C 6.4 km/h
2508 07-04-2020 16:55:00 23.4 C 8.41 g/m*3 23.4 C 4.8 km/h
2509 07-04-2020 17:00:00 23.9 C 8.22 g/m*3 23.9 C 8.1 km/h
2510 07-04-2020 17:05:00 24.1 C 7.88 g/m*3 24.1 C 8.1 km/h
2511 07-04-2020 17:10:00 23.9 C 8 g/m*3 23.9 C 11.3 km/h
2512 07-04-2020 17:15:00 23.4 C 7.99 g/m*3 23.4 C 6.4 km/h
2513 07-04-2020 17:20:00 23.2 C 7.9 g/m*3 23.2 C 3.2 km/h
2514 07-04-2020 17:25:00 22.9 C 8.17 g/m*3 22.9 C 1.6 km/h
2515 07-04-2020 17:30:00 22.8 C 7.52 g/m*3 22.8 C 6.4 km/h
2516 07-04-2020 17:35:00 22.8 C 7.32 g/m*3 22.8 C 6.4 km/h
2517 07-04-2020 17:40:00 23.1 C 7.44 g/m*3 23.1 C 6.4 km/h
2518 07-04-2020 17:45:00 23.4 C 7.36 g/m*3 23.4 C 4.8 km/h
2519 07-04-2020 17:50:00 23.4 C 7.15 g/m*3 23.4 C 3.2 km/h
2520 07-04-2020 17:55:00 23.4 C 7.36 g/m*3 23.4 C 6.4 km/h
2521 07-04-2020 18:00:00 23.6 C 7.66 g/m*3 23.6 C 9.7 km/h
2522 07-04-2020 18:05:00 23.6 C 7.66 g/m*3 23.6 C 9.7 km/h
2523 07-04-2020 18:10:00 23.8 C 7.53 g/m*3 23.8 C 3.2 km/h
2524 07-04-2020 18:15:00 23.9 C 7.57 g/m*3 23.9 C 4.8 km/h
2525 07-04-2020 18:20:00 23.8 C 7.53 g/m*3 23.8 C 8.1 km/h
Sensor: Nr:Datum:Temp:Abs-Feuchte:Windchill:Wind:
Aussen-T/F 2526 07-04-2020 18:25:00 23.8 C 7.74 g/m*3 23.8 C 4.8 km/h
2527 07-04-2020 18:30:00 23.6 C 7.66 g/m*3 23.6 C 8.1 km/h
2528 07-04-2020 18:35:00 23.4 C 7.78 g/m*3 23.4 C 9.7 km/h
2529 07-04-2020 18:40:00 23.1 C 7.86 g/m*3 23.1 C 9.7 km/h
2530 07-04-2020 18:45:00 23.1 C 8.27 g/m*3 23.1 C 1.6 km/h
2531 07-04-2020 18:50:00 23 C 7.81 g/m*3 23 C 3.2 km/h
2532 07-04-2020 18:55:00 22.9 C 7.56 g/m*3 22.9 C 6.4 km/h
2533 07-04-2020 19:00:00 22.7 C 7.48 g/m*3 22.7 C 6.4 km/h
2534 07-04-2020 19:05:00 22.7 C 7.68 g/m*3 22.7 C 1.6 km/h
2535 07-04-2020 19:10:00 22.6 C 8.04 g/m*3 22.6 C 1.6 km/h
2536 07-04-2020 19:15:00 22.4 C 8.54 g/m*3 22.4 C 3.2 km/h
2537 07-04-2020 19:20:00 22.1 C 8.78 g/m*3 22.1 C 3.2 km/h
2538 07-04-2020 19:25:00 21.6 C 8.53 g/m*3 21.6 C 3.2 km/h
2539 07-04-2020 19:30:00 21 C 8.61 g/m*3 21 C 3.2 km/h
2540 07-04-2020 19:35:00 20.4 C 8.67 g/m*3 20.4 C 3.2 km/h
2541 07-04-2020 19:40:00 19.9 C 8.42 g/m*3 19.9 C 6.4 km/h
2542 07-04-2020 19:45:00 19.4 C 8.51 g/m*3 19.4 C 4.8 km/h
2543 07-04-2020 19:50:00 19.1 C 8.36 g/m*3 19.1 C 4.8 km/h
2544 07-04-2020 19:55:00 18.7 C 8.33 g/m*3 18.7 C 6.4 km/h
2545 07-04-2020 20:00:00 18.3 C 8.13 g/m*3 18.3 C 6.4 km/h
2546 07-04-2020 20:05:00 17.9 C 7.94 g/m*3 17.9 C 6.4 km/h
2547 07-04-2020 20:10:00 17.6 C 7.95 g/m*3 17.6 C 4.8 km/h
2548 07-04-2020 20:15:00 17.3 C 7.96 g/m*3 17.3 C 4.8 km/h
2549 07-04-2020 20:20:00 17 C 7.96 g/m*3 17 C 6.4 km/h
2550 07-04-2020 20:25:00 16.8 C 8.01 g/m*3 16.8 C 6.4 km/h
Sensor: Nr:Datum:Temp:Abs-Feuchte:Windchill:Wind:
Aussen-T/F 2551 07-04-2020 20:30:00 16.6 C 8.05 g/m*3 16.6 C 6.4 km/h
2552 07-04-2020 20:35:00 16.3 C 7.91 g/m*3 16.3 C 8.1 km/h
2553 07-04-2020 20:40:00 16.2 C 8.14 g/m*3 16.2 C 4.8 km/h
2554 07-04-2020 20:45:00 16 C 8.04 g/m*3 16 C 4.8 km/h
2555 07-04-2020 20:50:00 15.8 C 8.08 g/m*3 15.8 C 4.8 km/h
2556 07-04-2020 20:55:00 15.7 C 8.03 g/m*3 15.7 C 4.8 km/h
2557 07-04-2020 21:00:00 15.6 C 7.98 g/m*3 15.6 C 6.4 km/h
2558 07-04-2020 21:05:00 15.4 C 8.01 g/m*3 15.4 C 6.4 km/h
2559 07-04-2020 21:10:00 15.3 C 8.1 g/m*3 15.3 C 4.8 km/h
2560 07-04-2020 21:15:00 15.2 C 8.18 g/m*3 15.2 C 6.4 km/h
2561 07-04-2020 21:20:00 15.1 C 8.26 g/m*3 15.1 C 6.4 km/h
2562 07-04-2020 21:25:00 14.9 C 8.16 g/m*3 14.9 C 6.4 km/h
2563 07-04-2020 21:30:00 14.8 C 8.23 g/m*3 14.8 C 4.8 km/h
2564 07-04-2020 21:35:00 14.7 C 8.18 g/m*3 14.7 C 6.4 km/h
2565 07-04-2020 21:40:00 14.7 C 8.31 g/m*3 14.7 C 4.8 km/h
2566 07-04-2020 21:45:00 14.7 C 8.31 g/m*3 14.7 C 4.8 km/h
2567 07-04-2020 21:50:00 14.6 C 8.26 g/m*3 14.6 C 6.4 km/h
2568 07-04-2020 21:55:00 14.5 C 8.33 g/m*3 14.5 C 4.8 km/h
2569 07-04-2020 22:00:00 14.4 C 8.28 g/m*3 14.4 C 4.8 km/h
2570 07-04-2020 22:05:00 14.3 C 8.35 g/m*3 14.3 C 4.8 km/h
2571 07-04-2020 22:10:00 14.1 C 8.25 g/m*3 14.1 C 3.2 km/h
2572 07-04-2020 22:15:00 13.8 C 8.22 g/m*3 13.8 C 0 km/h
2573 07-04-2020 22:20:00 13.7 C 8.29 g/m*3 13.7 C 3.2 km/h
2574 07-04-2020 22:25:00 13.4 C 8.14 g/m*3 13.4 C 3.2 km/h
2575 07-04-2020 22:30:00 13.3 C 8.2 g/m*3 13.3 C 1.6 km/h
Sensor: Nr:Datum:Temp:Abs-Feuchte:Windchill:Wind:
Aussen-T/F 2576 07-04-2020 22:35:00 13.2 C 8.27 g/m*3 13.2 C 4.8 km/h
2577 07-04-2020 22:40:00 13.2 C 8.27 g/m*3 13.2 C 1.6 km/h
2578 07-04-2020 22:45:00 13.2 C 8.27 g/m*3 13.2 C 0 km/h
2579 07-04-2020 22:50:00 13.2 C 8.27 g/m*3 13.2 C 3.2 km/h
2580 07-04-2020 22:55:00 13.1 C 8.22 g/m*3 13.1 C 4.8 km/h
2581 07-04-2020 23:00:00 13.1 C 8.22 g/m*3 13.1 C 3.2 km/h
2582 07-04-2020 23:05:00 13.1 C 8.33 g/m*3 13.1 C 1.6 km/h
2583 07-04-2020 23:10:00 13 C 8.28 g/m*3 13 C 3.2 km/h
2584 07-04-2020 23:15:00 13 C 8.39 g/m*3 13 C 4.8 km/h
2585 07-04-2020 23:20:00 13 C 8.39 g/m*3 13 C 4.8 km/h
2586 07-04-2020 23:25:00 13 C 8.39 g/m*3 13 C 4.8 km/h
2587 07-04-2020 23:30:00 13 C 8.39 g/m*3 13 C 1.6 km/h
2588 07-04-2020 23:35:00 12.9 C 8.34 g/m*3 12.9 C 4.8 km/h
2589 07-04-2020 23:40:00 12.9 C 8.45 g/m*3 12.9 C 4.8 km/h
2590 07-04-2020 23:45:00 12.8 C 8.4 g/m*3 12.8 C 3.2 km/h
2591 07-04-2020 23:50:00 12.8 C 8.4 g/m*3 12.8 C 1.6 km/h
2592 07-04-2020 23:55:00 12.7 C 8.35 g/m*3 12.7 C 1.6 km/h
2593 08-04-2020 00:00:00 12.6 C 8.3 g/m*3 12.6 C 1.6 km/h
2594 08-04-2020 00:05:00 12.4 C 8.3 g/m*3 12.4 C 3.2 km/h
2595 08-04-2020 00:10:00 12.3 C 8.36 g/m*3 12.3 C 3.2 km/h
2596 08-04-2020 00:15:00 12.2 C 8.31 g/m*3 12.2 C 4.8 km/h
2597 08-04-2020 00:20:00 12.2 C 8.42 g/m*3 12.2 C 3.2 km/h
2598 08-04-2020 00:25:00 12.2 C 8.42 g/m*3 12.2 C 4.8 km/h
2599 08-04-2020 00:30:00 12.1 C 8.36 g/m*3 12.1 C 3.2 km/h
2600 08-04-2020 00:35:00 12 C 8.42 g/m*3 12 C 3.2 km/h
Sensor: Nr:Datum:Temp:Abs-Feuchte:Windchill:Wind:
Aussen-T/F 2601 08-04-2020 00:40:00 12 C 8.42 g/m*3 12 C 4.8 km/h
2602 08-04-2020 00:45:00 11.9 C 8.37 g/m*3 11.9 C 3.2 km/h
2603 08-04-2020 00:50:00 11.8 C 8.31 g/m*3 11.8 C 1.6 km/h
2604 08-04-2020 00:55:00 11.7 C 8.26 g/m*3 11.7 C 3.2 km/h
2605 08-04-2020 01:00:00 11.5 C 8.26 g/m*3 11.5 C 1.6 km/h
2606 08-04-2020 01:05:00 11.4 C 8.21 g/m*3 11.4 C 1.6 km/h
2607 08-04-2020 01:10:00 11.3 C 8.26 g/m*3 11.3 C 4.8 km/h
2608 08-04-2020 01:15:00 11.3 C 8.16 g/m*3 11.3 C 1.6 km/h
2609 08-04-2020 01:20:00 11.2 C 8.21 g/m*3 11.2 C 3.2 km/h
2610 08-04-2020 01:25:00 11.1 C 8.16 g/m*3 11.1 C 0 km/h
2611 08-04-2020 01:30:00 10.9 C 8.16 g/m*3 10.9 C 0 km/h
2612 08-04-2020 01:35:00 10.8 C 8.11 g/m*3 10.8 C 1.6 km/h
2613 08-04-2020 01:40:00 10.8 C 8.11 g/m*3 10.8 C 0 km/h
2614 08-04-2020 01:45:00 10.7 C 8.05 g/m*3 10.7 C 0 km/h
2615 08-04-2020 01:50:00 10.5 C 8.05 g/m*3 10.5 C 0 km/h
2616 08-04-2020 01:55:00 10.4 C 8 g/m*3 10.4 C 0 km/h
2617 08-04-2020 02:00:00 10.3 C 7.95 g/m*3 10.3 C 0 km/h
2618 08-04-2020 02:05:00 10.1 C 7.85 g/m*3 10.1 C 0 km/h
2619 08-04-2020 02:10:00 10 C 7.89 g/m*3 10 C 0 km/h
2620 08-04-2020 02:15:00 9.8 C 7.79 g/m*3 9.8 C 0 km/h
2621 08-04-2020 02:20:00 9.6 C 7.79 g/m*3 9.6 C 0 km/h
2622 08-04-2020 02:25:00 9.5 C 7.74 g/m*3 9.5 C 0 km/h
2623 08-04-2020 02:30:00 9.3 C 7.64 g/m*3 9.3 C 0 km/h
2624 08-04-2020 02:35:00 9.2 C 7.68 g/m*3 9.2 C 0 km/h
2625 08-04-2020 02:40:00 9.1 C 7.63 g/m*3 9.1 C 0 km/h
Sensor: Nr:Datum:Temp:Abs-Feuchte:Windchill:Wind:
Aussen-T/F 2626 08-04-2020 02:45:00 8.9 C 7.53 g/m*3 8.9 C 0 km/h
2627 08-04-2020 02:50:00 8.8 C 7.57 g/m*3 8.8 C 0 km/h
2628 08-04-2020 02:55:00 8.7 C 7.52 g/m*3 8.7 C 0 km/h
2629 08-04-2020 03:00:00 8.6 C 7.48 g/m*3 8.6 C 0 km/h
2630 08-04-2020 03:05:00 8.3 C 7.33 g/m*3 8.3 C 0 km/h
2631 08-04-2020 03:10:00 8.2 C 7.37 g/m*3 8.2 C 0 km/h
2632 08-04-2020 03:15:00 8.1 C 7.32 g/m*3 8.1 C 0 km/h
2633 08-04-2020 03:20:00 7.9 C 7.23 g/m*3 7.9 C 0 km/h
2634 08-04-2020 03:25:00 7.9 C 7.31 g/m*3 7.9 C 0 km/h
2635 08-04-2020 03:30:00 7.9 C 7.39 g/m*3 7.9 C 0 km/h
2636 08-04-2020 03:35:00 7.9 C 7.39 g/m*3 7.9 C 0 km/h
2637 08-04-2020 03:40:00 7.8 C 7.35 g/m*3 7.8 C 0 km/h
2638 08-04-2020 03:45:00 7.7 C 7.3 g/m*3 7.7 C 0 km/h
2639 08-04-2020 03:50:00 7.6 C 7.25 g/m*3 7.6 C 0 km/h
2640 08-04-2020 03:55:00 7.5 C 7.2 g/m*3 7.5 C 0 km/h
2641 08-04-2020 04:00:00 7.4 C 7.16 g/m*3 7.4 C 0 km/h
2642 08-04-2020 04:05:00 7.4 C 7.24 g/m*3 7.4 C 0 km/h
2643 08-04-2020 04:10:00 7.4 C 7.24 g/m*3 7.4 C 0 km/h
2644 08-04-2020 04:15:00 7.3 C 7.19 g/m*3 7.3 C 0 km/h
2645 08-04-2020 04:20:00 7.3 C 7.19 g/m*3 7.3 C 0 km/h
2646 08-04-2020 04:25:00 7.2 C 7.22 g/m*3 7.2 C 0 km/h
2647 08-04-2020 04:30:00 7.3 C 7.27 g/m*3 7.3 C 0 km/h
2648 08-04-2020 04:35:00 7.2 C 7.14 g/m*3 7.2 C 0 km/h
2649 08-04-2020 04:40:00 7 C 7.05 g/m*3 7 C 0 km/h
2650 08-04-2020 04:45:00 6.9 C 7.08 g/m*3 6.9 C 0 km/h
Sensor: Nr:Datum:Temp:Abs-Feuchte:Windchill:Wind:
Aussen-T/F 2651 08-04-2020 04:50:00 6.9 C 7.08 g/m*3 6.9 C 0 km/h
2652 08-04-2020 04:55:00 6.8 C 7.04 g/m*3 6.8 C 0 km/h
2653 08-04-2020 05:00:00 6.8 C 7.04 g/m*3 6.8 C 0 km/h
2654 08-04-2020 05:05:00 6.8 C 7.04 g/m*3 6.8 C 0 km/h
2655 08-04-2020 05:10:00 6.7 C 6.99 g/m*3 6.7 C 0 km/h
2656 08-04-2020 05:15:00 6.7 C 7.07 g/m*3 6.7 C 0 km/h
2657 08-04-2020 05:20:00 6.6 C 6.95 g/m*3 6.6 C 0 km/h
2658 08-04-2020 05:25:00 6.5 C 6.9 g/m*3 6.5 C 0 km/h
2659 08-04-2020 05:30:00 6.4 C 6.85 g/m*3 6.4 C 0 km/h
2660 08-04-2020 05:35:00 6.4 C 6.93 g/m*3 6.4 C 0 km/h
2661 08-04-2020 05:40:00 6.3 C 6.88 g/m*3 6.3 C 0 km/h
2662 08-04-2020 05:45:00 6.2 C 6.84 g/m*3 6.2 C 0 km/h
2663 08-04-2020 05:50:00 6.2 C 6.84 g/m*3 6.2 C 0 km/h
2664 08-04-2020 05:55:00 6.2 C 6.84 g/m*3 6.2 C 0 km/h
2665 08-04-2020 06:00:00 6.2 C 6.84 g/m*3 6.2 C 0 km/h
2666 08-04-2020 06:05:00 6.2 C 6.84 g/m*3 6.2 C 0 km/h
2667 08-04-2020 06:10:00 6.1 C 6.79 g/m*3 6.1 C 0 km/h
2668 08-04-2020 06:15:00 6.1 C 6.79 g/m*3 6.1 C 0 km/h
2669 08-04-2020 06:20:00 6 C 6.75 g/m*3 6 C 0 km/h
2670 08-04-2020 06:25:00 6 C 6.82 g/m*3 6 C 0 km/h
2671 08-04-2020 06:30:00 6.1 C 6.87 g/m*3 6.1 C 0 km/h
2672 08-04-2020 06:35:00 5.9 C 6.78 g/m*3 5.9 C 0 km/h
2673 08-04-2020 06:40:00 5.8 C 6.66 g/m*3 5.8 C 0 km/h
2674 08-04-2020 06:45:00 5.7 C 6.69 g/m*3 5.7 C 0 km/h
2675 08-04-2020 06:50:00 5.7 C 6.69 g/m*3 5.7 C 0 km/h
Sensor: Nr:Datum:Temp:Abs-Feuchte:Windchill:Wind:
Aussen-T/F 2676 08-04-2020 06:55:00 5.6 C 6.65 g/m*3 5.6 C 0 km/h
2677 08-04-2020 07:00:00 5.7 C 6.69 g/m*3 5.7 C 0 km/h
2678 08-04-2020 07:05:00 5.7 C 6.69 g/m*3 5.7 C 0 km/h
2679 08-04-2020 07:10:00 5.7 C 6.69 g/m*3 5.7 C 0 km/h
2680 08-04-2020 07:15:00 5.7 C 6.69 g/m*3 5.7 C 0 km/h
2681 08-04-2020 07:20:00 5.8 C 6.73 g/m*3 5.8 C 0 km/h
2682 08-04-2020 07:25:00 5.8 C 6.73 g/m*3 5.8 C 0 km/h
2683 08-04-2020 07:30:00 5.8 C 6.73 g/m*3 5.8 C 0 km/h
2684 08-04-2020 07:35:00 5.8 C 6.81 g/m*3 5.8 C 0 km/h
2685 08-04-2020 07:40:00 5.8 C 6.81 g/m*3 5.8 C 0 km/h
2686 08-04-2020 07:45:00 6 C 6.9 g/m*3 6 C 1.6 km/h
2687 08-04-2020 07:50:00 6.2 C 6.99 g/m*3 6.2 C 0 km/h
2688 08-04-2020 07:55:00 6.3 C 7.03 g/m*3 6.3 C 0 km/h
2689 08-04-2020 08:00:00 6.3 C 7.03 g/m*3 6.3 C 0 km/h
2690 08-04-2020 08:05:00 6.3 C 7.03 g/m*3 6.3 C 0 km/h
2691 08-04-2020 08:10:00 6.3 C 7.03 g/m*3 6.3 C 0 km/h
2692 08-04-2020 08:15:00 6.3 C 7.03 g/m*3 6.3 C 0 km/h
2693 08-04-2020 08:20:00 6.4 C 7.08 g/m*3 6.4 C 0 km/h
2694 08-04-2020 08:25:00 6.7 C 7.22 g/m*3 6.7 C 0 km/h
2695 08-04-2020 08:30:00 6.7 C 7.29 g/m*3 6.7 C 0 km/h
2696 08-04-2020 08:35:00 6.8 C 7.34 g/m*3 6.8 C 0 km/h
2697 08-04-2020 08:40:00 6.9 C 7.39 g/m*3 6.9 C 0 km/h
2698 08-04-2020 08:45:00 6.9 C 7.31 g/m*3 6.9 C 0 km/h
2699 08-04-2020 08:50:00 7 C 7.36 g/m*3 7 C 0 km/h
2700 08-04-2020 08:55:00 7.1 C 7.41 g/m*3 7.1 C 0 km/h
Sensor: Nr:Datum:Temp:Abs-Feuchte:Windchill:Wind:
Aussen-T/F 2701 08-04-2020 09:00:00 7.2 C 7.54 g/m*3 7.2 C 0 km/h
2702 08-04-2020 09:05:00 7.3 C 7.58 g/m*3 7.3 C 0 km/h
2703 08-04-2020 09:10:00 7.4 C 7.63 g/m*3 7.4 C 0 km/h
2704 08-04-2020 09:15:00 7.4 C 7.63 g/m*3 7.4 C 0 km/h
2705 08-04-2020 09:20:00 7.6 C 7.73 g/m*3 7.6 C 0 km/h
2706 08-04-2020 09:25:00 7.7 C 7.78 g/m*3 7.7 C 0 km/h
2707 08-04-2020 09:30:00 7.9 C 7.89 g/m*3 7.9 C 0 km/h
2708 08-04-2020 09:35:00 8.1 C 7.99 g/m*3 8.1 C 0 km/h
2709 08-04-2020 09:40:00 8.2 C 8.04 g/m*3 8.2 C 0 km/h
2710 08-04-2020 09:45:00 8.4 C 8.14 g/m*3 8.4 C 0 km/h
2711 08-04-2020 09:50:00 8.6 C 8.25 g/m*3 8.6 C 0 km/h
2712 08-04-2020 09:55:00 8.7 C 8.3 g/m*3 8.7 C 0 km/h
2713 08-04-2020 10:00:00 8.9 C 8.41 g/m*3 8.9 C 0 km/h
2714 08-04-2020 10:05:00 9.1 C 8.52 g/m*3 9.1 C 0 km/h
2715 08-04-2020 10:10:00 9.2 C 8.57 g/m*3 9.2 C 0 km/h
2716 08-04-2020 10:15:00 9.4 C 8.68 g/m*3 9.4 C 0 km/h
2717 08-04-2020 10:20:00 9.7 C 8.85 g/m*3 9.7 C 0 km/h
2718 08-04-2020 10:25:00 9.9 C 8.96 g/m*3 9.9 C 0 km/h
2719 08-04-2020 10:30:00 10.2 C 9.04 g/m*3 10.2 C 0 km/h
2720 08-04-2020 10:35:00 10.4 C 9.16 g/m*3 10.4 C 0 km/h
2721 08-04-2020 10:40:00 10.8 C 9.29 g/m*3 10.8 C 0 km/h
2722 08-04-2020 10:45:00 11.2 C 9.43 g/m*3 11.2 C 0 km/h
2723 08-04-2020 10:50:00 11.6 C 9.56 g/m*3 11.6 C 0 km/h
2724 08-04-2020 10:55:00 12 C 9.59 g/m*3 12 C 0 km/h
2725 08-04-2020 11:00:00 12.4 C 9.62 g/m*3 12.4 C 0 km/h
Sensor: Nr:Datum:Temp:Abs-Feuchte:Windchill:Wind:
Aussen-T/F 2726 08-04-2020 11:05:00 12.9 C 9.81 g/m*3 12.9 C 0 km/h
2727 08-04-2020 11:10:00 13.3 C 9.82 g/m*3 13.3 C 0 km/h
2728 08-04-2020 11:15:00 13.8 C 9.89 g/m*3 13.8 C 0 km/h
2729 08-04-2020 11:20:00 14.3 C 10.07 g/m*3 14.3 C 0 km/h
2730 08-04-2020 11:25:00 14.8 C 10.26 g/m*3 14.8 C 0 km/h
2731 08-04-2020 11:30:00 15.1 C 10.32 g/m*3 15.1 C 0 km/h
2732 08-04-2020 11:35:00 15.4 C 10.25 g/m*3 15.4 C 0 km/h
2733 08-04-2020 11:40:00 15.9 C 10.02 g/m*3 15.9 C 1.6 km/h
2734 08-04-2020 11:45:00 16.4 C 9.91 g/m*3 16.4 C 0 km/h
2735 08-04-2020 11:50:00 17 C 10.13 g/m*3 17 C 1.6 km/h
2736 08-04-2020 11:55:00 17.5 C 10.29 g/m*3 17.5 C 0 km/h
2737 08-04-2020 12:00:00 18.1 C 9.58 g/m*3 18.1 C 1.6 km/h
2738 08-04-2020 12:05:00 18.5 C 9.81 g/m*3 18.5 C 0 km/h
2739 08-04-2020 12:10:00 18.9 C 9.4 g/m*3 18.9 C 0 km/h
2740 08-04-2020 12:15:00 19.3 C 9.29 g/m*3 19.3 C 0 km/h
2741 08-04-2020 12:20:00 19.7 C 9.34 g/m*3 19.7 C 4.8 km/h
2742 08-04-2020 12:25:00 19.9 C 8.93 g/m*3 19.9 C 1.6 km/h
2743 08-04-2020 12:30:00 20.2 C 8.57 g/m*3 20.2 C 4.8 km/h
2744 08-04-2020 12:35:00 20.4 C 8.49 g/m*3 20.4 C 6.4 km/h
2745 08-04-2020 12:40:00 20.6 C 8.41 g/m*3 20.6 C 1.6 km/h
2746 08-04-2020 12:45:00 20.8 C 8.51 g/m*3 20.8 C 4.8 km/h
2747 08-04-2020 12:50:00 20.9 C 8.01 g/m*3 20.9 C 8.1 km/h
2748 08-04-2020 12:55:00 21.1 C 7.92 g/m*3 21.1 C 8.1 km/h
2749 08-04-2020 13:00:00 21.2 C 7.97 g/m*3 21.2 C 6.4 km/h
2750 08-04-2020 13:05:00 21.3 C 7.64 g/m*3 21.3 C 6.4 km/h
Sensor: Nr:Datum:Temp:Abs-Feuchte:Windchill:Wind:
Aussen-T/F 2751 08-04-2020 13:10:00 21.5 C 7.73 g/m*3 21.5 C 9.7 km/h
2752 08-04-2020 13:15:00 21.7 C 7.06 g/m*3 21.7 C 11.3 km/h
2753 08-04-2020 13:20:00 21.8 C 6.91 g/m*3 21.8 C 9.7 km/h
2754 08-04-2020 13:25:00 21.8 C 6.72 g/m*3 21.8 C 6.4 km/h
2755 08-04-2020 13:30:00 21.7 C 6.68 g/m*3 21.7 C 6.4 km/h
2756 08-04-2020 13:35:00 21.8 C 6.72 g/m*3 21.8 C 6.4 km/h
2757 08-04-2020 13:40:00 22 C 6.21 g/m*3 22 C 8.1 km/h
2758 08-04-2020 13:45:00 22.1 C 5.86 g/m*3 22.1 C 8.1 km/h
2759 08-04-2020 13:50:00 22.1 C 5.86 g/m*3 22.1 C 6.4 km/h
2760 08-04-2020 13:55:00 22.2 C 5.89 g/m*3 22.2 C 8.1 km/h
2761 08-04-2020 14:00:00 22.2 C 5.69 g/m*3 22.2 C 6.4 km/h
2762 08-04-2020 14:05:00 22.3 C 5.73 g/m*3 22.3 C 9.7 km/h
2763 08-04-2020 14:10:00 22.4 C 5.76 g/m*3 22.4 C 8.1 km/h
2764 08-04-2020 14:15:00 22.6 C 6.03 g/m*3 22.6 C 8.1 km/h
2765 08-04-2020 14:20:00 22.7 C 6.06 g/m*3 22.7 C 11.3 km/h
2766 08-04-2020 14:25:00 22.9 C 5.93 g/m*3 22.9 C 6.4 km/h
2767 08-04-2020 14:30:00 23.1 C 5.99 g/m*3 23.1 C 8.1 km/h
2768 08-04-2020 14:35:00 23.2 C 5.82 g/m*3 23.2 C 6.4 km/h
2769 08-04-2020 14:40:00 23.2 C 5.82 g/m*3 23.2 C 8.1 km/h
2770 08-04-2020 14:45:00 23.2 C 5.82 g/m*3 23.2 C 3.2 km/h
2771 08-04-2020 14:50:00 23.3 C 5.85 g/m*3 23.3 C 6.4 km/h
2772 08-04-2020 14:55:00 23.3 C 5.85 g/m*3 23.3 C 11.3 km/h
2773 08-04-2020 15:00:00 23.4 C 5.89 g/m*3 23.4 C 9.7 km/h
2774 08-04-2020 15:05:00 23.4 C 5.89 g/m*3 23.4 C 8.1 km/h
2775 08-04-2020 15:10:00 23.2 C 7.28 g/m*3 23.2 C 6.4 km/h
Sensor: Nr:Datum:Temp:Abs-Feuchte:Windchill:Wind:
Aussen-T/F 2776 08-04-2020 15:15:00 22.8 C 6.5 g/m*3 22.8 C 4.8 km/h
2777 08-04-2020 15:20:00 22.8 C 6.1 g/m*3 22.8 C 9.7 km/h
2778 08-04-2020 15:25:00 23 C 6.37 g/m*3 23 C 9.7 km/h
2779 08-04-2020 15:30:00 22.9 C 6.13 g/m*3 22.9 C 16.1 km/h
2780 08-04-2020 15:35:00 22.9 C 5.93 g/m*3 22.9 C 9.7 km/h
2781 08-04-2020 15:40:00 23.1 C 5.99 g/m*3 23.1 C 8.1 km/h
2782 08-04-2020 15:45:00 23.2 C 6.03 g/m*3 23.2 C 8.1 km/h
2783 08-04-2020 15:50:00 23.2 C 6.24 g/m*3 23.2 C 6.4 km/h
2784 08-04-2020 15:55:00 23.3 C 6.06 g/m*3 23.3 C 9.7 km/h
2785 08-04-2020 16:00:00 23.4 C 5.89 g/m*3 23.4 C 8.1 km/h
2786 08-04-2020 16:05:00 23.6 C 5.96 g/m*3 23.6 C 6.4 km/h
2787 08-04-2020 16:10:00 23.6 C 5.74 g/m*3 23.6 C 9.7 km/h
2788 08-04-2020 16:15:00 23.7 C 5.99 g/m*3 23.7 C 8.1 km/h
2789 08-04-2020 16:20:00 23.7 C 5.78 g/m*3 23.7 C 3.2 km/h
2790 08-04-2020 16:25:00 23.8 C 5.81 g/m*3 23.8 C 1.6 km/h
2791 08-04-2020 16:30:00 24.1 C 6.35 g/m*3 24.1 C 6.4 km/h
2792 08-04-2020 16:35:00 24.3 C 6.2 g/m*3 24.3 C 8.1 km/h
2793 08-04-2020 16:40:00 24.6 C 6.08 g/m*3 24.6 C 6.4 km/h
2794 08-04-2020 16:45:00 24.8 C 6.15 g/m*3 24.8 C 6.4 km/h
2795 08-04-2020 16:50:00 25.2 C 6.29 g/m*3 25.2 C 6.4 km/h
2796 08-04-2020 16:55:00 25.7 C 5.99 g/m*3 25.7 C 3.2 km/h
2797 08-04-2020 17:00:00 25.7 C 5.75 g/m*3 25.7 C 6.4 km/h
2798 08-04-2020 17:05:00 25.3 C 5.62 g/m*3 25.3 C 9.7 km/h
2799 08-04-2020 17:10:00 25.2 C 5.82 g/m*3 25.2 C 9.7 km/h
2800 08-04-2020 17:15:00 25.2 C 5.82 g/m*3 25.2 C 6.4 km/h
Sensor: Nr:Datum:Temp:Abs-Feuchte:Windchill:Wind:
Aussen-T/F 2801 08-04-2020 17:20:00 25.2 C 5.59 g/m*3 25.2 C 8.1 km/h
2802 08-04-2020 17:25:00 25.2 C 5.82 g/m*3 25.2 C 1.6 km/h
2803 08-04-2020 17:30:00 25.2 C 5.59 g/m*3 25.2 C 8.1 km/h
2804 08-04-2020 17:35:00 25.2 C 5.82 g/m*3 25.2 C 3.2 km/h
2805 08-04-2020 17:40:00 25.5 C 6.16 g/m*3 25.5 C 4.8 km/h
2806 08-04-2020 17:45:00 25.3 C 5.85 g/m*3 25.3 C 9.7 km/h
2807 08-04-2020 17:50:00 25.2 C 6.29 g/m*3 25.2 C 6.4 km/h
2808 08-04-2020 17:55:00 25.3 C 6.32 g/m*3 25.3 C 4.8 km/h
2809 08-04-2020 18:00:00 25.3 C 6.09 g/m*3 25.3 C 4.8 km/h
2810 08-04-2020 18:05:00 25.6 C 6.43 g/m*3 25.6 C 3.2 km/h
2811 08-04-2020 18:10:00 25.7 C 6.22 g/m*3 25.7 C 6.4 km/h
2812 08-04-2020 18:15:00 25.6 C 5.95 g/m*3 25.6 C 8.1 km/h
2813 08-04-2020 18:20:00 25.6 C 6.43 g/m*3 25.6 C 4.8 km/h
2814 08-04-2020 18:25:00 25.6 C 6.43 g/m*3 25.6 C 3.2 km/h
2815 08-04-2020 18:30:00 25.4 C 6.12 g/m*3 25.4 C 6.4 km/h
2816 08-04-2020 18:35:00 25.3 C 6.32 g/m*3 25.3 C 3.2 km/h
2817 08-04-2020 18:40:00 25.2 C 6.29 g/m*3 25.2 C 3.2 km/h
2818 08-04-2020 18:45:00 25.2 C 6.05 g/m*3 25.2 C 4.8 km/h
2819 08-04-2020 18:50:00 25.1 C 6.02 g/m*3 25.1 C 3.2 km/h
2820 08-04-2020 18:55:00 24.9 C 6.18 g/m*3 24.9 C 1.6 km/h
2821 08-04-2020 19:00:00 24.8 C 6.15 g/m*3 24.8 C 3.2 km/h
2822 08-04-2020 19:05:00 24.8 C 7.28 g/m*3 24.8 C 0 km/h
2823 08-04-2020 19:10:00 24.9 C 7.32 g/m*3 24.9 C 0 km/h
2824 08-04-2020 19:15:00 24.6 C 7.65 g/m*3 24.6 C 0 km/h
2825 08-04-2020 19:20:00 24.2 C 7.26 g/m*3 24.2 C 0 km/h
Sensor: Nr:Datum:Temp:Abs-Feuchte:Windchill:Wind:
Aussen-T/F 2826 08-04-2020 19:25:00 23.5 C 7.19 g/m*3 23.5 C 0 km/h
2827 08-04-2020 19:30:00 22.9 C 7.36 g/m*3 22.9 C 1.6 km/h
2828 08-04-2020 19:35:00 22.3 C 7.11 g/m*3 22.3 C 4.8 km/h
2829 08-04-2020 19:40:00 21.7 C 7.25 g/m*3 21.7 C 4.8 km/h
2830 08-04-2020 19:45:00 21.1 C 7.37 g/m*3 21.1 C 4.8 km/h
2831 08-04-2020 19:50:00 20.6 C 7.16 g/m*3 20.6 C 4.8 km/h
2832 08-04-2020 19:55:00 20.1 C 7.13 g/m*3 20.1 C 6.4 km/h
2833 08-04-2020 20:00:00 19.6 C 7.09 g/m*3 19.6 C 4.8 km/h
2834 08-04-2020 20:05:00 19.1 C 7.05 g/m*3 19.1 C 4.8 km/h
2835 08-04-2020 20:10:00 18.7 C 7.04 g/m*3 18.7 C 4.8 km/h
2836 08-04-2020 20:15:00 18.3 C 7.04 g/m*3 18.3 C 6.4 km/h
2837 08-04-2020 20:20:00 17.9 C 7.02 g/m*3 17.9 C 4.8 km/h
2838 08-04-2020 20:25:00 17.7 C 6.94 g/m*3 17.7 C 6.4 km/h
2839 08-04-2020 20:30:00 17.4 C 6.97 g/m*3 17.4 C 6.4 km/h
2840 08-04-2020 20:35:00 17.1 C 6.99 g/m*3 17.1 C 4.8 km/h
2841 08-04-2020 20:40:00 16.8 C 7.01 g/m*3 16.8 C 4.8 km/h
2842 08-04-2020 20:45:00 16.4 C 6.84 g/m*3 16.4 C 4.8 km/h
2843 08-04-2020 20:50:00 16.2 C 7.03 g/m*3 16.2 C 1.6 km/h
2844 08-04-2020 20:55:00 16 C 7.08 g/m*3 16 C 4.8 km/h
2845 08-04-2020 21:00:00 15.8 C 6.87 g/m*3 15.8 C 1.6 km/h
2846 08-04-2020 21:05:00 15.6 C 6.92 g/m*3 15.6 C 1.6 km/h
2847 08-04-2020 21:10:00 15.4 C 7.09 g/m*3 15.4 C 3.2 km/h
2848 08-04-2020 21:15:00 15.1 C 6.84 g/m*3 15.1 C 4.8 km/h
2849 08-04-2020 21:20:00 14.8 C 6.84 g/m*3 14.8 C 4.8 km/h
2850 08-04-2020 21:25:00 14.7 C 7.18 g/m*3 14.7 C 0 km/h
Sensor: Nr:Datum:Temp:Abs-Feuchte:Windchill:Wind:
Aussen-T/F 2851 08-04-2020 21:30:00 14.3 C 6.88 g/m*3 14.3 C 1.6 km/h
2852 08-04-2020 21:35:00 14.2 C 6.84 g/m*3 14.2 C 4.8 km/h
2853 08-04-2020 21:40:00 14.2 C 7.08 g/m*3 14.2 C 3.2 km/h
2854 08-04-2020 21:45:00 14.1 C 7.16 g/m*3 14.1 C 1.6 km/h
2855 08-04-2020 21:50:00 13.9 C 7.07 g/m*3 13.9 C 1.6 km/h
2856 08-04-2020 21:55:00 13.7 C 7.1 g/m*3 13.7 C 0 km/h
2857 08-04-2020 22:00:00 13.5 C 6.9 g/m*3 13.5 C 0 km/h
2858 08-04-2020 22:05:00 13.3 C 6.93 g/m*3 13.3 C 0 km/h
2859 08-04-2020 22:10:00 13.1 C 6.85 g/m*3 13.1 C 0 km/h
2860 08-04-2020 22:15:00 12.9 C 6.76 g/m*3 12.9 C 0 km/h
2861 08-04-2020 22:20:00 12.8 C 6.94 g/m*3 12.8 C 3.2 km/h
2862 08-04-2020 22:25:00 12.7 C 7.01 g/m*3 12.7 C 0 km/h
2863 08-04-2020 22:30:00 12.7 C 7.12 g/m*3 12.7 C 0 km/h
2864 08-04-2020 22:35:00 12.6 C 6.97 g/m*3 12.6 C 0 km/h
2865 08-04-2020 22:40:00 12.6 C 7.08 g/m*3 12.6 C 0 km/h
2866 08-04-2020 22:45:00 12.3 C 7.06 g/m*3 12.3 C 0 km/h
2867 08-04-2020 22:50:00 12.1 C 7.08 g/m*3 12.1 C 0 km/h
2868 08-04-2020 22:55:00 11.9 C 6.99 g/m*3 11.9 C 0 km/h
2869 08-04-2020 23:00:00 12 C 6.82 g/m*3 12 C 0 km/h
2870 08-04-2020 23:05:00 12.2 C 6.91 g/m*3 12.2 C 1.6 km/h
2871 08-04-2020 23:10:00 12.2 C 7.01 g/m*3 12.2 C 0 km/h
2872 08-04-2020 23:15:00 12.1 C 6.97 g/m*3 12.1 C 0 km/h
2873 08-04-2020 23:20:00 11.8 C 6.95 g/m*3 11.8 C 0 km/h
2874 08-04-2020 23:25:00 11.6 C 6.96 g/m*3 11.6 C 0 km/h
2875 08-04-2020 23:30:00 11.3 C 6.94 g/m*3 11.3 C 0 km/h
Sensor: Nr:Datum:Temp:Abs-Feuchte:Windchill:Wind:
Aussen-T/F 2876 08-04-2020 23:35:00 11.2 C 6.99 g/m*3 11.2 C 1.6 km/h
2877 08-04-2020 23:40:00 11.1 C 6.85 g/m*3 11.1 C 1.6 km/h
2878 08-04-2020 23:45:00 11.2 C 6.89 g/m*3 11.2 C 0 km/h
2879 08-04-2020 23:50:00 11.5 C 7.02 g/m*3 11.5 C 1.6 km/h
2880 08-04-2020 23:55:00 11.7 C 7.01 g/m*3 11.7 C 1.6 km/h
2881 09-04-2020 00:00:00 11.7 C 7.01 g/m*3 11.7 C 0 km/h
2882 09-04-2020 00:05:00 11.6 C 7.07 g/m*3 11.6 C 0 km/h
2883 09-04-2020 00:10:00 11.5 C 6.92 g/m*3 11.5 C 0 km/h
2884 09-04-2020 00:15:00 11.6 C 6.96 g/m*3 11.6 C 1.6 km/h
2885 09-04-2020 00:20:00 11.7 C 7.01 g/m*3 11.7 C 0 km/h
2886 09-04-2020 00:25:00 11.6 C 7.07 g/m*3 11.6 C 0 km/h
2887 09-04-2020 00:30:00 11.3 C 6.94 g/m*3 11.3 C 0 km/h
2888 09-04-2020 00:35:00 11.1 C 6.95 g/m*3 11.1 C 0 km/h
2889 09-04-2020 00:40:00 11.2 C 6.89 g/m*3 11.2 C 4.8 km/h
2890 09-04-2020 00:45:00 11.2 C 6.99 g/m*3 11.2 C 3.2 km/h
2891 09-04-2020 00:50:00 11.2 C 6.99 g/m*3 11.2 C 1.6 km/h
2892 09-04-2020 00:55:00 11.1 C 7.05 g/m*3 11.1 C 0 km/h
2893 09-04-2020 01:00:00 11.1 C 7.05 g/m*3 11.1 C 0 km/h
2894 09-04-2020 01:05:00 10.9 C 7.06 g/m*3 10.9 C 0 km/h
2895 09-04-2020 01:10:00 10.8 C 7.02 g/m*3 10.8 C 0 km/h
2896 09-04-2020 01:15:00 10.6 C 6.93 g/m*3 10.6 C 0 km/h
2897 09-04-2020 01:20:00 10.3 C 6.9 g/m*3 10.3 C 0 km/h
2898 09-04-2020 01:25:00 10.1 C 6.9 g/m*3 10.1 C 4.8 km/h
2899 09-04-2020 01:30:00 10 C 6.95 g/m*3 10 C 4.8 km/h
2900 09-04-2020 01:35:00 10.1 C 7.19 g/m*3 10.1 C 0 km/h
Sensor: Nr:Datum:Temp:Abs-Feuchte:Windchill:Wind:
Aussen-T/F 2901 09-04-2020 01:40:00 10.1 C 7.19 g/m*3 10.1 C 3.2 km/h
2902 09-04-2020 01:45:00 10 C 7.14 g/m*3 10 C 1.6 km/h
2903 09-04-2020 01:50:00 10 C 7.24 g/m*3 10 C 1.6 km/h
2904 09-04-2020 01:55:00 10 C 7.24 g/m*3 10 C 0 km/h
2905 09-04-2020 02:00:00 9.8 C 7.05 g/m*3 9.8 C 0 km/h
2906 09-04-2020 02:05:00 9.7 C 7.01 g/m*3 9.7 C 0 km/h
2907 09-04-2020 02:10:00 9.6 C 6.96 g/m*3 9.6 C 0 km/h
2908 09-04-2020 02:15:00 9.5 C 7.01 g/m*3 9.5 C 0 km/h
2909 09-04-2020 02:20:00 9.4 C 6.96 g/m*3 9.4 C 0 km/h
2910 09-04-2020 02:25:00 9.4 C 7.05 g/m*3 9.4 C 0 km/h
2911 09-04-2020 02:30:00 9.3 C 7.01 g/m*3 9.3 C 0 km/h
2912 09-04-2020 02:35:00 9.3 C 7.1 g/m*3 9.3 C 0 km/h
2913 09-04-2020 02:40:00 9.2 C 6.97 g/m*3 9.2 C 0 km/h
2914 09-04-2020 02:45:00 9.2 C 6.97 g/m*3 9.2 C 0 km/h
2915 09-04-2020 02:50:00 9.2 C 7.05 g/m*3 9.2 C 0 km/h
2916 09-04-2020 02:55:00 9.3 C 7.01 g/m*3 9.3 C 0 km/h
2917 09-04-2020 03:00:00 9.4 C 7.05 g/m*3 9.4 C 0 km/h
2918 09-04-2020 03:05:00 9.5 C 7.1 g/m*3 9.5 C 0 km/h
2919 09-04-2020 03:10:00 9.6 C 7.15 g/m*3 9.6 C 4.8 km/h
2920 09-04-2020 03:15:00 9.7 C 7.1 g/m*3 9.7 C 3.2 km/h
2921 09-04-2020 03:20:00 9.7 C 7.1 g/m*3 9.7 C 3.2 km/h
2922 09-04-2020 03:25:00 9.7 C 7.19 g/m*3 9.7 C 0 km/h
2923 09-04-2020 03:30:00 9.7 C 7.19 g/m*3 9.7 C 0 km/h
2924 09-04-2020 03:35:00 9.7 C 7.19 g/m*3 9.7 C 0 km/h
2925 09-04-2020 03:40:00 9.7 C 7.19 g/m*3 9.7 C 3.2 km/h
Sensor: Nr:Datum:Temp:Abs-Feuchte:Windchill:Wind:
Aussen-T/F 2926 09-04-2020 03:45:00 9.8 C 7.33 g/m*3 8.75 C 8.1 km/h
2927 09-04-2020 03:50:00 9.8 C 7.14 g/m*3 9.8 C 3.2 km/h
2928 09-04-2020 03:55:00 9.9 C 7.19 g/m*3 9.9 C 1.6 km/h
2929 09-04-2020 04:00:00 10 C 7.33 g/m*3 10 C 0 km/h
2930 09-04-2020 04:05:00 10.1 C 7.38 g/m*3 10.1 C 0 km/h
2931 09-04-2020 04:10:00 10.1 C 7.38 g/m*3 10.1 C 3.2 km/h
2932 09-04-2020 04:15:00 10.1 C 7.38 g/m*3 9.48 C 6.4 km/h
2933 09-04-2020 04:20:00 10.2 C 7.42 g/m*3 9.22 C 8.1 km/h
2934 09-04-2020 04:25:00 10.2 C 7.42 g/m*3 9.6 C 6.4 km/h
2935 09-04-2020 04:30:00 10.1 C 7.38 g/m*3 9.48 C 6.4 km/h
2936 09-04-2020 04:35:00 10 C 7.33 g/m*3 10 C 4.8 km/h
2937 09-04-2020 04:40:00 9.9 C 7.38 g/m*3 9.9 C 1.6 km/h
2938 09-04-2020 04:45:00 9.8 C 7.33 g/m*3 9.8 C 0 km/h
2939 09-04-2020 04:50:00 9.7 C 7.28 g/m*3 9.7 C 0 km/h
2940 09-04-2020 04:55:00 9.6 C 7.24 g/m*3 9.6 C 0 km/h
2941 09-04-2020 05:00:00 9.4 C 7.15 g/m*3 9.4 C 0 km/h
2942 09-04-2020 05:05:00 9.4 C 7.15 g/m*3 9.4 C 0 km/h
2943 09-04-2020 05:10:00 9.3 C 7.19 g/m*3 9.3 C 0 km/h
2944 09-04-2020 05:15:00 9.2 C 7.14 g/m*3 9.2 C 0 km/h
2945 09-04-2020 05:20:00 9.2 C 7.14 g/m*3 9.2 C 0 km/h
2946 09-04-2020 05:25:00 9.2 C 7.14 g/m*3 9.2 C 0 km/h
2947 09-04-2020 05:30:00 9.1 C 7.1 g/m*3 9.1 C 0 km/h
2948 09-04-2020 05:35:00 9 C 7.14 g/m*3 9 C 0 km/h
2949 09-04-2020 05:40:00 8.9 C 7.18 g/m*3 8.9 C 0 km/h
2950 09-04-2020 05:45:00 8.8 C 7.14 g/m*3 8.8 C 0 km/h
Sensor: Nr:Datum:Temp:Abs-Feuchte:Windchill:Wind:
Aussen-T/F 2951 09-04-2020 05:50:00 8.7 C 7.09 g/m*3 8.7 C 0 km/h
2952 09-04-2020 05:55:00 8.6 C 7.13 g/m*3 8.6 C 0 km/h
2953 09-04-2020 06:00:00 8.6 C 7.13 g/m*3 8.6 C 0 km/h
2954 09-04-2020 06:05:00 8.5 C 7.09 g/m*3 8.5 C 0 km/h
2955 09-04-2020 06:10:00 8.4 C 7.04 g/m*3 8.4 C 0 km/h
2956 09-04-2020 06:15:00 8.3 C 7 g/m*3 8.3 C 0 km/h
2957 09-04-2020 06:20:00 8.1 C 6.91 g/m*3 8.1 C 0 km/h
2958 09-04-2020 06:25:00 7.9 C 6.82 g/m*3 7.9 C 0 km/h
2959 09-04-2020 06:30:00 7.8 C 6.86 g/m*3 7.8 C 0 km/h
2960 09-04-2020 06:35:00 7.7 C 6.81 g/m*3 7.7 C 0 km/h
2961 09-04-2020 06:40:00 7.6 C 6.77 g/m*3 7.6 C 0 km/h
2962 09-04-2020 06:45:00 7.4 C 6.76 g/m*3 7.4 C 0 km/h
2963 09-04-2020 06:50:00 7.3 C 6.72 g/m*3 7.3 C 0 km/h
2964 09-04-2020 06:55:00 7.3 C 6.79 g/m*3 7.3 C 0 km/h
2965 09-04-2020 07:00:00 7.3 C 6.79 g/m*3 7.3 C 0 km/h
2966 09-04-2020 07:05:00 7.3 C 6.79 g/m*3 7.3 C 0 km/h
2967 09-04-2020 07:10:00 7.4 C 6.92 g/m*3 7.4 C 0 km/h
2968 09-04-2020 07:15:00 7.5 C 6.96 g/m*3 7.5 C 0 km/h
2969 09-04-2020 07:20:00 7.7 C 7.05 g/m*3 7.7 C 0 km/h
2970 09-04-2020 07:25:00 7.7 C 6.97 g/m*3 7.7 C 0 km/h
2971 09-04-2020 07:30:00 7.7 C 6.97 g/m*3 7.7 C 0 km/h
2972 09-04-2020 07:35:00 7.7 C 6.97 g/m*3 7.7 C 0 km/h
2973 09-04-2020 07:40:00 7.6 C 6.93 g/m*3 7.6 C 0 km/h
2974 09-04-2020 07:45:00 7.6 C 6.93 g/m*3 7.6 C 0 km/h
2975 09-04-2020 07:50:00 7.6 C 7.01 g/m*3 7.6 C 0 km/h
Sensor: Nr:Datum:Temp:Abs-Feuchte:Windchill:Wind:
Aussen-T/F 2976 09-04-2020 07:55:00 7.6 C 7.01 g/m*3 7.6 C 0 km/h
2977 09-04-2020 08:00:00 7.6 C 7.01 g/m*3 7.6 C 0 km/h
2978 09-04-2020 08:05:00 7.6 C 7.01 g/m*3 7.6 C 0 km/h
2979 09-04-2020 08:10:00 7.7 C 7.14 g/m*3 7.7 C 1.6 km/h
2980 09-04-2020 08:15:00 7.7 C 7.14 g/m*3 7.7 C 0 km/h
2981 09-04-2020 08:20:00 7.8 C 7.18 g/m*3 7.8 C 0 km/h
2982 09-04-2020 08:25:00 7.8 C 7.18 g/m*3 7.8 C 0 km/h
2983 09-04-2020 08:30:00 7.9 C 7.23 g/m*3 7.9 C 0 km/h
2984 09-04-2020 08:35:00 7.9 C 7.23 g/m*3 7.9 C 0 km/h
2985 09-04-2020 08:40:00 8.1 C 7.32 g/m*3 8.1 C 0 km/h
2986 09-04-2020 08:45:00 8.2 C 7.37 g/m*3 8.2 C 0 km/h
2987 09-04-2020 08:50:00 8.3 C 7.42 g/m*3 8.3 C 0 km/h
2988 09-04-2020 08:55:00 8.4 C 7.38 g/m*3 8.4 C 0 km/h
2989 09-04-2020 09:00:00 8.6 C 7.56 g/m*3 8.6 C 0 km/h
2990 09-04-2020 09:05:00 8.7 C 7.52 g/m*3 8.7 C 0 km/h
2991 09-04-2020 09:10:00 8.8 C 7.57 g/m*3 8.8 C 0 km/h
2992 09-04-2020 09:15:00 8.9 C 7.62 g/m*3 8.9 C 0 km/h
2993 09-04-2020 09:20:00 9 C 7.67 g/m*3 9 C 0 km/h
2994 09-04-2020 09:25:00 9.1 C 7.72 g/m*3 9.1 C 0 km/h
2995 09-04-2020 09:30:00 9.2 C 7.77 g/m*3 9.2 C 0 km/h
2996 09-04-2020 09:35:00 9.4 C 7.87 g/m*3 9.4 C 0 km/h
2997 09-04-2020 09:40:00 9.6 C 7.97 g/m*3 9.6 C 0 km/h
2998 09-04-2020 09:45:00 9.8 C 8.07 g/m*3 9.8 C 0 km/h
2999 09-04-2020 09:50:00 9.9 C 8.12 g/m*3 9.9 C 0 km/h
3000 09-04-2020 09:55:00 10.1 C 8.13 g/m*3 10.1 C 0 km/h
Sensor: Nr:Datum:Temp:Abs-Feuchte:Windchill:Wind:
Aussen-T/F 3001 09-04-2020 10:00:00 10.3 C 8.24 g/m*3 10.3 C 0 km/h
3002 09-04-2020 10:05:00 10.5 C 8.34 g/m*3 10.5 C 0 km/h
3003 09-04-2020 10:10:00 10.7 C 8.35 g/m*3 10.7 C 0 km/h
3004 09-04-2020 10:15:00 10.9 C 8.26 g/m*3 10.9 C 0 km/h
3005 09-04-2020 10:20:00 11.2 C 8.41 g/m*3 11.2 C 0 km/h
3006 09-04-2020 10:25:00 11.6 C 8.52 g/m*3 11.6 C 0 km/h
3007 09-04-2020 10:30:00 11.8 C 8.53 g/m*3 11.8 C 0 km/h
3008 09-04-2020 10:35:00 12.2 C 8.63 g/m*3 12.2 C 0 km/h
3009 09-04-2020 10:40:00 12.5 C 8.58 g/m*3 12.5 C 0 km/h
3010 09-04-2020 10:45:00 12.8 C 8.74 g/m*3 12.8 C 0 km/h
3011 09-04-2020 10:50:00 13.2 C 8.84 g/m*3 13.2 C 0 km/h
3012 09-04-2020 10:55:00 13.6 C 9.06 g/m*3 13.6 C 0 km/h
3013 09-04-2020 11:00:00 14 C 8.93 g/m*3 14 C 0 km/h
3014 09-04-2020 11:05:00 14.4 C 8.65 g/m*3 14.4 C 0 km/h
3015 09-04-2020 11:10:00 14.9 C 8.92 g/m*3 14.9 C 0 km/h
3016 09-04-2020 11:15:00 15.4 C 9.07 g/m*3 15.4 C 0 km/h
3017 09-04-2020 11:20:00 15.8 C 8.88 g/m*3 15.8 C 0 km/h
3018 09-04-2020 11:25:00 16.3 C 8.74 g/m*3 16.3 C 1.6 km/h
3019 09-04-2020 11:30:00 16.7 C 8.95 g/m*3 16.7 C 0 km/h
3020 09-04-2020 11:35:00 17.1 C 8.73 g/m*3 17.1 C 0 km/h
3021 09-04-2020 11:40:00 17.4 C 8.89 g/m*3 17.4 C 1.6 km/h
3022 09-04-2020 11:45:00 17.7 C 8.9 g/m*3 17.7 C 0 km/h
3023 09-04-2020 11:50:00 18.1 C 8.65 g/m*3 18.1 C 0 km/h
3024 09-04-2020 11:55:00 18.3 C 8.91 g/m*3 18.3 C 1.6 km/h
3025 09-04-2020 12:00:00 18.6 C 8.91 g/m*3 18.6 C 4.8 km/h
Sensor: Nr:Datum:Temp:Abs-Feuchte:Windchill:Wind:
Aussen-T/F 3026 09-04-2020 12:05:00 18.8 C 8.86 g/m*3 18.8 C 3.2 km/h
3027 09-04-2020 12:10:00 19.1 C 8.69 g/m*3 19.1 C 3.2 km/h
3028 09-04-2020 12:15:00 19.3 C 8.79 g/m*3 19.3 C 3.2 km/h
3029 09-04-2020 12:20:00 19.6 C 8.95 g/m*3 19.6 C 0 km/h
3030 09-04-2020 12:25:00 19.8 C 9.05 g/m*3 19.8 C 1.6 km/h
3031 09-04-2020 12:30:00 20.1 C 9.21 g/m*3 20.1 C 1.6 km/h
3032 09-04-2020 12:35:00 20.3 C 8.97 g/m*3 20.3 C 0 km/h
3033 09-04-2020 12:40:00 20.6 C 8.95 g/m*3 20.6 C 1.6 km/h
3034 09-04-2020 12:45:00 20.8 C 8.69 g/m*3 20.8 C 1.6 km/h
3035 09-04-2020 12:50:00 21 C 8.98 g/m*3 21 C 3.2 km/h
3036 09-04-2020 12:55:00 21.2 C 9.08 g/m*3 21.2 C 1.6 km/h
3037 09-04-2020 13:00:00 21.3 C 8.76 g/m*3 21.3 C 3.2 km/h
3038 09-04-2020 13:05:00 21.3 C 8.95 g/m*3 21.3 C 4.8 km/h
3039 09-04-2020 13:10:00 21.4 C 8.62 g/m*3 21.4 C 3.2 km/h
3040 09-04-2020 13:15:00 21.6 C 8.53 g/m*3 21.6 C 0 km/h
3041 09-04-2020 13:20:00 21.7 C 8.77 g/m*3 21.7 C 4.8 km/h
3042 09-04-2020 13:25:00 21.8 C 8.83 g/m*3 21.8 C 4.8 km/h
3043 09-04-2020 13:30:00 21.9 C 8.49 g/m*3 21.9 C 8.1 km/h
3044 09-04-2020 13:35:00 22.1 C 8.78 g/m*3 22.1 C 3.2 km/h
3045 09-04-2020 13:40:00 22.1 C 8 g/m*3 22.1 C 4.8 km/h
3046 09-04-2020 13:45:00 22.1 C 7.61 g/m*3 22.1 C 12.9 km/h
3047 09-04-2020 13:50:00 22.3 C 7.11 g/m*3 22.3 C 8.1 km/h
3048 09-04-2020 13:55:00 22.3 C 7.5 g/m*3 22.3 C 9.7 km/h
3049 09-04-2020 14:00:00 22.5 C 7.59 g/m*3 22.5 C 6.4 km/h
3050 09-04-2020 14:05:00 22.6 C 7.23 g/m*3 22.6 C 4.8 km/h
Sensor: Nr:Datum:Temp:Abs-Feuchte:Windchill:Wind:
Aussen-T/F 3051 09-04-2020 14:10:00 22.6 C 7.23 g/m*3 22.6 C 6.4 km/h
3052 09-04-2020 14:15:00 22.7 C 7.27 g/m*3 22.7 C 4.8 km/h
3053 09-04-2020 14:20:00 22.8 C 6.91 g/m*3 22.8 C 6.4 km/h
3054 09-04-2020 14:25:00 23.1 C 7.03 g/m*3 23.1 C 8.1 km/h
3055 09-04-2020 14:30:00 23.2 C 7.07 g/m*3 23.2 C 6.4 km/h
3056 09-04-2020 14:35:00 23.3 C 7.11 g/m*3 23.3 C 8.1 km/h
3057 09-04-2020 14:40:00 23.4 C 7.15 g/m*3 23.4 C 8.1 km/h
3058 09-04-2020 14:45:00 23.5 C 7.4 g/m*3 23.5 C 6.4 km/h
3059 09-04-2020 14:50:00 23.7 C 7.7 g/m*3 23.7 C 8.1 km/h
3060 09-04-2020 14:55:00 23.7 C 7.49 g/m*3 23.7 C 8.1 km/h
3061 09-04-2020 15:00:00 23.7 C 7.27 g/m*3 23.7 C 14.5 km/h
3062 09-04-2020 15:05:00 23.7 C 7.27 g/m*3 23.7 C 12.9 km/h
3063 09-04-2020 15:10:00 23.7 C 7.06 g/m*3 23.7 C 8.1 km/h
3064 09-04-2020 15:15:00 23.7 C 7.06 g/m*3 23.7 C 12.9 km/h
3065 09-04-2020 15:20:00 23.7 C 7.27 g/m*3 23.7 C 12.9 km/h
3066 09-04-2020 15:25:00 23.6 C 7.23 g/m*3 23.6 C 12.9 km/h
3067 09-04-2020 15:30:00 23.6 C 7.23 g/m*3 23.6 C 9.7 km/h
3068 09-04-2020 15:35:00 23.7 C 7.7 g/m*3 23.7 C 6.4 km/h
3069 09-04-2020 15:40:00 23.8 C 7.31 g/m*3 23.8 C 11.3 km/h
3070 09-04-2020 15:45:00 23.8 C 7.53 g/m*3 23.8 C 14.5 km/h
3071 09-04-2020 15:50:00 23.8 C 7.53 g/m*3 23.8 C 9.7 km/h
3072 09-04-2020 15:55:00 23.8 C 7.31 g/m*3 23.8 C 11.3 km/h
3073 09-04-2020 16:00:00 23.8 C 7.1 g/m*3 23.8 C 6.4 km/h
3074 09-04-2020 16:05:00 23.8 C 7.31 g/m*3 23.8 C 12.9 km/h
3075 09-04-2020 16:10:00 23.9 C 7.36 g/m*3 23.9 C 11.3 km/h
Sensor: Nr:Datum:Temp:Abs-Feuchte:Windchill:Wind:
Aussen-T/F 3076 09-04-2020 16:15:00 24.1 C 7.44 g/m*3 24.1 C 6.4 km/h
3077 09-04-2020 16:20:00 24.2 C 7.48 g/m*3 24.2 C 9.7 km/h
3078 09-04-2020 16:25:00 24.3 C 7.52 g/m*3 24.3 C 16.1 km/h
3079 09-04-2020 16:30:00 24.3 C 7.3 g/m*3 24.3 C 16.1 km/h
3080 09-04-2020 16:35:00 24.3 C 7.3 g/m*3 24.3 C 9.7 km/h
3081 09-04-2020 16:40:00 24.6 C 7.88 g/m*3 24.6 C 11.3 km/h
3082 09-04-2020 16:45:00 24.7 C 7.47 g/m*3 24.7 C 14.5 km/h
3083 09-04-2020 16:50:00 24.7 C 7.7 g/m*3 24.7 C 11.3 km/h
3084 09-04-2020 16:55:00 24.9 C 7.78 g/m*3 24.9 C 9.7 km/h
3085 09-04-2020 17:00:00 24.9 C 7.78 g/m*3 24.9 C 12.9 km/h
3086 09-04-2020 17:05:00 24.8 C 7.51 g/m*3 24.8 C 12.9 km/h
3087 09-04-2020 17:10:00 24.7 C 7.47 g/m*3 24.7 C 11.3 km/h
3088 09-04-2020 17:15:00 24.8 C 7.51 g/m*3 24.8 C 8.1 km/h
3089 09-04-2020 17:20:00 24.8 C 7.28 g/m*3 24.8 C 9.7 km/h
3090 09-04-2020 17:25:00 24.8 C 7.51 g/m*3 24.8 C 11.3 km/h
3091 09-04-2020 17:30:00 24.8 C 7.28 g/m*3 24.8 C 8.1 km/h
3092 09-04-2020 17:35:00 24.7 C 7.24 g/m*3 24.7 C 11.3 km/h
3093 09-04-2020 17:40:00 24.7 C 7.7 g/m*3 24.7 C 12.9 km/h
3094 09-04-2020 17:45:00 24.6 C 7.43 g/m*3 24.6 C 14.5 km/h
3095 09-04-2020 17:50:00 24.4 C 7.57 g/m*3 24.4 C 11.3 km/h
3096 09-04-2020 17:55:00 24.4 C 7.57 g/m*3 24.4 C 11.3 km/h
3097 09-04-2020 18:00:00 24.6 C 7.88 g/m*3 24.6 C 8.1 km/h
3098 09-04-2020 18:05:00 24.6 C 7.65 g/m*3 24.6 C 9.7 km/h
3099 09-04-2020 18:10:00 24.4 C 7.57 g/m*3 24.4 C 14.5 km/h
3100 09-04-2020 18:15:00 24.2 C 7.7 g/m*3 24.2 C 9.7 km/h
Sensor: Nr:Datum:Temp:Abs-Feuchte:Windchill:Wind:
Aussen-T/F 3101 09-04-2020 18:20:00 24.2 C 7.7 g/m*3 24.2 C 12.9 km/h
3102 09-04-2020 18:25:00 24.1 C 7.66 g/m*3 24.1 C 11.3 km/h
3103 09-04-2020 18:30:00 23.9 C 8 g/m*3 23.9 C 14.5 km/h
3104 09-04-2020 18:35:00 23.7 C 7.91 g/m*3 23.7 C 12.9 km/h
3105 09-04-2020 18:40:00 23.7 C 7.91 g/m*3 23.7 C 11.3 km/h
3106 09-04-2020 18:45:00 23.7 C 7.7 g/m*3 23.7 C 14.5 km/h
3107 09-04-2020 18:50:00 23.6 C 7.87 g/m*3 23.6 C 11.3 km/h
3108 09-04-2020 18:55:00 23.4 C 7.57 g/m*3 23.4 C 8.1 km/h
3109 09-04-2020 19:00:00 23.3 C 7.74 g/m*3 23.3 C 8.1 km/h
3110 09-04-2020 19:05:00 23.4 C 7.99 g/m*3 23.4 C 8.1 km/h
3111 09-04-2020 19:10:00 23.3 C 7.95 g/m*3 23.3 C 9.7 km/h
3112 09-04-2020 19:15:00 23.2 C 7.9 g/m*3 23.2 C 3.2 km/h
3113 09-04-2020 19:20:00 22.9 C 7.77 g/m*3 22.9 C 9.7 km/h
3114 09-04-2020 19:25:00 22.6 C 7.83 g/m*3 22.6 C 6.4 km/h
3115 09-04-2020 19:30:00 22.2 C 8.25 g/m*3 22.2 C 8.1 km/h
3116 09-04-2020 19:35:00 21.9 C 8.3 g/m*3 21.9 C 8.1 km/h
3117 09-04-2020 19:40:00 21.6 C 8.16 g/m*3 21.6 C 8.1 km/h
3118 09-04-2020 19:45:00 21.3 C 8.02 g/m*3 21.3 C 6.4 km/h
3119 09-04-2020 19:50:00 21.1 C 7.92 g/m*3 21.1 C 8.1 km/h
3120 09-04-2020 19:55:00 20.9 C 8.01 g/m*3 20.9 C 6.4 km/h
3121 09-04-2020 20:00:00 20.7 C 7.92 g/m*3 20.7 C 4.8 km/h
3122 09-04-2020 20:05:00 20.4 C 8.49 g/m*3 20.4 C 1.6 km/h
3123 09-04-2020 20:10:00 19.9 C 8.25 g/m*3 19.9 C 0 km/h
3124 09-04-2020 20:15:00 19.3 C 8.46 g/m*3 19.3 C 1.6 km/h
3125 09-04-2020 20:20:00 18.7 C 8.49 g/m*3 18.7 C 4.8 km/h
Sensor: Nr:Datum:Temp:Abs-Feuchte:Windchill:Wind:
Aussen-T/F 3126 09-04-2020 20:25:00 18.2 C 8.39 g/m*3 18.2 C 4.8 km/h
3127 09-04-2020 20:30:00 17.8 C 8.5 g/m*3 17.8 C 3.2 km/h
3128 09-04-2020 20:35:00 17.4 C 8.45 g/m*3 17.4 C 3.2 km/h
3129 09-04-2020 20:40:00 17.2 C 8.35 g/m*3 17.2 C 3.2 km/h
3130 09-04-2020 20:45:00 16.9 C 8.49 g/m*3 16.9 C 4.8 km/h
3131 09-04-2020 20:50:00 16.7 C 8.38 g/m*3 16.7 C 4.8 km/h
3132 09-04-2020 20:55:00 16.4 C 8.37 g/m*3 16.4 C 0 km/h
3133 09-04-2020 21:00:00 16.2 C 8.41 g/m*3 16.2 C 3.2 km/h
3134 09-04-2020 21:05:00 16 C 8.31 g/m*3 16 C 1.6 km/h
3135 09-04-2020 21:10:00 16.1 C 8.36 g/m*3 16.1 C 1.6 km/h
3136 09-04-2020 21:15:00 16.2 C 8.27 g/m*3 16.2 C 3.2 km/h
3137 09-04-2020 21:20:00 16.3 C 8.32 g/m*3 16.3 C 4.8 km/h
3138 09-04-2020 21:25:00 16.3 C 8.32 g/m*3 16.3 C 3.2 km/h
3139 09-04-2020 21:30:00 16.2 C 8.41 g/m*3 16.2 C 1.6 km/h
3140 09-04-2020 21:35:00 16 C 8.31 g/m*3 16 C 0 km/h
3141 09-04-2020 21:40:00 15.8 C 8.35 g/m*3 15.8 C 3.2 km/h
3142 09-04-2020 21:45:00 15.6 C 8.25 g/m*3 15.6 C 1.6 km/h
3143 09-04-2020 21:50:00 15.4 C 8.28 g/m*3 15.4 C 3.2 km/h
3144 09-04-2020 21:55:00 15.2 C 8.31 g/m*3 15.2 C 0 km/h
3145 09-04-2020 22:00:00 15.1 C 8.26 g/m*3 15.1 C 3.2 km/h
3146 09-04-2020 22:05:00 15 C 8.21 g/m*3 15 C 1.6 km/h
3147 09-04-2020 22:10:00 14.9 C 8.28 g/m*3 14.9 C 4.8 km/h
3148 09-04-2020 22:15:00 14.9 C 8.28 g/m*3 14.9 C 3.2 km/h
3149 09-04-2020 22:20:00 15 C 8.33 g/m*3 15 C 3.2 km/h
3150 09-04-2020 22:25:00 14.9 C 8.28 g/m*3 14.9 C 3.2 km/h
Sensor: Nr:Datum:Temp:Abs-Feuchte:Windchill:Wind:
Aussen-T/F 3151 09-04-2020 22:30:00 14.8 C 8.23 g/m*3 14.8 C 3.2 km/h
3152 09-04-2020 22:35:00 14.7 C 8.31 g/m*3 14.7 C 3.2 km/h
3153 09-04-2020 22:40:00 14.6 C 8.26 g/m*3 14.6 C 4.8 km/h
3154 09-04-2020 22:45:00 14.4 C 8.28 g/m*3 14.4 C 3.2 km/h
3155 09-04-2020 22:50:00 14.3 C 8.23 g/m*3 14.3 C 1.6 km/h
3156 09-04-2020 22:55:00 14.2 C 8.3 g/m*3 14.2 C 6.4 km/h
3157 09-04-2020 23:00:00 14.1 C 8.25 g/m*3 14.1 C 0 km/h
3158 09-04-2020 23:05:00 13.9 C 8.15 g/m*3 13.9 C 1.6 km/h
3159 09-04-2020 23:10:00 13.8 C 8.22 g/m*3 13.8 C 1.6 km/h
3160 09-04-2020 23:15:00 13.8 C 8.22 g/m*3 13.8 C 3.2 km/h
3161 09-04-2020 23:20:00 13.7 C 8.17 g/m*3 13.7 C 3.2 km/h
3162 09-04-2020 23:25:00 13.6 C 8.12 g/m*3 13.6 C 0 km/h
3163 09-04-2020 23:30:00 13.4 C 8.14 g/m*3 13.4 C 3.2 km/h
3164 09-04-2020 23:35:00 13.3 C 8.09 g/m*3 13.3 C 3.2 km/h
3165 09-04-2020 23:40:00 13.3 C 8.2 g/m*3 13.3 C 1.6 km/h
3166 09-04-2020 23:45:00 13.2 C 8.15 g/m*3 13.2 C 4.8 km/h
3167 09-04-2020 23:50:00 13.1 C 8.1 g/m*3 13.1 C 4.8 km/h
3168 09-04-2020 23:55:00 12.9 C 8.11 g/m*3 12.9 C 4.8 km/h
3169 10-04-2020 00:00:00 12.8 C 8.18 g/m*3 12.8 C 3.2 km/h
3170 10-04-2020 00:05:00 12.7 C 8.13 g/m*3 12.7 C 4.8 km/h
3171 10-04-2020 00:10:00 12.6 C 8.08 g/m*3 12.6 C 3.2 km/h
3172 10-04-2020 00:15:00 12.4 C 8.09 g/m*3 12.4 C 3.2 km/h
3173 10-04-2020 00:20:00 12.3 C 8.04 g/m*3 12.3 C 4.8 km/h
3174 10-04-2020 00:25:00 12.2 C 7.99 g/m*3 12.2 C 3.2 km/h
3175 10-04-2020 00:30:00 12 C 7.99 g/m*3 12 C 1.6 km/h
Sensor: Nr:Datum:Temp:Abs-Feuchte:Windchill:Wind:
Aussen-T/F 3176 10-04-2020 00:35:00 11.9 C 8.05 g/m*3 11.9 C 0 km/h
3177 10-04-2020 00:40:00 11.7 C 7.95 g/m*3 11.7 C 0 km/h
3178 10-04-2020 00:45:00 11.5 C 7.85 g/m*3 11.5 C 0 km/h
3179 10-04-2020 00:50:00 11.3 C 7.85 g/m*3 11.3 C 0 km/h
3180 10-04-2020 00:55:00 11.1 C 7.86 g/m*3 11.1 C 0 km/h
3181 10-04-2020 01:00:00 10.9 C 7.86 g/m*3 10.9 C 0 km/h
3182 10-04-2020 01:05:00 10.8 C 7.81 g/m*3 10.8 C 0 km/h
3183 10-04-2020 01:10:00 10.7 C 7.76 g/m*3 10.7 C 0 km/h
3184 10-04-2020 01:15:00 10.6 C 7.71 g/m*3 10.6 C 0 km/h
3185 10-04-2020 01:20:00 10.4 C 7.71 g/m*3 10.4 C 0 km/h
3186 10-04-2020 01:25:00 10.3 C 7.76 g/m*3 10.3 C 0 km/h
3187 10-04-2020 01:30:00 10.2 C 7.71 g/m*3 10.2 C 0 km/h
3188 10-04-2020 01:35:00 10.2 C 7.71 g/m*3 10.2 C 0 km/h
3189 10-04-2020 01:40:00 10.2 C 7.71 g/m*3 10.2 C 0 km/h
3190 10-04-2020 01:45:00 10.1 C 7.66 g/m*3 10.1 C 0 km/h
3191 10-04-2020 01:50:00 9.9 C 7.66 g/m*3 9.9 C 0 km/h
3192 10-04-2020 01:55:00 9.8 C 7.61 g/m*3 9.8 C 0 km/h
3193 10-04-2020 02:00:00 9.7 C 7.65 g/m*3 9.7 C 0 km/h
3194 10-04-2020 02:05:00 9.6 C 7.51 g/m*3 9.6 C 0 km/h
3195 10-04-2020 02:10:00 9.6 C 7.6 g/m*3 9.6 C 0 km/h
3196 10-04-2020 02:15:00 9.6 C 7.6 g/m*3 9.6 C 0 km/h
3197 10-04-2020 02:20:00 9.4 C 7.51 g/m*3 9.4 C 0 km/h
3198 10-04-2020 02:25:00 9.3 C 7.46 g/m*3 9.3 C 0 km/h
3199 10-04-2020 02:30:00 9.3 C 7.46 g/m*3 9.3 C 0 km/h
3200 10-04-2020 02:35:00 9.2 C 7.41 g/m*3 9.2 C 0 km/h
Sensor: Nr:Datum:Temp:Abs-Feuchte:Windchill:Wind:
Aussen-T/F 3201 10-04-2020 02:40:00 9.1 C 7.45 g/m*3 9.1 C 0 km/h
3202 10-04-2020 02:45:00 9 C 7.41 g/m*3 9 C 0 km/h
3203 10-04-2020 02:50:00 8.9 C 7.36 g/m*3 8.9 C 0 km/h
3204 10-04-2020 02:55:00 8.8 C 7.31 g/m*3 8.8 C 0 km/h
3205 10-04-2020 03:00:00 8.8 C 7.4 g/m*3 8.8 C 0 km/h
3206 10-04-2020 03:05:00 8.7 C 7.35 g/m*3 8.7 C 0 km/h
3207 10-04-2020 03:10:00 8.6 C 7.3 g/m*3 8.6 C 0 km/h
3208 10-04-2020 03:15:00 8.4 C 7.21 g/m*3 8.4 C 0 km/h
3209 10-04-2020 03:20:00 8.4 C 7.21 g/m*3 8.4 C 0 km/h
3210 10-04-2020 03:25:00 8.3 C 7.25 g/m*3 8.3 C 0 km/h
3211 10-04-2020 03:30:00 8.2 C 7.2 g/m*3 8.2 C 0 km/h
3212 10-04-2020 03:35:00 8.1 C 7.16 g/m*3 8.1 C 0 km/h
3213 10-04-2020 03:40:00 8.1 C 7.16 g/m*3 8.1 C 0 km/h
3214 10-04-2020 03:45:00 8.1 C 7.24 g/m*3 8.1 C 0 km/h
3215 10-04-2020 03:50:00 8 C 7.19 g/m*3 8 C 0 km/h
3216 10-04-2020 03:55:00 7.9 C 7.15 g/m*3 7.9 C 0 km/h
3217 10-04-2020 04:00:00 7.8 C 7.1 g/m*3 7.8 C 0 km/h
3218 10-04-2020 04:05:00 7.7 C 7.05 g/m*3 7.7 C 0 km/h
3219 10-04-2020 04:10:00 7.7 C 7.05 g/m*3 7.7 C 0 km/h
3220 10-04-2020 04:15:00 7.6 C 7.01 g/m*3 7.6 C 0 km/h
3221 10-04-2020 04:20:00 7.6 C 7.09 g/m*3 7.6 C 0 km/h
3222 10-04-2020 04:25:00 7.5 C 7.04 g/m*3 7.5 C 0 km/h
3223 10-04-2020 04:30:00 7.4 C 7 g/m*3 7.4 C 0 km/h
3224 10-04-2020 04:35:00 7.3 C 6.95 g/m*3 7.3 C 0 km/h
3225 10-04-2020 04:40:00 7.3 C 7.03 g/m*3 7.3 C 0 km/h